Wetterdaten: Sonntag, 18.12.2016
Datum Zeit Temp. A. Feuchte A. Luftdruck Regen Wind Richtung Richtung Sonnenschein ET UV Solar Taupunkt Windchill Windben Empfang
18.12.2016 00:00 -1,1 C 95 % 1039,8 hPa 0,0 l/m 0,2 km/h (0 Bft) NW 314 0 min 0,000 mm 0,0 UV-I 0 W/m -1,8 C -1,1 C 1,6 km/h (1 Bft) 97,56 %
18.12.2016 00:02 -1,1 C 95 % 1039,8 hPa 0,0 l/m 0,0 km/h (0 Bft) NW 314 0 min 0,000 mm 0,0 UV-I 0 W/m -1,8 C -1,1 C 0,0 km/h (0 Bft) 97,73 %
18.12.2016 00:04 -1,1 C 95 % 1039,8 hPa 0,0 l/m 0,1 km/h (0 Bft) NW 314 0 min 0,000 mm 0,0 UV-I 0 W/m -1,8 C -1,1 C 1,6 km/h (1 Bft) 97,37 %
18.12.2016 00:06 -1,1 C 95 % 1039,8 hPa 0,0 l/m 0,0 km/h (0 Bft) NW 314 0 min 0,000 mm 0,0 UV-I 0 W/m -1,8 C -1,1 C 0,0 km/h (0 Bft) 94,34 %
18.12.2016 00:08 -1,0 C 95 % 1039,8 hPa 0,0 l/m 0,0 km/h (0 Bft) NW 314 0 min 0,000 mm 0,0 UV-I 0 W/m -1,7 C -1,0 C 0,0 km/h (0 Bft) 97,44 %
18.12.2016 00:10 -1,0 C 95 % 1039,8 hPa 0,0 l/m 0,1 km/h (0 Bft) NW 314 0 min 0,000 mm 0,0 UV-I 0 W/m -1,7 C -1,0 C 1,6 km/h (1 Bft) 98,11 %
18.12.2016 00:12 -1,0 C 95 % 1039,8 hPa 0,0 l/m 0,0 km/h (0 Bft) NW 314 0 min 0,000 mm 0,0 UV-I 0 W/m -1,7 C -1,0 C 0,0 km/h (0 Bft) 95,74 %
18.12.2016 00:14 -1,1 C 95 % 1039,8 hPa 0,0 l/m 0,1 km/h (0 Bft) NW 314 0 min 0,000 mm 0,0 UV-I 0 W/m -1,8 C -1,1 C 1,6 km/h (1 Bft) 97,87 %
18.12.2016 00:16 -1,1 C 95 % 1039,7 hPa 0,0 l/m 0,1 km/h (0 Bft) NW 314 0 min 0,000 mm 0,0 UV-I 0 W/m -1,8 C -1,1 C 1,6 km/h (1 Bft) 98,00 %
18.12.2016 00:18 -1,1 C 95 % 1039,7 hPa 0,0 l/m 0,1 km/h (0 Bft) NW 314 0 min 0,000 mm 0,0 UV-I 0 W/m -1,8 C -1,1 C 1,6 km/h (1 Bft) 98,00 %
18.12.2016 00:20 -1,1 C 95 % 1039,7 hPa 0,0 l/m 0,0 km/h (0 Bft) NW 314 0 min 0,000 mm 0,0 UV-I 0 W/m -1,8 C -1,1 C 0,0 km/h (0 Bft) 97,56 %
18.12.2016 00:22 -1,1 C 95 % 1039,7 hPa 0,0 l/m 0,8 km/h (0 Bft) NW 314 0 min 0,000 mm 0,0 UV-I 0 W/m -1,8 C -1,1 C 3,2 km/h (1 Bft) 97,87 %
18.12.2016 00:24 -1,1 C 95 % 1039,7 hPa 0,0 l/m 2,0 km/h (1 Bft) NW 314 0 min 0,000 mm 0,0 UV-I 0 W/m -1,8 C -1,1 C 3,2 km/h (1 Bft) 96,00 %
18.12.2016 00:26 -1,1 C 95 % 1039,7 hPa 0,0 l/m 1,5 km/h (1 Bft) NW 314 0 min 0,000 mm 0,0 UV-I 0 W/m -1,8 C -1,1 C 3,2 km/h (1 Bft) 97,87 %
18.12.2016 00:28 -1,1 C 95 % 1039,6 hPa 0,0 l/m 0,5 km/h (0 Bft) NW 314 0 min 0,000 mm 0,0 UV-I 0 W/m -1,8 C -1,1 C 1,6 km/h (1 Bft) 97,37 %
18.12.2016 00:30 -1,1 C 95 % 1039,6 hPa 0,0 l/m 1,6 km/h (1 Bft) NW 314 0 min 0,000 mm 0,0 UV-I 0 W/m -1,8 C -1,1 C 3,2 km/h (1 Bft) 96,43 %
18.12.2016 00:32 -1,1 C 95 % 1039,5 hPa 0,0 l/m 1,6 km/h (1 Bft) NW 314 0 min 0,000 mm 0,0 UV-I 0 W/m -1,8 C -1,1 C 3,2 km/h (1 Bft) 97,56 %
18.12.2016 00:34 -1,1 C 95 % 1039,6 hPa 0,0 l/m 1,9 km/h (1 Bft) NW 314 0 min 0,000 mm 0,0 UV-I 0 W/m -1,8 C -1,1 C 3,2 km/h (1 Bft) 100,00 %
18.12.2016 00:36 -1,1 C 95 % 1039,5 hPa 0,0 l/m 2,5 km/h (1 Bft) NW 321 0 min 0,000 mm 0,0 UV-I 0 W/m -1,8 C -1,1 C 4,8 km/h (1 Bft) 100,00 %
18.12.2016 00:38 -1,1 C 95 % 1039,5 hPa 0,0 l/m 3,0 km/h (1 Bft) NW 326 0 min 0,000 mm 0,0 UV-I 0 W/m -1,8 C -1,1 C 4,8 km/h (1 Bft) 98,00 %
18.12.2016 00:40 -1,1 C 95 % 1039,5 hPa 0,0 l/m 3,4 km/h (1 Bft) NW 326 0 min 0,000 mm 0,0 UV-I 0 W/m -1,8 C -1,1 C 4,8 km/h (1 Bft) 100,00 %
18.12.2016 00:42 -1,1 C 95 % 1039,5 hPa 0,0 l/m 2,8 km/h (1 Bft) NW 326 0 min 0,000 mm 0,0 UV-I 0 W/m -1,8 C -1,1 C 4,8 km/h (1 Bft) 100,00 %
18.12.2016 00:44 -1,1 C 95 % 1039,5 hPa 0,0 l/m 0,9 km/h (0 Bft) NW 326 0 min 0,000 mm 0,0 UV-I 0 W/m -1,8 C -1,1 C 3,2 km/h (1 Bft) 96,00 %
18.12.2016 00:46 -1,1 C 95 % 1039,5 hPa 0,0 l/m 0,7 km/h (0 Bft) NW 326 0 min 0,000 mm 0,0 UV-I 0 W/m -1,8 C -1,1 C 1,6 km/h (1 Bft) 100,00 %
18.12.2016 00:48 -1,2 C 95 % 1039,5 hPa 0,0 l/m 0,6 km/h (0 Bft) NW 326 0 min 0,000 mm 0,0 UV-I 0 W/m -1,9 C -1,2 C 1,6 km/h (1 Bft) 100,00 %
18.12.2016 00:50 -1,1 C 95 % 1039,5 hPa 0,0 l/m 0,0 km/h (0 Bft) NW 326 0 min 0,000 mm 0,0 UV-I 0 W/m -1,8 C -1,1 C 0,0 km/h (0 Bft) 100,00 %
18.12.2016 00:52 -1,1 C 95 % 1039,5 hPa 0,0 l/m 0,0 km/h (0 Bft) NW 326 0 min 0,000 mm 0,0 UV-I 0 W/m -1,8 C -1,1 C 1,6 km/h (1 Bft) 100,00 %
18.12.2016 00:54 -1,2 C 95 % 1039,4 hPa 0,0 l/m 0,3 km/h (0 Bft) NW 326 0 min 0,000 mm 0,0 UV-I 0 W/m -1,9 C -1,2 C 1,6 km/h (1 Bft) 100,00 %
18.12.2016 00:56 -1,2 C 95 % 1039,3 hPa 0,0 l/m 0,7 km/h (0 Bft) N-NW 331 0 min 0,000 mm 0,0 UV-I 0 W/m -1,9 C -1,2 C 3,2 km/h (1 Bft) 97,87 %
18.12.2016 00:58 -1,2 C 95 % 1039,2 hPa 0,0 l/m 0,6 km/h (0 Bft) N-NW 331 0 min 0,000 mm 0,0 UV-I 0 W/m -1,9 C -1,2 C 3,2 km/h (1 Bft) 100,00 %
18.12.2016 01:00 -1,2 C 95 % 1039,2 hPa 0,0 l/m 0,0 km/h (0 Bft) N-NW 331 0 min 0,000 mm 0,0 UV-I 0 W/m -1,9 C -1,2 C 1,6 km/h (1 Bft) 100,00 %
18.12.2016 01:01 -1,2 C 96 % 1039,2 hPa 0,0 l/m 0,5 km/h (0 Bft) N-NW 331 0 min 0,000 mm 0,0 UV-I 0 W/m -1,8 C -1,2 C 1,6 km/h (1 Bft) 100,00 %
18.12.2016 01:04 -1,2 C 96 % 1039,2 hPa 0,0 l/m 0,2 km/h (0 Bft) N-NW 331 0 min 0,000 mm 0,0 UV-I 0 W/m -1,8 C -1,2 C 1,6 km/h (1 Bft) 100,00 %
18.12.2016 01:06 -1,2 C 96 % 1039,2 hPa 0,0 l/m 0,7 km/h (0 Bft) N-NW 331 0 min 0,000 mm 0,0 UV-I 0 W/m -1,8 C -1,2 C 3,2 km/h (1 Bft) 97,87 %
18.12.2016 01:08 -1,2 C 96 % 1039,2 hPa 0,0 l/m 0,1 km/h (0 Bft) N-NW 331 0 min 0,000 mm 0,0 UV-I 0 W/m -1,8 C -1,2 C 1,6 km/h (1 Bft) 100,00 %
18.12.2016 01:10 -1,2 C 96 % 1039,1 hPa 0,0 l/m 0,1 km/h (0 Bft) N-NW 331 0 min 0,000 mm 0,0 UV-I 0 W/m -1,8 C -1,2 C 1,6 km/h (1 Bft) 100,00 %
18.12.2016 01:12 -1,2 C 96 % 1039,1 hPa 0,0 l/m 0,0 km/h (0 Bft) N-NW 331 0 min 0,000 mm 0,0 UV-I 0 W/m -1,8 C -1,2 C 1,6 km/h (1 Bft) 97,22 %
18.12.2016 01:14 -1,2 C 96 % 1039,1 hPa 0,0 l/m 0,0 km/h (0 Bft) N-NW 331 0 min 0,000 mm 0,0 UV-I 0 W/m -1,8 C -1,2 C 0,0 km/h (0 Bft) 98,00 %
18.12.2016 01:16 -1,3 C 96 % 1039,2 hPa 0,0 l/m 0,1 km/h (0 Bft) N-NW 331 0 min 0,000 mm 0,0 UV-I 0 W/m -1,9 C -1,3 C 1,6 km/h (1 Bft) 100,00 %
18.12.2016 01:18 -1,2 C 96 % 1039,1 hPa 0,0 l/m 0,0 km/h (0 Bft) N-NW 331 0 min 0,000 mm 0,0 UV-I 0 W/m -1,8 C -1,2 C 0,0 km/h (0 Bft) 96,00 %
18.12.2016 01:20 -1,2 C 96 % 1039,1 hPa 0,0 l/m 0,3 km/h (0 Bft) N-NW 331 0 min 0,000 mm 0,0 UV-I 0 W/m -1,8 C -1,2 C 1,6 km/h (1 Bft) 100,00 %
18.12.2016 01:22 -1,3 C 96 % 1039,1 hPa 0,0 l/m 0,3 km/h (0 Bft) N-NW 331 0 min 0,000 mm 0,0 UV-I 0 W/m -1,9 C -1,3 C 1,6 km/h (1 Bft) 100,00 %
18.12.2016 01:24 -1,2 C 96 % 1039,1 hPa 0,0 l/m 0,0 km/h (0 Bft) N-NW 331 0 min 0,000 mm 0,0 UV-I 0 W/m -1,8 C -1,2 C 0,0 km/h (0 Bft) 100,00 %
18.12.2016 01:26 -1,3 C 96 % 1039,1 hPa 0,0 l/m 0,0 km/h (0 Bft) N-NW 331 0 min 0,000 mm 0,0 UV-I 0 W/m -1,9 C -1,3 C 1,6 km/h (1 Bft) 97,87 %
18.12.2016 01:28 -1,2 C 96 % 1039,1 hPa 0,0 l/m 0,0 km/h (0 Bft) N-NW 331 0 min 0,000 mm 0,0 UV-I 0 W/m -1,8 C -1,2 C 0,0 km/h (0 Bft) 100,00 %
18.12.2016 01:30 -1,2 C 96 % 1039,1 hPa 0,0 l/m 0,0 km/h (0 Bft) N-NW 331 0 min 0,000 mm 0,0 UV-I 0 W/m -1,8 C -1,2 C 0,0 km/h (0 Bft) 100,00 %
18.12.2016 01:32 -1,2 C 96 % 1039,1 hPa 0,0 l/m 0,0 km/h (0 Bft) N-NW 331 0 min 0,000 mm 0,0 UV-I 0 W/m -1,8 C -1,2 C 1,6 km/h (1 Bft) 100,00 %
18.12.2016 01:34 -1,2 C 96 % 1039,1 hPa 0,0 l/m 0,1 km/h (0 Bft) N-NW 331 0 min 0,000 mm 0,0 UV-I 0 W/m -1,8 C -1,2 C 1,6 km/h (1 Bft) 100,00 %
18.12.2016 01:36 -1,2 C 96 % 1039,1 hPa 0,0 l/m 0,0 km/h (0 Bft) N-NW 331 0 min 0,000 mm 0,0 UV-I 0 W/m -1,8 C -1,2 C 1,6 km/h (1 Bft) 96,00 %
18.12.2016 01:38 -1,3 C 96 % 1039,1 hPa 0,0 l/m 2,1 km/h (1 Bft) N-NW 333 0 min 0,000 mm 0,0 UV-I 0 W/m -1,9 C -1,3 C 4,8 km/h (1 Bft) 100,00 %
18.12.2016 01:40 -1,3 C 96 % 1039,1 hPa 0,0 l/m 3,2 km/h (1 Bft) N-NW 336 0 min 0,000 mm 0,0 UV-I 0 W/m -1,9 C -1,3 C 4,8 km/h (1 Bft) 100,00 %
18.12.2016 01:42 -1,3 C 96 % 1039,0 hPa 0,0 l/m 0,7 km/h (0 Bft) N-NW 336 0 min 0,000 mm 0,0 UV-I 0 W/m -1,9 C -1,3 C 1,6 km/h (1 Bft) 100,00 %
18.12.2016 01:44 -1,3 C 96 % 1039,1 hPa 0,0 l/m 4,4 km/h (1 Bft) N-NO 31 0 min 0,000 mm 0,0 UV-I 0 W/m -1,9 C -1,3 C 6,4 km/h (2 Bft) 100,00 %
18.12.2016 01:46 -1,3 C 96 % 1039,1 hPa 0,0 l/m 4,3 km/h (1 Bft) N-NO 31 0 min 0,000 mm 0,0 UV-I 0 W/m -1,9 C -1,3 C 4,8 km/h (1 Bft) 100,00 %
18.12.2016 01:48 -1,3 C 96 % 1039,1 hPa 0,0 l/m 4,7 km/h (1 Bft) N-NO 32 0 min 0,000 mm 0,0 UV-I 0 W/m -1,9 C -1,3 C 6,4 km/h (2 Bft) 100,00 %
18.12.2016 01:50 -1,3 C 96 % 1039,1 hPa 0,0 l/m 4,0 km/h (1 Bft) NO 34 0 min 0,000 mm 0,0 UV-I 0 W/m -1,9 C -1,3 C 4,8 km/h (1 Bft) 100,00 %
18.12.2016 01:52 -1,3 C 96 % 1039,1 hPa 0,0 l/m 3,3 km/h (1 Bft) N-NO 22 0 min 0,000 mm 0,0 UV-I 0 W/m -1,9 C -1,3 C 6,4 km/h (2 Bft) 100,00 %
18.12.2016 01:54 -1,3 C 96 % 1039,1 hPa 0,0 l/m 5,1 km/h (1 Bft) N-NO 26 0 min 0,000 mm 0,0 UV-I 0 W/m -1,9 C -1,3 C 6,4 km/h (2 Bft) 100,00 %
18.12.2016 01:56 -1,3 C 96 % 1039,1 hPa 0,0 l/m 2,6 km/h (1 Bft) N-NO 26 0 min 0,000 mm 0,0 UV-I 0 W/m -1,9 C -1,3 C 6,4 km/h (2 Bft) 98,00 %
18.12.2016 01:58 -1,3 C 96 % 1039,1 hPa 0,0 l/m 0,7 km/h (0 Bft) N-NO 26 0 min 0,000 mm 0,0 UV-I 0 W/m -1,9 C -1,3 C 1,6 km/h (1 Bft) 100,00 %
18.12.2016 02:00 -1,3 C 96 % 1039,1 hPa 0,0 l/m 2,8 km/h (1 Bft) N-NO 26 0 min 0,000 mm 0,0 UV-I 0 W/m -1,9 C -1,3 C 4,8 km/h (1 Bft) 100,00 %
18.12.2016 02:02 -1,3 C 96 % 1039,1 hPa 0,0 l/m 4,2 km/h (1 Bft) NO 36 0 min 0,000 mm 0,0 UV-I 0 W/m -1,9 C -1,3 C 6,4 km/h (2 Bft) 97,73 %
18.12.2016 02:04 -1,3 C 96 % 1039,1 hPa 0,0 l/m 3,8 km/h (1 Bft) NO 36 0 min 0,000 mm 0,0 UV-I 0 W/m -1,9 C -1,3 C 4,8 km/h (1 Bft) 98,00 %
18.12.2016 02:06 -1,4 C 96 % 1039,0 hPa 0,0 l/m 2,3 km/h (1 Bft) NO 36 0 min 0,000 mm 0,0 UV-I 0 W/m -2,0 C -1,4 C 3,2 km/h (1 Bft) 97,92 %
18.12.2016 02:08 -1,4 C 96 % 1039,0 hPa 0,0 l/m 2,5 km/h (1 Bft) NO 36 0 min 0,000 mm 0,0 UV-I 0 W/m -2,0 C -1,4 C 4,8 km/h (1 Bft) 97,22 %
18.12.2016 02:10 -1,4 C 96 % 1038,9 hPa 0,0 l/m 2,2 km/h (1 Bft) NO 36 0 min 0,000 mm 0,0 UV-I 0 W/m -2,0 C -1,4 C 3,2 km/h (1 Bft) 96,00 %
18.12.2016 02:12 -1,4 C 96 % 1038,9 hPa 0,0 l/m 3,6 km/h (1 Bft) NO 40 0 min 0,000 mm 0,0 UV-I 0 W/m -2,0 C -1,4 C 4,8 km/h (1 Bft) 95,74 %
18.12.2016 02:14 -1,4 C 96 % 1038,9 hPa 0,0 l/m 3,0 km/h (1 Bft) NO 40 0 min 0,000 mm 0,0 UV-I 0 W/m -2,0 C -1,4 C 4,8 km/h (1 Bft) 96,00 %
18.12.2016 02:16 -1,4 C 96 % 1038,9 hPa 0,0 l/m 2,5 km/h (1 Bft) NO 40 0 min 0,000 mm 0,0 UV-I 0 W/m -2,0 C -1,4 C 3,2 km/h (1 Bft) 95,24 %
18.12.2016 02:18 -1,4 C 96 % 1038,8 hPa 0,0 l/m 1,8 km/h (1 Bft) NO 40 0 min 0,000 mm 0,0 UV-I 0 W/m -2,0 C -1,4 C 3,2 km/h (1 Bft) 98,00 %
18.12.2016 02:20 -1,4 C 96 % 1038,8 hPa 0,0 l/m 3,7 km/h (1 Bft) NO 40 0 min 0,000 mm 0,0 UV-I 0 W/m -2,0 C -1,4 C 4,8 km/h (1 Bft) 98,00 %
18.12.2016 02:22 -1,4 C 96 % 1038,8 hPa 0,0 l/m 3,0 km/h (1 Bft) NO 40 0 min 0,000 mm 0,0 UV-I 0 W/m -2,0 C -1,4 C 4,8 km/h (1 Bft) 95,45 %
18.12.2016 02:24 -1,4 C 96 % 1038,7 hPa 0,0 l/m 2,0 km/h (1 Bft) NO 40 0 min 0,000 mm 0,0 UV-I 0 W/m -2,0 C -1,4 C 4,8 km/h (1 Bft) 97,87 %
18.12.2016 02:26 -1,4 C 96 % 1038,7 hPa 0,0 l/m 3,4 km/h (1 Bft) NO 40 0 min 0,000 mm 0,0 UV-I 0 W/m -2,0 C -1,4 C 4,8 km/h (1 Bft) 95,74 %
18.12.2016 02:28 -1,5 C 96 % 1038,7 hPa 0,0 l/m 2,6 km/h (1 Bft) NO 40 0 min 0,000 mm 0,0 UV-I 0 W/m -2,1 C -1,5 C 4,8 km/h (1 Bft) 96,00 %
18.12.2016 02:30 -1,5 C 96 % 1038,6 hPa 0,0 l/m 4,8 km/h (1 Bft) NO 40 0 min 0,000 mm 0,0 UV-I 0 W/m -2,1 C -1,5 C 6,4 km/h (2 Bft) 95,74 %
18.12.2016 02:32 -1,5 C 97 % 1038,6 hPa 0,0 l/m 3,4 km/h (1 Bft) NO 36 0 min 0,000 mm 0,0 UV-I 0 W/m -1,9 C -1,5 C 4,8 km/h (1 Bft) 97,56 %
18.12.2016 02:34 -1,5 C 97 % 1038,5 hPa 0,0 l/m 3,4 km/h (1 Bft) NO 36 0 min 0,000 mm 0,0 UV-I 0 W/m -1,9 C -1,5 C 4,8 km/h (1 Bft) 98,00 %
18.12.2016 02:36 -1,5 C 97 % 1038,5 hPa 0,0 l/m 4,5 km/h (1 Bft) NO 35 0 min 0,000 mm 0,0 UV-I 0 W/m -1,9 C -1,5 C 6,4 km/h (2 Bft) 96,00 %
18.12.2016 02:38 -1,6 C 97 % 1038,5 hPa 0,0 l/m 4,9 km/h (1 Bft) NO 35 0 min 0,000 mm 0,0 UV-I 0 W/m -2,0 C -1,6 C 6,4 km/h (2 Bft) 100,00 %
18.12.2016 02:40 -1,6 C 96 % 1038,5 hPa 0,0 l/m 4,5 km/h (1 Bft) NO 34 0 min 0,000 mm 0,0 UV-I 0 W/m -2,2 C -1,6 C 6,4 km/h (2 Bft) 97,87 %
18.12.2016 02:42 -1,6 C 96 % 1038,5 hPa 0,0 l/m 3,6 km/h (1 Bft) NO 34 0 min 0,000 mm 0,0 UV-I 0 W/m -2,2 C -1,6 C 4,8 km/h (1 Bft) 100,00 %
18.12.2016 02:44 -1,6 C 96 % 1038,4 hPa 0,0 l/m 2,3 km/h (1 Bft) NO 34 0 min 0,000 mm 0,0 UV-I 0 W/m -2,2 C -1,6 C 4,8 km/h (1 Bft) 97,37 %
18.12.2016 02:46 -1,6 C 96 % 1038,4 hPa 0,0 l/m 2,8 km/h (1 Bft) NO 34 0 min 0,000 mm 0,0 UV-I 0 W/m -2,2 C -1,6 C 4,8 km/h (1 Bft) 100,00 %
18.12.2016 02:48 -1,6 C 96 % 1038,4 hPa 0,0 l/m 1,7 km/h (1 Bft) NO 34 0 min 0,000 mm 0,0 UV-I 0 W/m -2,2 C -1,6 C 4,8 km/h (1 Bft) 100,00 %
18.12.2016 02:50 -1,7 C 96 % 1038,3 hPa 0,0 l/m 1,5 km/h (1 Bft) NO 34 0 min 0,000 mm 0,0 UV-I 0 W/m -2,3 C -1,7 C 3,2 km/h (1 Bft) 98,18 %
18.12.2016 02:52 -1,7 C 96 % 1038,3 hPa 0,0 l/m 1,4 km/h (1 Bft) NO 34 0 min 0,000 mm 0,0 UV-I 0 W/m -2,3 C -1,7 C 3,2 km/h (1 Bft) 100,00 %
18.12.2016 02:54 -1,7 C 96 % 1038,3 hPa 0,0 l/m 2,6 km/h (1 Bft) NO 34 0 min 0,000 mm 0,0 UV-I 0 W/m -2,3 C -1,7 C 4,8 km/h (1 Bft) 98,18 %
18.12.2016 02:56 -1,7 C 96 % 1038,3 hPa 0,0 l/m 1,5 km/h (1 Bft) NO 34 0 min 0,000 mm 0,0 UV-I 0 W/m -2,3 C -1,7 C 4,8 km/h (1 Bft) 100,00 %
18.12.2016 02:58 -1,7 C 97 % 1038,3 hPa 0,0 l/m 4,0 km/h (1 Bft) NO 34 0 min 0,000 mm 0,0 UV-I 0 W/m -2,1 C -1,7 C 6,4 km/h (2 Bft) 100,00 %
18.12.2016 03:00 -1,7 C 97 % 1038,3 hPa 0,0 l/m 4,7 km/h (1 Bft) NO 34 0 min 0,000 mm 0,0 UV-I 0 W/m -2,1 C -1,7 C 6,4 km/h (2 Bft) 100,00 %
18.12.2016 03:02 -1,7 C 97 % 1038,2 hPa 0,0 l/m 3,7 km/h (1 Bft) NO 34 0 min 0,000 mm 0,0 UV-I 0 W/m -2,1 C -1,7 C 4,8 km/h (1 Bft) 100,00 %
18.12.2016 03:04 -1,7 C 97 % 1038,2 hPa 0,0 l/m 4,5 km/h (1 Bft) NO 34 0 min 0,000 mm 0,0 UV-I 0 W/m -2,1 C -1,7 C 6,4 km/h (2 Bft) 100,00 %
18.12.2016 03:06 -1,7 C 97 % 1038,2 hPa 0,0 l/m 3,4 km/h (1 Bft) NO 34 0 min 0,000 mm 0,0 UV-I 0 W/m -2,1 C -1,7 C 4,8 km/h (1 Bft) 100,00 %
18.12.2016 03:08 -1,7 C 97 % 1038,2 hPa 0,0 l/m 4,6 km/h (1 Bft) NO 34 0 min 0,000 mm 0,0 UV-I 0 W/m -2,1 C -1,7 C 6,4 km/h (2 Bft) 97,37 %
18.12.2016 03:10 -1,7 C 97 % 1038,1 hPa 0,0 l/m 5,6 km/h (1 Bft) N-NO 29 0 min 0,000 mm 0,0 UV-I 0 W/m -2,1 C -1,7 C 6,4 km/h (2 Bft) 100,00 %
18.12.2016 03:12 -1,7 C 97 % 1038,0 hPa 0,0 l/m 5,5 km/h (1 Bft) N-NO 31 0 min 0,000 mm 0,0 UV-I 0 W/m -2,1 C -1,7 C 8,0 km/h (2 Bft) 100,00 %
18.12.2016 03:14 -1,7 C 97 % 1038,1 hPa 0,0 l/m 4,0 km/h (1 Bft) N-NO 31 0 min 0,000 mm 0,0 UV-I 0 W/m -2,1 C -1,7 C 6,4 km/h (2 Bft) 100,00 %
18.12.2016 03:16 -1,7 C 97 % 1038,0 hPa 0,0 l/m 4,3 km/h (1 Bft) N-NO 30 0 min 0,000 mm 0,0 UV-I 0 W/m -2,1 C -1,7 C 6,4 km/h (2 Bft) 100,00 %
18.12.2016 03:18 -1,7 C 97 % 1038,0 hPa 0,0 l/m 4,6 km/h (1 Bft) N-NO 30 0 min 0,000 mm 0,0 UV-I 0 W/m -2,1 C -1,7 C 8,0 km/h (2 Bft) 95,74 %
18.12.2016 03:20 -1,7 C 97 % 1038,0 hPa 0,0 l/m 3,4 km/h (1 Bft) N-NO 30 0 min 0,000 mm 0,0 UV-I 0 W/m -2,1 C -1,7 C 4,8 km/h (1 Bft) 100,00 %
18.12.2016 03:22 -1,7 C 97 % 1038,0 hPa 0,0 l/m 1,8 km/h (1 Bft) N-NO 30 0 min 0,000 mm 0,0 UV-I 0 W/m -2,1 C -1,7 C 4,8 km/h (1 Bft) 100,00 %
18.12.2016 03:24 -1,7 C 97 % 1038,0 hPa 0,0 l/m 3,2 km/h (1 Bft) N-NO 30 0 min 0,000 mm 0,0 UV-I 0 W/m -2,1 C -1,7 C 8,0 km/h (2 Bft) 100,00 %
18.12.2016 03:26 -1,7 C 97 % 1038,0 hPa 0,0 l/m 5,8 km/h (2 Bft) N-NO 30 0 min 0,000 mm 0,0 UV-I 0 W/m -2,1 C -1,7 C 8,0 km/h (2 Bft) 98,00 %
18.12.2016 03:28 -1,7 C 97 % 1038,0 hPa 0,0 l/m 2,8 km/h (1 Bft) N-NO 29 0 min 0,000 mm 0,0 UV-I 0 W/m -2,1 C -1,7 C 6,4 km/h (2 Bft) 100,00 %
18.12.2016 03:30 -1,8 C 97 % 1037,9 hPa 0,0 l/m 5,0 km/h (1 Bft) N-NO 30 0 min 0,000 mm 0,0 UV-I 0 W/m -2,2 C -1,8 C 6,4 km/h (2 Bft) 98,11 %
18.12.2016 03:32 -1,8 C 97 % 1037,9 hPa 0,0 l/m 3,7 km/h (1 Bft) N-NO 30 0 min 0,000 mm 0,0 UV-I 0 W/m -2,2 C -1,8 C 6,4 km/h (2 Bft) 98,08 %
18.12.2016 03:34 -1,8 C 97 % 1037,9 hPa 0,0 l/m 4,1 km/h (1 Bft) N-NO 28 0 min 0,000 mm 0,0 UV-I 0 W/m -2,2 C -1,8 C 6,4 km/h (2 Bft) 100,00 %
18.12.2016 03:36 -1,8 C 97 % 1037,8 hPa 0,0 l/m 4,7 km/h (1 Bft) N-NO 26 0 min 0,000 mm 0,0 UV-I 0 W/m -2,2 C -1,8 C 8,0 km/h (2 Bft) 97,18 %
18.12.2016 03:38 -1,8 C 97 % 1037,8 hPa 0,0 l/m 4,4 km/h (1 Bft) N-NO 24 0 min 0,000 mm 0,0 UV-I 0 W/m -2,2 C -1,8 C 6,4 km/h (2 Bft) 97,87 %
18.12.2016 03:40 -1,8 C 97 % 1037,8 hPa 0,0 l/m 1,9 km/h (1 Bft) N-NO 23 0 min 0,000 mm 0,0 UV-I 0 W/m -2,2 C -1,8 C 4,8 km/h (1 Bft) 100,00 %
18.12.2016 03:42 -1,8 C 97 % 1037,8 hPa 0,0 l/m 1,0 km/h (0 Bft) N-NO 23 0 min 0,000 mm 0,0 UV-I 0 W/m -2,2 C -1,8 C 3,2 km/h (1 Bft) 100,00 %
18.12.2016 03:44 -1,8 C 97 % 1037,8 hPa 0,0 l/m 1,9 km/h (1 Bft) N-NO 23 0 min 0,000 mm 0,0 UV-I 0 W/m -2,2 C -1,8 C 4,8 km/h (1 Bft) 95,74 %
18.12.2016 03:46 -1,8 C 97 % 1037,8 hPa 0,0 l/m 1,4 km/h (1 Bft) N-NO 23 0 min 0,000 mm 0,0 UV-I 0 W/m -2,2 C -1,8 C 4,8 km/h (1 Bft) 100,00 %
18.12.2016 03:48 -1,8 C 97 % 1037,8 hPa 0,0 l/m 0,7 km/h (0 Bft) N-NO 23 0 min 0,000 mm 0,0 UV-I 0 W/m -2,2 C -1,8 C 3,2 km/h (1 Bft) 100,00 %
18.12.2016 03:50 -1,8 C 97 % 1037,7 hPa 0,0 l/m 2,3 km/h (1 Bft) N-NO 23 0 min 0,000 mm 0,0 UV-I 0 W/m -2,2 C -1,8 C 4,8 km/h (1 Bft) 100,00 %
18.12.2016 03:52 -1,8 C 97 % 1037,7 hPa 0,0 l/m 2,9 km/h (1 Bft) N-NO 23 0 min 0,000 mm 0,0 UV-I 0 W/m -2,2 C -1,8 C 4,8 km/h (1 Bft) 100,00 %
18.12.2016 03:54 -1,8 C 97 % 1037,6 hPa 0,0 l/m 3,7 km/h (1 Bft) N-NO 23 0 min 0,000 mm 0,0 UV-I 0 W/m -2,2 C -1,8 C 8,0 km/h (2 Bft) 100,00 %
18.12.2016 03:56 -1,8 C 97 % 1037,6 hPa 0,0 l/m 3,9 km/h (1 Bft) N-NO 22 0 min 0,000 mm 0,0 UV-I 0 W/m -2,2 C -1,8 C 8,0 km/h (2 Bft) 100,00 %
18.12.2016 03:58 -1,8 C 97 % 1037,6 hPa 0,0 l/m 4,9 km/h (1 Bft) N-NO 22 0 min 0,000 mm 0,0 UV-I 0 W/m -2,2 C -1,8 C 8,0 km/h (2 Bft) 100,00 %
18.12.2016 04:00 -1,8 C 97 % 1037,6 hPa 0,0 l/m 3,8 km/h (1 Bft) N-NO 22 0 min 0,000 mm 0,0 UV-I 0 W/m -2,2 C -1,8 C 6,4 km/h (2 Bft) 100,00 %
18.12.2016 04:02 -1,8 C 97 % 1037,6 hPa 0,0 l/m 2,2 km/h (1 Bft) N-NO 13 0 min 0,000 mm 0,0 UV-I 0 W/m -2,2 C -1,8 C 6,4 km/h (2 Bft) 100,00 %
18.12.2016 04:04 -1,8 C 97 % 1037,6 hPa 0,0 l/m 5,4 km/h (1 Bft) N-NO 26 0 min 0,000 mm 0,0 UV-I 0 W/m -2,2 C -1,8 C 8,0 km/h (2 Bft) 100,00 %
18.12.2016 04:06 -1,8 C 97 % 1037,6 hPa 0,0 l/m 6,0 km/h (2 Bft) N-NO 25 0 min 0,000 mm 0,0 UV-I 0 W/m -2,2 C -1,8 C 8,0 km/h (2 Bft) 97,44 %
18.12.2016 04:08 -1,8 C 97 % 1037,6 hPa 0,0 l/m 3,1 km/h (1 Bft) N-NO 13 0 min 0,000 mm 0,0 UV-I 0 W/m -2,2 C -1,8 C 4,8 km/h (1 Bft) 97,87 %
18.12.2016 04:10 -1,8 C 97 % 1037,6 hPa 0,0 l/m 3,3 km/h (1 Bft) N 11 0 min 0,000 mm 0,0 UV-I 0 W/m -2,2 C -1,8 C 6,4 km/h (2 Bft) 96,00 %
18.12.2016 04:12 -1,8 C 97 % 1037,5 hPa 0,0 l/m 2,3 km/h (1 Bft) N 9 0 min 0,000 mm 0,0 UV-I 0 W/m -2,2 C -1,8 C 4,8 km/h (1 Bft) 96,00 %
18.12.2016 04:14 -1,8 C 97 % 1037,5 hPa 0,0 l/m 4,4 km/h (1 Bft) N-NO 14 0 min 0,000 mm 0,0 UV-I 0 W/m -2,2 C -1,8 C 6,4 km/h (2 Bft) 94,00 %
18.12.2016 04:16 -1,8 C 97 % 1037,5 hPa 0,0 l/m 2,9 km/h (1 Bft) N-NO 14 0 min 0,000 mm 0,0 UV-I 0 W/m -2,2 C -1,8 C 4,8 km/h (1 Bft) 97,37 %
18.12.2016 04:18 -1,8 C 97 % 1037,4 hPa 0,0 l/m 6,2 km/h (2 Bft) NO 40 0 min 0,000 mm 0,0 UV-I 0 W/m -2,2 C -1,8 C 8,0 km/h (2 Bft) 97,56 %
18.12.2016 04:20 -1,9 C 97 % 1037,5 hPa 0,0 l/m 5,1 km/h (1 Bft) N-NO 16 0 min 0,000 mm 0,0 UV-I 0 W/m -2,3 C -1,9 C 8,0 km/h (2 Bft) 98,11 %
18.12.2016 04:22 -1,8 C 97 % 1037,4 hPa 0,0 l/m 2,1 km/h (1 Bft) N-NO 17 0 min 0,000 mm 0,0 UV-I 0 W/m -2,2 C -1,8 C 6,4 km/h (2 Bft) 97,87 %
18.12.2016 04:24 -1,9 C 97 % 1037,4 hPa 0,0 l/m 3,0 km/h (1 Bft) N-NO 19 0 min 0,000 mm 0,0 UV-I 0 W/m -2,3 C -1,9 C 6,4 km/h (2 Bft) 98,11 %
18.12.2016 04:26 -1,9 C 97 % 1037,4 hPa 0,0 l/m 0,8 km/h (0 Bft) N-NO 15 0 min 0,000 mm 0,0 UV-I 0 W/m -2,3 C -1,9 C 1,6 km/h (1 Bft) 98,00 %
18.12.2016 04:28 -1,9 C 97 % 1037,4 hPa 0,0 l/m 1,8 km/h (1 Bft) N-NO 21 0 min 0,000 mm 0,0 UV-I 0 W/m -2,3 C -1,9 C 4,8 km/h (1 Bft) 95,74 %
18.12.2016 04:30 -1,9 C 97 % 1037,4 hPa 0,0 l/m 1,8 km/h (1 Bft) N-NO 15 0 min 0,000 mm 0,0 UV-I 0 W/m -2,3 C -1,9 C 6,4 km/h (2 Bft) 95,45 %
18.12.2016 04:32 -1,9 C 97 % 1037,3 hPa 0,0 l/m 1,7 km/h (1 Bft) N-NO 15 0 min 0,000 mm 0,0 UV-I 0 W/m -2,3 C -1,9 C 4,8 km/h (1 Bft) 97,56 %
18.12.2016 04:34 -1,9 C 97 % 1037,4 hPa 0,0 l/m 1,1 km/h (1 Bft) N 5 0 min 0,000 mm 0,0 UV-I 0 W/m -2,3 C -1,9 C 3,2 km/h (1 Bft) 98,11 %
18.12.2016 04:36 -1,9 C 97 % 1037,4 hPa 0,0 l/m 4,8 km/h (1 Bft) N-NO 20 0 min 0,000 mm 0,0 UV-I 0 W/m -2,3 C -1,9 C 8,0 km/h (2 Bft) 95,74 %
18.12.2016 04:38 -1,9 C 97 % 1037,4 hPa 0,0 l/m 1,0 km/h (0 Bft) N-NO 20 0 min 0,000 mm 0,0 UV-I 0 W/m -2,3 C -1,9 C 4,8 km/h (1 Bft) 95,74 %
18.12.2016 04:40 -1,9 C 97 % 1037,3 hPa 0,0 l/m 2,8 km/h (1 Bft) N-NO 23 0 min 0,000 mm 0,0 UV-I 0 W/m -2,3 C -1,9 C 6,4 km/h (2 Bft) 97,87 %
18.12.2016 04:42 -1,9 C 97 % 1037,3 hPa 0,0 l/m 0,2 km/h (0 Bft) N-NO 18 0 min 0,000 mm 0,0 UV-I 0 W/m -2,3 C -1,9 C 1,6 km/h (1 Bft) 100,00 %
18.12.2016 04:44 -1,9 C 97 % 1037,2 hPa 0,0 l/m 1,3 km/h (1 Bft) N-NO 18 0 min 0,000 mm 0,0 UV-I 0 W/m -2,3 C -1,9 C 3,2 km/h (1 Bft) 100,00 %
18.12.2016 04:46 -1,9 C 97 % 1037,2 hPa 0,0 l/m 2,1 km/h (1 Bft) N-NO 18 0 min 0,000 mm 0,0 UV-I 0 W/m -2,3 C -1,9 C 4,8 km/h (1 Bft) 98,21 %
18.12.2016 04:48 -1,9 C 97 % 1037,2 hPa 0,0 l/m 4,5 km/h (1 Bft) N-NO 22 0 min 0,000 mm 0,0 UV-I 0 W/m -2,3 C -1,9 C 6,4 km/h (2 Bft) 100,00 %
18.12.2016 04:50 -2,0 C 97 % 1037,2 hPa 0,0 l/m 2,7 km/h (1 Bft) N-NO 22 0 min 0,000 mm 0,0 UV-I 0 W/m -2,4 C -2,0 C 4,8 km/h (1 Bft) 97,87 %
18.12.2016 04:52 -2,0 C 97 % 1037,2 hPa 0,0 l/m 5,9 km/h (2 Bft) N-NO 27 0 min 0,000 mm 0,0 UV-I 0 W/m -2,4 C -2,0 C 8,0 km/h (2 Bft) 100,00 %
18.12.2016 04:54 -2,0 C 97 % 1037,2 hPa 0,0 l/m 2,7 km/h (1 Bft) N-NO 12 0 min 0,000 mm 0,0 UV-I 0 W/m -2,4 C -2,0 C 8,0 km/h (2 Bft) 96,55 %
18.12.2016 04:56 -2,0 C 97 % 1037,1 hPa 0,0 l/m 3,0 km/h (1 Bft) N-NO 26 0 min 0,000 mm 0,0 UV-I 0 W/m -2,4 C -2,0 C 8,0 km/h (2 Bft) 100,00 %
18.12.2016 04:58 -2,0 C 97 % 1037,1 hPa 0,0 l/m 5,9 km/h (2 Bft) N-NO 22 0 min 0,000 mm 0,0 UV-I 0 W/m -2,4 C -2,0 C 8,0 km/h (2 Bft) 100,00 %
18.12.2016 05:00 -2,0 C 97 % 1037,1 hPa 0,0 l/m 5,1 km/h (1 Bft) N-NO 28 0 min 0,000 mm 0,0 UV-I 0 W/m -2,4 C -2,0 C 6,4 km/h (2 Bft) 98,00 %
18.12.2016 05:02 -2,0 C 97 % 1037,1 hPa 0,0 l/m 3,6 km/h (1 Bft) N-NO 25 0 min 0,000 mm 0,0 UV-I 0 W/m -2,4 C -2,0 C 4,8 km/h (1 Bft) 100,00 %
18.12.2016 05:04 -2,0 C 97 % 1037,1 hPa 0,0 l/m 2,9 km/h (1 Bft) N-NO 25 0 min 0,000 mm 0,0 UV-I 0 W/m -2,4 C -2,0 C 6,4 km/h (2 Bft) 100,00 %
18.12.2016 05:06 -2,0 C 97 % 1037,1 hPa 0,0 l/m 3,4 km/h (1 Bft) N-NO 25 0 min 0,000 mm 0,0 UV-I 0 W/m -2,4 C -2,0 C 4,8 km/h (1 Bft) 100,00 %
18.12.2016 05:08 -2,0 C 97 % 1037,1 hPa 0,0 l/m 2,4 km/h (1 Bft) N-NO 25 0 min 0,000 mm 0,0 UV-I 0 W/m -2,4 C -2,0 C 4,8 km/h (1 Bft) 100,00 %
18.12.2016 05:10 -2,0 C 97 % 1037,0 hPa 0,0 l/m 2,6 km/h (1 Bft) N-NO 25 0 min 0,000 mm 0,0 UV-I 0 W/m -2,4 C -2,0 C 3,2 km/h (1 Bft) 100,00 %
18.12.2016 05:12 -2,0 C 97 % 1037,0 hPa 0,0 l/m 2,6 km/h (1 Bft) N-NO 25 0 min 0,000 mm 0,0 UV-I 0 W/m -2,4 C -2,0 C 4,8 km/h (1 Bft) 100,00 %
18.12.2016 05:14 -2,0 C 97 % 1036,9 hPa 0,0 l/m 2,6 km/h (1 Bft) N-NO 25 0 min 0,000 mm 0,0 UV-I 0 W/m -2,4 C -2,0 C 3,2 km/h (1 Bft) 100,00 %
18.12.2016 05:16 -2,0 C 97 % 1036,8 hPa 0,0 l/m 1,9 km/h (1 Bft) N-NO 25 0 min 0,000 mm 0,0 UV-I 0 W/m -2,4 C -2,0 C 3,2 km/h (1 Bft) 98,11 %
18.12.2016 05:18 -2,0 C 97 % 1036,9 hPa 0,0 l/m 1,5 km/h (1 Bft) N-NO 25 0 min 0,000 mm 0,0 UV-I 0 W/m -2,4 C -2,0 C 3,2 km/h (1 Bft) 100,00 %
18.12.2016 05:20 -2,0 C 97 % 1036,8 hPa 0,0 l/m 2,0 km/h (1 Bft) N-NO 25 0 min 0,000 mm 0,0 UV-I 0 W/m -2,4 C -2,0 C 4,8 km/h (1 Bft) 97,87 %
18.12.2016 05:22 -2,0 C 97 % 1036,8 hPa 0,0 l/m 1,4 km/h (1 Bft) N-NO 25 0 min 0,000 mm 0,0 UV-I 0 W/m -2,4 C -2,0 C 4,8 km/h (1 Bft) 100,00 %
18.12.2016 05:24 -2,0 C 97 % 1036,8 hPa 0,0 l/m 1,0 km/h (0 Bft) N-NO 25 0 min 0,000 mm 0,0 UV-I 0 W/m -2,4 C -2,0 C 3,2 km/h (1 Bft) 100,00 %
18.12.2016 05:26 -2,0 C 97 % 1036,8 hPa 0,0 l/m 0,4 km/h (0 Bft) N-NO 25 0 min 0,000 mm 0,0 UV-I 0 W/m -2,4 C -2,0 C 1,6 km/h (1 Bft) 97,83 %
18.12.2016 05:28 -2,0 C 97 % 1036,9 hPa 0,0 l/m 0,0 km/h (0 Bft) N-NO 25 0 min 0,000 mm 0,0 UV-I 0 W/m -2,4 C -2,0 C 0,0 km/h (0 Bft) 95,83 %
18.12.2016 05:30 -2,1 C 97 % 1036,9 hPa 0,0 l/m 2,3 km/h (1 Bft) N-NO 25 0 min 0,000 mm 0,0 UV-I 0 W/m -2,5 C -2,1 C 4,8 km/h (1 Bft) 100,00 %
18.12.2016 05:32 -2,1 C 97 % 1036,9 hPa 0,0 l/m 2,2 km/h (1 Bft) N-NO 25 0 min 0,000 mm 0,0 UV-I 0 W/m -2,5 C -2,1 C 4,8 km/h (1 Bft) 100,00 %
18.12.2016 05:34 -2,1 C 97 % 1036,9 hPa 0,0 l/m 2,9 km/h (1 Bft) N-NO 25 0 min 0,000 mm 0,0 UV-I 0 W/m -2,5 C -2,1 C 4,8 km/h (1 Bft) 100,00 %
18.12.2016 05:36 -2,0 C 97 % 1036,9 hPa 0,0 l/m 1,3 km/h (1 Bft) N-NO 25 0 min 0,000 mm 0,0 UV-I 0 W/m -2,4 C -2,0 C 4,8 km/h (1 Bft) 100,00 %
18.12.2016 05:38 -2,0 C 97 % 1036,9 hPa 0,0 l/m 1,4 km/h (1 Bft) N-NO 25 0 min 0,000 mm 0,0 UV-I 0 W/m -2,4 C -2,0 C 4,8 km/h (1 Bft) 100,00 %
18.12.2016 05:40 -2,0 C 97 % 1036,9 hPa 0,0 l/m 0,7 km/h (0 Bft) N-NO 25 0 min 0,000 mm 0,0 UV-I 0 W/m -2,4 C -2,0 C 3,2 km/h (1 Bft) 100,00 %
18.12.2016 05:42 -2,0 C 97 % 1036,9 hPa 0,0 l/m 0,0 km/h (0 Bft) N-NO 25 0 min 0,000 mm 0,0 UV-I 0 W/m -2,4 C -2,0 C 0,0 km/h (0 Bft) 97,87 %
18.12.2016 05:44 -2,0 C 97 % 1036,9 hPa 0,0 l/m 0,2 km/h (0 Bft) N-NO 25 0 min 0,000 mm 0,0 UV-I 0 W/m -2,4 C -2,0 C 1,6 km/h (1 Bft) 100,00 %
18.12.2016 05:46 -1,9 C 97 % 1036,9 hPa 0,0 l/m 0,2 km/h (0 Bft) N-NO 25 0 min 0,000 mm 0,0 UV-I 0 W/m -2,3 C -1,9 C 1,6 km/h (1 Bft) 98,00 %
18.12.2016 05:48 -1,9 C 97 % 1036,9 hPa 0,0 l/m 0,6 km/h (0 Bft) N-NO 25 0 min 0,000 mm 0,0 UV-I 0 W/m -2,3 C -1,9 C 1,6 km/h (1 Bft) 100,00 %
18.12.2016 05:50 -1,9 C 97 % 1036,8 hPa 0,0 l/m 0,3 km/h (0 Bft) N-NO 25 0 min 0,000 mm 0,0 UV-I 0 W/m -2,3 C -1,9 C 1,6 km/h (1 Bft) 100,00 %
18.12.2016 05:52 -1,9 C 97 % 1036,8 hPa 0,0 l/m 0,6 km/h (0 Bft) N-NO 25 0 min 0,000 mm 0,0 UV-I 0 W/m -2,3 C -1,9 C 3,2 km/h (1 Bft) 100,00 %
18.12.2016 05:54 -2,0 C 97 % 1036,8 hPa 0,0 l/m 0,1 km/h (0 Bft) N-NO 25 0 min 0,000 mm 0,0 UV-I 0 W/m -2,4 C -2,0 C 1,6 km/h (1 Bft) 100,00 %
18.12.2016 05:56 -2,0 C 97 % 1036,8 hPa 0,0 l/m 0,0 km/h (0 Bft) N-NO 25 0 min 0,000 mm 0,0 UV-I 0 W/m -2,4 C -2,0 C 1,6 km/h (1 Bft) 100,00 %
18.12.2016 05:58 -1,9 C 97 % 1036,7 hPa 0,0 l/m 0,1 km/h (0 Bft) N-NO 25 0 min 0,000 mm 0,0 UV-I 0 W/m -2,3 C -1,9 C 1,6 km/h (1 Bft) 100,00 %
18.12.2016 06:00 -1,9 C 97 % 1036,7 hPa 0,0 l/m 0,0 km/h (0 Bft) N-NO 25 0 min 0,000 mm 0,0 UV-I 0 W/m -2,3 C -1,9 C 1,6 km/h (1 Bft) 100,00 %
18.12.2016 06:02 -1,9 C 97 % 1036,7 hPa 0,0 l/m 0,1 km/h (0 Bft) N-NO 25 0 min 0,000 mm 0,0 UV-I 0 W/m -2,3 C -1,9 C 1,6 km/h (1 Bft) 100,00 %
18.12.2016 06:04 -2,0 C 97 % 1036,7 hPa 0,0 l/m 0,1 km/h (0 Bft) N-NO 25 0 min 0,000 mm 0,0 UV-I 0 W/m -2,4 C -2,0 C 1,6 km/h (1 Bft) 98,65 %
18.12.2016 06:06 -1,9 C 97 % 1036,6 hPa 0,0 l/m 0,0 km/h (0 Bft) N-NO 25 0 min 0,000 mm 0,0 UV-I 0 W/m -2,3 C -1,9 C 0,0 km/h (0 Bft) 100,00 %
18.12.2016 06:08 -1,9 C 97 % 1036,6 hPa 0,0 l/m 0,1 km/h (0 Bft) N-NO 25 0 min 0,000 mm 0,0 UV-I 0 W/m -2,3 C -1,9 C 1,6 km/h (1 Bft) 100,00 %
18.12.2016 06:10 -1,9 C 97 % 1036,6 hPa 0,0 l/m 0,3 km/h (0 Bft) N-NO 25 0 min 0,000 mm 0,0 UV-I 0 W/m -2,3 C -1,9 C 1,6 km/h (1 Bft) 98,00 %
18.12.2016 06:12 -1,9 C 97 % 1036,6 hPa 0,0 l/m 1,0 km/h (0 Bft) N-NO 25 0 min 0,000 mm 0,0 UV-I 0 W/m -2,3 C -1,9 C 3,2 km/h (1 Bft) 98,08 %
18.12.2016 06:14 -1,9 C 97 % 1036,6 hPa 0,0 l/m 0,3 km/h (0 Bft) N-NO 25 0 min 0,000 mm 0,0 UV-I 0 W/m -2,3 C -1,9 C 1,6 km/h (1 Bft) 97,22 %
18.12.2016 06:16 -1,9 C 97 % 1036,6 hPa 0,0 l/m 0,6 km/h (0 Bft) N-NO 25 0 min 0,000 mm 0,0 UV-I 0 W/m -2,3 C -1,9 C 3,2 km/h (1 Bft) 94,34 %
18.12.2016 06:18 -1,9 C 97 % 1036,6 hPa 0,0 l/m 0,9 km/h (0 Bft) N-NO 24 0 min 0,000 mm 0,0 UV-I 0 W/m -2,3 C -1,9 C 3,2 km/h (1 Bft) 97,87 %
18.12.2016 06:20 -1,9 C 97 % 1036,6 hPa 0,0 l/m 0,4 km/h (0 Bft) N-NO 24 0 min 0,000 mm 0,0 UV-I 0 W/m -2,3 C -1,9 C 1,6 km/h (1 Bft) 97,87 %
18.12.2016 06:22 -1,9 C 97 % 1036,6 hPa 0,0 l/m 0,8 km/h (0 Bft) N-NO 19 0 min 0,000 mm 0,0 UV-I 0 W/m -2,3 C -1,9 C 3,2 km/h (1 Bft) 97,87 %
18.12.2016 06:24 -1,9 C 97 % 1036,6 hPa 0,0 l/m 1,0 km/h (0 Bft) N-NO 18 0 min 0,000 mm 0,0 UV-I 0 W/m -2,3 C -1,9 C 3,2 km/h (1 Bft) 98,00 %
18.12.2016 06:26 -1,9 C 97 % 1036,6 hPa 0,0 l/m 0,8 km/h (0 Bft) N-NO 17 0 min 0,000 mm 0,0 UV-I 0 W/m -2,3 C -1,9 C 3,2 km/h (1 Bft) 97,14 %
18.12.2016 06:28 -2,0 C 97 % 1036,6 hPa 0,0 l/m 1,6 km/h (1 Bft) N-NW 340 0 min 0,000 mm 0,0 UV-I 0 W/m -2,4 C -2,0 C 3,2 km/h (1 Bft) 98,21 %
18.12.2016 06:30 -2,0 C 97 % 1036,6 hPa 0,0 l/m 1,1 km/h (1 Bft) N-NW 339 0 min 0,000 mm 0,0 UV-I 0 W/m -2,4 C -2,0 C 3,2 km/h (1 Bft) 93,62 %
18.12.2016 06:32 -2,0 C 97 % 1036,5 hPa 0,0 l/m 1,0 km/h (0 Bft) N-NW 339 0 min 0,000 mm 0,0 UV-I 0 W/m -2,4 C -2,0 C 3,2 km/h (1 Bft) 97,56 %
18.12.2016 06:34 -2,1 C 97 % 1036,4 hPa 0,0 l/m 1,4 km/h (1 Bft) N-NW 339 0 min 0,000 mm 0,0 UV-I 0 W/m -2,5 C -2,1 C 3,2 km/h (1 Bft) 96,00 %
18.12.2016 06:36 -2,1 C 98 % 1036,5 hPa 0,0 l/m 0,7 km/h (0 Bft) N-NW 339 0 min 0,000 mm 0,0 UV-I 0 W/m -2,4 C -2,1 C 3,2 km/h (1 Bft) 97,87 %
18.12.2016 06:38 -2,1 C 98 % 1036,4 hPa 0,0 l/m 0,3 km/h (0 Bft) N-NW 339 0 min 0,000 mm 0,0 UV-I 0 W/m -2,4 C -2,1 C 1,6 km/h (1 Bft) 97,87 %
18.12.2016 06:40 -2,1 C 97 % 1036,5 hPa 0,0 l/m 1,0 km/h (0 Bft) N-NW 338 0 min 0,000 mm 0,0 UV-I 0 W/m -2,5 C -2,1 C 3,2 km/h (1 Bft) 96,23 %
18.12.2016 06:42 -2,1 C 98 % 1036,4 hPa 0,0 l/m 1,2 km/h (1 Bft) N-NW 328 0 min 0,000 mm 0,0 UV-I 0 W/m -2,4 C -2,1 C 4,8 km/h (1 Bft) 97,37 %
18.12.2016 06:44 -2,1 C 98 % 1036,4 hPa 0,0 l/m 2,4 km/h (1 Bft) N-NW 327 0 min 0,000 mm 0,0 UV-I 0 W/m -2,4 C -2,1 C 4,8 km/h (1 Bft) 94,00 %
18.12.2016 06:46 -2,1 C 98 % 1036,4 hPa 0,0 l/m 0,3 km/h (0 Bft) N-NW 327 0 min 0,000 mm 0,0 UV-I 0 W/m -2,4 C -2,1 C 1,6 km/h (1 Bft) 96,67 %
18.12.2016 06:48 -2,1 C 98 % 1036,3 hPa 0,0 l/m 0,7 km/h (0 Bft) N-NW 327 0 min 0,000 mm 0,0 UV-I 0 W/m -2,4 C -2,1 C 3,2 km/h (1 Bft) 100,00 %
18.12.2016 06:50 -2,1 C 98 % 1036,3 hPa 0,0 l/m 3,9 km/h (1 Bft) SO 144 0 min 0,000 mm 0,0 UV-I 0 W/m -2,4 C -2,1 C 6,4 km/h (2 Bft) 95,74 %
18.12.2016 06:52 -2,1 C 98 % 1036,1 hPa 0,0 l/m 4,8 km/h (1 Bft) S-SO 153 0 min 0,000 mm 0,0 UV-I 0 W/m -2,4 C -2,1 C 8,0 km/h (2 Bft) 100,00 %
18.12.2016 06:54 -2,1 C 98 % 1036,1 hPa 0,0 l/m 2,3 km/h (1 Bft) S-SO 157 0 min 0,000 mm 0,0 UV-I 0 W/m -2,4 C -2,1 C 3,2 km/h (1 Bft) 98,00 %
18.12.2016 06:56 -2,1 C 98 % 1036,1 hPa 0,0 l/m 3,2 km/h (1 Bft) S 184 0 min 0,000 mm 0,0 UV-I 0 W/m -2,4 C -2,1 C 6,4 km/h (2 Bft) 100,00 %
18.12.2016 06:58 -2,1 C 98 % 1036,1 hPa 0,0 l/m 2,8 km/h (1 Bft) S-SO 163 0 min 0,000 mm 0,0 UV-I 0 W/m -2,4 C -2,1 C 6,4 km/h (2 Bft) 100,00 %
18.12.2016 07:00 -2,1 C 98 % 1036,2 hPa 0,0 l/m 1,9 km/h (1 Bft) S-SO 165 0 min 0,000 mm 0,0 UV-I 0 W/m -2,4 C -2,1 C 6,4 km/h (2 Bft) 100,00 %
18.12.2016 07:02 -2,0 C 98 % 1036,2 hPa 0,0 l/m 3,1 km/h (1 Bft) S-SO 165 0 min 0,000 mm 0,0 UV-I 0 W/m -2,3 C -2,0 C 6,4 km/h (2 Bft) 100,00 %
18.12.2016 07:04 -2,0 C 98 % 1036,2 hPa 0,0 l/m 2,6 km/h (1 Bft) S 177 0 min 0,000 mm 0,0 UV-I 0 W/m -2,3 C -2,0 C 6,4 km/h (2 Bft) 100,00 %
18.12.2016 07:06 -1,9 C 98 % 1036,2 hPa 0,0 l/m 0,4 km/h (0 Bft) S 177 0 min 0,000 mm 0,0 UV-I 0 W/m -2,2 C -1,9 C 1,6 km/h (1 Bft) 100,00 %
18.12.2016 07:08 -1,9 C 98 % 1036,2 hPa 0,0 l/m 0,0 km/h (0 Bft) S 177 0 min 0,000 mm 0,0 UV-I 0 W/m -2,2 C -1,9 C 1,6 km/h (1 Bft) 98,46 %
18.12.2016 07:10 -1,9 C 98 % 1036,1 hPa 0,0 l/m 1,3 km/h (1 Bft) S 177 0 min 0,000 mm 0,0 UV-I 0 W/m -2,2 C -1,9 C 3,2 km/h (1 Bft) 100,00 %
18.12.2016 07:12 -1,9 C 98 % 1036,0 hPa 0,0 l/m 1,2 km/h (1 Bft) S 177 0 min 0,000 mm 0,0 UV-I 0 W/m -2,2 C -1,9 C 4,8 km/h (1 Bft) 97,14 %
18.12.2016 07:14 -1,9 C 98 % 1036,1 hPa 0,0 l/m 0,6 km/h (0 Bft) S 177 0 min 0,000 mm 0,0 UV-I 0 W/m -2,2 C -1,9 C 3,2 km/h (1 Bft) 100,00 %
18.12.2016 07:16 -1,9 C 98 % 1036,0 hPa 0,0 l/m 0,0 km/h (0 Bft) S 177 0 min 0,000 mm 0,0 UV-I 0 W/m -2,2 C -1,9 C 0,0 km/h (0 Bft) 100,00 %
18.12.2016 07:18 -1,9 C 98 % 1036,1 hPa 0,0 l/m 0,3 km/h (0 Bft) S 177 0 min 0,000 mm 0,0 UV-I 0 W/m -2,2 C -1,9 C 1,6 km/h (1 Bft) 100,00 %
18.12.2016 07:20 -1,9 C 98 % 1036,1 hPa 0,0 l/m 0,2 km/h (0 Bft) S 178 0 min 0,000 mm 0,0 UV-I 0 W/m -2,2 C -1,9 C 1,6 km/h (1 Bft) 100,00 %
18.12.2016 07:22 -1,8 C 98 % 1036,1 hPa 0,0 l/m 0,2 km/h (0 Bft) S 178 0 min 0,000 mm 0,0 UV-I 0 W/m -2,1 C -1,8 C 1,6 km/h (1 Bft) 100,00 %
18.12.2016 07:24 -1,8 C 98 % 1036,2 hPa 0,0 l/m 0,6 km/h (0 Bft) S 178 0 min 0,000 mm 0,0 UV-I 0 W/m -2,1 C -1,8 C 1,6 km/h (1 Bft) 100,00 %
18.12.2016 07:26 -1,8 C 98 % 1036,1 hPa 0,0 l/m 0,3 km/h (0 Bft) S 179 0 min 0,000 mm 0,0 UV-I 0 W/m -2,1 C -1,8 C 1,6 km/h (1 Bft) 100,00 %
18.12.2016 07:28 -1,8 C 98 % 1036,0 hPa 0,0 l/m 0,0 km/h (0 Bft) S 179 0 min 0,000 mm 0,0 UV-I 0 W/m -2,1 C -1,8 C 0,0 km/h (0 Bft) 100,00 %
18.12.2016 07:30 -1,8 C 98 % 1035,9 hPa 0,0 l/m 0,0 km/h (0 Bft) S 179 0 min 0,000 mm 0,0 UV-I 0 W/m -2,1 C -1,8 C 0,0 km/h (0 Bft) 97,22 %
18.12.2016 07:32 -1,8 C 98 % 1035,9 hPa 0,0 l/m 0,0 km/h (0 Bft) S 179 0 min 0,000 mm 0,0 UV-I 0 W/m -2,1 C -1,8 C 0,0 km/h (0 Bft) 98,21 %
18.12.2016 07:34 -1,8 C 98 % 1035,9 hPa 0,0 l/m 0,0 km/h (0 Bft) S 179 0 min 0,000 mm 0,0 UV-I 0 W/m -2,1 C -1,8 C 0,0 km/h (0 Bft) 100,00 %
18.12.2016 07:36 -1,8 C 98 % 1035,9 hPa 0,0 l/m 0,0 km/h (0 Bft) S 179 0 min 0,000 mm 0,0 UV-I 0 W/m -2,1 C -1,8 C 0,0 km/h (0 Bft) 100,00 %
18.12.2016 07:38 -1,8 C 98 % 1035,9 hPa 0,0 l/m 0,1 km/h (0 Bft) S 179 0 min 0,000 mm 0,0 UV-I 0 W/m -2,1 C -1,8 C 1,6 km/h (1 Bft) 100,00 %
18.12.2016 07:40 -1,8 C 98 % 1035,9 hPa 0,0 l/m 1,2 km/h (1 Bft) S 179 0 min 0,000 mm 0,0 UV-I 0 W/m -2,1 C -1,8 C 3,2 km/h (1 Bft) 98,00 %
18.12.2016 07:42 -1,8 C 98 % 1035,8 hPa 0,0 l/m 0,1 km/h (0 Bft) S 179 0 min 0,000 mm 0,0 UV-I 0 W/m -2,1 C -1,8 C 1,6 km/h (1 Bft) 100,00 %
18.12.2016 07:44 -1,8 C 98 % 1035,9 hPa 0,0 l/m 0,0 km/h (0 Bft) S 179 0 min 0,000 mm 0,0 UV-I 4 W/m -2,1 C -1,8 C 0,0 km/h (0 Bft) 100,00 %
18.12.2016 07:46 -1,8 C 98 % 1036,0 hPa 0,0 l/m 1,8 km/h (1 Bft) S 185 0 min 0,000 mm 0,0 UV-I 5 W/m -2,1 C -1,8 C 3,2 km/h (1 Bft) 100,00 %
18.12.2016 07:48 -1,8 C 98 % 1036,0 hPa 0,0 l/m 0,6 km/h (0 Bft) S 185 0 min 0,000 mm 0,0 UV-I 5 W/m -2,1 C -1,8 C 3,2 km/h (1 Bft) 98,00 %
18.12.2016 07:50 -1,8 C 98 % 1036,0 hPa 0,0 l/m 1,0 km/h (0 Bft) S-SW 192 0 min 0,000 mm 0,0 UV-I 5 W/m -2,1 C -1,8 C 3,2 km/h (1 Bft) 97,87 %
18.12.2016 07:52 -1,8 C 98 % 1036,0 hPa 0,0 l/m 0,9 km/h (0 Bft) S-SW 206 0 min 0,000 mm 0,0 UV-I 5 W/m -2,1 C -1,8 C 3,2 km/h (1 Bft) 100,00 %
18.12.2016 07:54 -1,7 C 98 % 1036,0 hPa 0,0 l/m 0,1 km/h (0 Bft) S-SW 206 0 min 0,000 mm 0,0 UV-I 5 W/m -2,0 C -1,7 C 1,6 km/h (1 Bft) 100,00 %
18.12.2016 07:56 -1,7 C 98 % 1036,1 hPa 0,0 l/m 0,0 km/h (0 Bft) S-SW 206 0 min 0,000 mm 0,0 UV-I 5 W/m -2,0 C -1,7 C 1,6 km/h (1 Bft) 98,11 %
18.12.2016 07:58 -1,7 C 98 % 1036,0 hPa 0,0 l/m 0,0 km/h (0 Bft) S-SW 206 0 min 0,000 mm 0,0 UV-I 5 W/m -2,0 C -1,7 C 0,0 km/h (0 Bft) 100,00 %
18.12.2016 08:00 -1,7 C 98 % 1036,0 hPa 0,0 l/m 0,2 km/h (0 Bft) S-SW 206 0 min 0,000 mm 0,0 UV-I 5 W/m -2,0 C -1,7 C 1,6 km/h (1 Bft) 100,00 %
18.12.2016 08:02 -1,7 C 98 % 1036,0 hPa 0,0 l/m 0,4 km/h (0 Bft) S-SW 206 0 min 0,000 mm 0,0 UV-I 5 W/m -2,0 C -1,7 C 1,6 km/h (1 Bft) 97,87 %
18.12.2016 08:04 -1,7 C 98 % 1036,0 hPa 0,0 l/m 1,2 km/h (1 Bft) S-SW 206 0 min 0,000 mm 0,0 UV-I 7 W/m -2,0 C -1,7 C 3,2 km/h (1 Bft) 100,00 %
18.12.2016 08:06 -1,7 C 98 % 1036,0 hPa 0,0 l/m 1,9 km/h (1 Bft) S-SW 206 0 min 0,000 mm 0,0 UV-I 7 W/m -2,0 C -1,7 C 3,2 km/h (1 Bft) 100,00 %
18.12.2016 08:08 -1,7 C 98 % 1036,0 hPa 0,0 l/m 1,8 km/h (1 Bft) S-SW 207 0 min 0,000 mm 0,0 UV-I 7 W/m -2,0 C -1,7 C 4,8 km/h (1 Bft) 100,00 %
18.12.2016 08:10 -1,7 C 98 % 1036,0 hPa 0,0 l/m 0,2 km/h (0 Bft) S-SW 207 0 min 0,000 mm 0,0 UV-I 7 W/m -2,0 C -1,7 C 1,6 km/h (1 Bft) 97,87 %
18.12.2016 08:12 -1,7 C 98 % 1036,1 hPa 0,0 l/m 0,0 km/h (0 Bft) S-SW 207 0 min 0,000 mm 0,0 UV-I 9 W/m -2,0 C -1,7 C 1,6 km/h (1 Bft) 100,00 %
18.12.2016 08:14 -1,7 C 98 % 1036,1 hPa 0,0 l/m 2,4 km/h (1 Bft) W-SW 253 0 min 0,000 mm 0,0 UV-I 9 W/m -2,0 C -1,7 C 4,8 km/h (1 Bft) 96,23 %
18.12.2016 08:16 -1,7 C 98 % 1036,0 hPa 0,0 l/m 0,1 km/h (0 Bft) W-SW 253 0 min 0,000 mm 0,0 UV-I 10 W/m -2,0 C -1,7 C 1,6 km/h (1 Bft) 95,74 %
18.12.2016 08:18 -1,7 C 98 % 1035,9 hPa 0,0 l/m 0,0 km/h (0 Bft) W-SW 253 0 min 0,000 mm 0,0 UV-I 12 W/m -2,0 C -1,7 C 0,0 km/h (0 Bft) 98,00 %
18.12.2016 08:20 -1,7 C 98 % 1036,0 hPa 0,0 l/m 0,4 km/h (0 Bft) W-SW 253 0 min 0,000 mm 0,0 UV-I 12 W/m -2,0 C -1,7 C 3,2 km/h (1 Bft) 97,37 %
18.12.2016 08:22 -1,7 C 98 % 1036,1 hPa 0,0 l/m 1,5 km/h (1 Bft) W 270 0 min 0,000 mm 0,0 UV-I 12 W/m -2,0 C -1,7 C 3,2 km/h (1 Bft) 97,87 %
18.12.2016 08:24 -1,6 C 98 % 1035,9 hPa 0,0 l/m 0,2 km/h (0 Bft) W 270 0 min 0,000 mm 0,0 UV-I 12 W/m -1,9 C -1,6 C 1,6 km/h (1 Bft) 95,74 %
18.12.2016 08:26 -1,7 C 98 % 1035,9 hPa 0,0 l/m 0,0 km/h (0 Bft) W 270 0 min 0,000 mm 0,0 UV-I 14 W/m -2,0 C -1,7 C 0,0 km/h (0 Bft) 98,00 %
18.12.2016 08:28 -1,6 C 98 % 1035,9 hPa 0,0 l/m 0,5 km/h (0 Bft) W 270 0 min 0,000 mm 0,0 UV-I 14 W/m -1,9 C -1,6 C 3,2 km/h (1 Bft) 98,00 %
18.12.2016 08:30 -1,6 C 98 % 1035,9 hPa 0,0 l/m 2,1 km/h (1 Bft) W 270 0 min 0,000 mm 0,0 UV-I 14 W/m -1,9 C -1,6 C 3,2 km/h (1 Bft) 97,56 %
18.12.2016 08:32 -1,6 C 98 % 1035,9 hPa 0,0 l/m 0,8 km/h (0 Bft) W 270 0 min 0,000 mm 0,0 UV-I 14 W/m -1,9 C -1,6 C 3,2 km/h (1 Bft) 97,87 %
18.12.2016 08:34 -1,6 C 98 % 1036,0 hPa 0,0 l/m 0,9 km/h (0 Bft) W 270 0 min 0,000 mm 0,0 UV-I 14 W/m -1,9 C -1,6 C 3,2 km/h (1 Bft) 96,00 %
18.12.2016 08:36 -1,6 C 98 % 1035,9 hPa 0,0 l/m 0,4 km/h (0 Bft) W 270 0 min 0,000 mm 0,0 UV-I 14 W/m -1,9 C -1,6 C 3,2 km/h (1 Bft) 97,87 %
18.12.2016 08:38 -1,6 C 98 % 1036,0 hPa 0,0 l/m 0,1 km/h (0 Bft) W 270 0 min 0,000 mm 0,0 UV-I 14 W/m -1,9 C -1,6 C 1,6 km/h (1 Bft) 98,00 %
18.12.2016 08:40 -1,6 C 98 % 1035,9 hPa 0,0 l/m 1,8 km/h (1 Bft) W 270 0 min 0,000 mm 0,0 UV-I 14 W/m -1,9 C -1,6 C 3,2 km/h (1 Bft) 97,87 %
18.12.2016 08:42 -1,6 C 98 % 1035,9 hPa 0,0 l/m 1,2 km/h (1 Bft) SW 225 0 min 0,000 mm 0,0 UV-I 14 W/m -1,9 C -1,6 C 3,2 km/h (1 Bft) 97,37 %
18.12.2016 08:44 -1,6 C 98 % 1035,9 hPa 0,0 l/m 0,6 km/h (0 Bft) SW 225 0 min 0,000 mm 0,0 UV-I 14 W/m -1,9 C -1,6 C 3,2 km/h (1 Bft) 98,00 %
18.12.2016 08:46 -1,5 C 98 % 1035,9 hPa 0,0 l/m 1,2 km/h (1 Bft) SW 226 0 min 0,000 mm 0,0 UV-I 12 W/m -1,8 C -1,5 C 3,2 km/h (1 Bft) 98,11 %
18.12.2016 08:48 -1,5 C 98 % 1035,9 hPa 0,0 l/m 2,9 km/h (1 Bft) W-SW 243 0 min 0,000 mm 0,0 UV-I 13 W/m -1,8 C -1,5 C 4,8 km/h (1 Bft) 94,87 %
18.12.2016 08:50 -1,5 C 98 % 1035,9 hPa 0,0 l/m 1,8 km/h (1 Bft) W-SW 243 0 min 0,000 mm 0,0 UV-I 14 W/m -1,8 C -1,5 C 3,2 km/h (1 Bft) 100,00 %
18.12.2016 08:52 -1,5 C 98 % 1035,8 hPa 0,0 l/m 1,4 km/h (1 Bft) W-SW 243 0 min 0,000 mm 0,0 UV-I 14 W/m -1,8 C -1,5 C 3,2 km/h (1 Bft) 97,37 %
18.12.2016 08:54 -1,5 C 98 % 1035,8 hPa 0,0 l/m 2,3 km/h (1 Bft) W-SW 243 0 min 0,000 mm 0,0 UV-I 16 W/m -1,8 C -1,5 C 3,2 km/h (1 Bft) 100,00 %
18.12.2016 08:56 -1,4 C 98 % 1035,8 hPa 0,0 l/m 1,8 km/h (1 Bft) W-SW 242 0 min 0,000 mm 0,0 UV-I 18 W/m -1,7 C -1,4 C 3,2 km/h (1 Bft) 100,00 %
18.12.2016 08:58 -1,4 C 98 % 1035,8 hPa 0,0 l/m 1,3 km/h (1 Bft) W-SW 243 0 min 0,000 mm 0,0 UV-I 18 W/m -1,7 C -1,4 C 3,2 km/h (1 Bft) 100,00 %
18.12.2016 09:00 -1,4 C 98 % 1035,8 hPa 0,0 l/m 2,0 km/h (1 Bft) W-SW 243 0 min 0,000 mm 0,0 UV-I 17 W/m -1,7 C -1,4 C 3,2 km/h (1 Bft) 100,00 %
18.12.2016 09:02 -1,4 C 98 % 1035,8 hPa 0,0 l/m 1,1 km/h (1 Bft) W-SW 243 0 min 0,000 mm 0,0 UV-I 18 W/m -1,7 C -1,4 C 3,2 km/h (1 Bft) 100,00 %
18.12.2016 09:04 -1,4 C 98 % 1035,6 hPa 0,0 l/m 0,8 km/h (0 Bft) SW 220 0 min 0,000 mm 0,0 UV-I 19 W/m -1,7 C -1,4 C 3,2 km/h (1 Bft) 100,00 %
18.12.2016 09:06 -1,4 C 98 % 1035,6 hPa 0,0 l/m 1,7 km/h (1 Bft) S 186 0 min 0,000 mm 0,0 UV-I 21 W/m -1,7 C -1,4 C 4,8 km/h (1 Bft) 98,00 %
18.12.2016 09:08 -1,3 C 98 % 1035,7 hPa 0,0 l/m 3,5 km/h (1 Bft) S-SW 211 0 min 0,000 mm 0,0 UV-I 21 W/m -1,6 C -1,3 C 6,4 km/h (2 Bft) 100,00 %
18.12.2016 09:10 -1,3 C 98 % 1035,7 hPa 0,0 l/m 3,6 km/h (1 Bft) S-SW 211 0 min 0,000 mm 0,0 UV-I 21 W/m -1,6 C -1,3 C 4,8 km/h (1 Bft) 100,00 %
18.12.2016 09:12 -1,3 C 98 % 1035,7 hPa 0,0 l/m 2,2 km/h (1 Bft) S-SW 211 0 min 0,000 mm 0,0 UV-I 21 W/m -1,6 C -1,3 C 4,8 km/h (1 Bft) 98,11 %
18.12.2016 09:14 -1,3 C 98 % 1035,6 hPa 0,0 l/m 1,8 km/h (1 Bft) S-SW 211 0 min 0,000 mm 0,0 UV-I 21 W/m -1,6 C -1,3 C 3,2 km/h (1 Bft) 100,00 %
18.12.2016 09:16 -1,3 C 98 % 1035,6 hPa 0,0 l/m 2,3 km/h (1 Bft) S-SW 211 0 min 0,000 mm 0,0 UV-I 21 W/m -1,6 C -1,3 C 6,4 km/h (2 Bft) 97,87 %
18.12.2016 09:18 -1,3 C 98 % 1035,6 hPa 0,0 l/m 1,7 km/h (1 Bft) S-SW 211 0 min 0,000 mm 0,0 UV-I 23 W/m -1,6 C -1,3 C 3,2 km/h (1 Bft) 100,00 %
18.12.2016 09:20 -1,2 C 98 % 1035,7 hPa 0,0 l/m 2,5 km/h (1 Bft) S-SW 211 0 min 0,000 mm 0,0 UV-I 23 W/m -1,5 C -1,2 C 4,8 km/h (1 Bft) 97,37 %
18.12.2016 09:22 -1,2 C 98 % 1035,7 hPa 0,0 l/m 0,6 km/h (0 Bft) S-SW 211 0 min 0,000 mm 0,0 UV-I 21 W/m -1,5 C -1,2 C 3,2 km/h (1 Bft) 100,00 %
18.12.2016 09:24 -1,2 C 98 % 1035,7 hPa 0,0 l/m 1,5 km/h (1 Bft) S-SW 211 0 min 0,000 mm 0,0 UV-I 22 W/m -1,5 C -1,2 C 3,2 km/h (1 Bft) 100,00 %
18.12.2016 09:26 -1,2 C 98 % 1035,7 hPa 0,0 l/m 1,2 km/h (1 Bft) S-SW 211 0 min 0,000 mm 0,0 UV-I 25 W/m -1,5 C -1,2 C 4,8 km/h (1 Bft) 100,00 %
18.12.2016 09:28 -1,2 C 98 % 1035,6 hPa 0,0 l/m 4,0 km/h (1 Bft) W-SW 247 0 min 0,000 mm 0,0 UV-I 30 W/m -1,5 C -1,2 C 6,4 km/h (2 Bft) 100,00 %
18.12.2016 09:30 -1,2 C 98 % 1035,6 hPa 0,0 l/m 5,0 km/h (1 Bft) W-SW 239 0 min 0,000 mm 0,0 UV-I 32 W/m -1,5 C -1,2 C 6,4 km/h (2 Bft) 100,00 %
18.12.2016 09:32 -1,2 C 98 % 1035,6 hPa 0,0 l/m 4,8 km/h (1 Bft) W-SW 237 0 min 0,000 mm 0,0 UV-I 33 W/m -1,5 C -1,2 C 6,4 km/h (2 Bft) 97,14 %
18.12.2016 09:34 -1,2 C 98 % 1035,6 hPa 0,0 l/m 3,0 km/h (1 Bft) W 265 0 min 0,000 mm 0,0 UV-I 33 W/m -1,5 C -1,2 C 4,8 km/h (1 Bft) 98,39 %
18.12.2016 09:36 -1,1 C 98 % 1035,7 hPa 0,0 l/m 2,1 km/h (1 Bft) W 265 0 min 0,000 mm 0,0 UV-I 30 W/m -1,4 C -1,1 C 4,8 km/h (1 Bft) 100,00 %
18.12.2016 09:38 -1,1 C 98 % 1035,7 hPa 0,0 l/m 0,5 km/h (0 Bft) W 265 0 min 0,000 mm 0,0 UV-I 30 W/m -1,4 C -1,1 C 3,2 km/h (1 Bft) 100,00 %
18.12.2016 09:40 -1,1 C 98 % 1035,7 hPa 0,0 l/m 2,3 km/h (1 Bft) W 265 0 min 0,000 mm 0,0 UV-I 28 W/m -1,4 C -1,1 C 4,8 km/h (1 Bft) 100,00 %
18.12.2016 09:42 -1,1 C 97 % 1035,7 hPa 0,0 l/m 2,5 km/h (1 Bft) W 267 0 min 0,000 mm 0,0 UV-I 29 W/m -1,5 C -1,1 C 4,8 km/h (1 Bft) 100,00 %
18.12.2016 09:44 -1,1 C 97 % 1035,7 hPa 0,0 l/m 1,0 km/h (0 Bft) W 267 0 min 0,000 mm 0,0 UV-I 30 W/m -1,5 C -1,1 C 3,2 km/h (1 Bft) 97,92 %
18.12.2016 09:46 -1,1 C 97 % 1035,7 hPa 0,0 l/m 1,1 km/h (1 Bft) W 267 0 min 0,000 mm 0,0 UV-I 30 W/m -1,5 C -1,1 C 3,2 km/h (1 Bft) 100,00 %
18.12.2016 09:48 -1,1 C 97 % 1035,7 hPa 0,0 l/m 1,7 km/h (1 Bft) W 267 0 min 0,000 mm 0,0 UV-I 30 W/m -1,5 C -1,1 C 3,2 km/h (1 Bft) 100,00 %
18.12.2016 09:50 -1,0 C 97 % 1035,6 hPa 0,0 l/m 2,8 km/h (1 Bft) W 267 0 min 0,000 mm 0,0 UV-I 30 W/m -1,4 C -1,0 C 4,8 km/h (1 Bft) 100,00 %
18.12.2016 09:52 -1,1 C 97 % 1035,6 hPa 0,0 l/m 2,6 km/h (1 Bft) W 267 0 min 0,000 mm 0,0 UV-I 30 W/m -1,5 C -1,1 C 4,8 km/h (1 Bft) 97,56 %
18.12.2016 09:54 -1,0 C 97 % 1035,6 hPa 0,0 l/m 1,4 km/h (1 Bft) W 267 0 min 0,000 mm 0,0 UV-I 32 W/m -1,4 C -1,0 C 3,2 km/h (1 Bft) 100,00 %
18.12.2016 09:56 -1,0 C 98 % 1035,6 hPa 0,0 l/m 1,4 km/h (1 Bft) W 267 0 min 0,000 mm 0,0 UV-I 32 W/m -1,3 C -1,0 C 3,2 km/h (1 Bft) 96,23 %
18.12.2016 09:58 -1,0 C 98 % 1035,5 hPa 0,0 l/m 1,7 km/h (1 Bft) W 267 0 min 0,000 mm 0,0 UV-I 33 W/m -1,3 C -1,0 C 3,2 km/h (1 Bft) 100,00 %
18.12.2016 10:00 -0,9 C 97 % 1035,5 hPa 0,0 l/m 2,4 km/h (1 Bft) W 267 0 min 0,000 mm 0,0 UV-I 34 W/m -1,3 C -0,9 C 4,8 km/h (1 Bft) 100,00 %
18.12.2016 10:02 -0,9 C 97 % 1035,4 hPa 0,0 l/m 3,6 km/h (1 Bft) W 261 0 min 0,000 mm 0,0 UV-I 36 W/m -1,3 C -0,9 C 6,4 km/h (2 Bft) 100,00 %
18.12.2016 10:04 -0,9 C 97 % 1035,4 hPa 0,0 l/m 4,6 km/h (1 Bft) SW 230 0 min 0,000 mm 0,0 UV-I 38 W/m -1,3 C -0,9 C 6,4 km/h (2 Bft) 100,00 %
18.12.2016 10:06 -0,9 C 97 % 1035,4 hPa 0,0 l/m 5,6 km/h (1 Bft) S-SW 211 0 min 0,000 mm 0,0 UV-I 39 W/m -1,3 C -0,9 C 8,0 km/h (2 Bft) 100,00 %
18.12.2016 10:08 -0,9 C 97 % 1035,4 hPa 0,0 l/m 4,6 km/h (1 Bft) W-SW 248 0 min 0,000 mm 0,0 UV-I 40 W/m -1,3 C -0,9 C 6,4 km/h (2 Bft) 100,00 %
18.12.2016 10:10 -0,9 C 97 % 1035,4 hPa 0,0 l/m 4,6 km/h (1 Bft) W 273 0 min 0,000 mm 0,0 UV-I 41 W/m -1,3 C -0,9 C 6,4 km/h (2 Bft) 100,00 %
18.12.2016 10:12 -0,8 C 97 % 1035,4 hPa 0,0 l/m 2,0 km/h (1 Bft) W 273 0 min 0,000 mm 0,0 UV-I 43 W/m -1,2 C -0,8 C 4,8 km/h (1 Bft) 100,00 %
18.12.2016 10:14 -0,8 C 97 % 1035,4 hPa 0,0 l/m 2,6 km/h (1 Bft) W 273 0 min 0,000 mm 0,0 UV-I 45 W/m -1,2 C -0,8 C 4,8 km/h (1 Bft) 100,00 %
18.12.2016 10:16 -0,8 C 97 % 1035,4 hPa 0,0 l/m 3,2 km/h (1 Bft) W 273 0 min 0,000 mm 0,0 UV-I 46 W/m -1,2 C -0,8 C 6,4 km/h (2 Bft) 100,00 %
18.12.2016 10:18 -0,8 C 97 % 1035,4 hPa 0,0 l/m 3,6 km/h (1 Bft) W 273 0 min 0,000 mm 0,0 UV-I 47 W/m -1,2 C -0,8 C 4,8 km/h (1 Bft) 97,87 %
18.12.2016 10:20 -0,8 C 97 % 1035,4 hPa 0,0 l/m 2,1 km/h (1 Bft) W 273 0 min 0,000 mm 0,0 UV-I 47 W/m -1,2 C -0,8 C 3,2 km/h (1 Bft) 96,23 %
18.12.2016 10:22 -0,7 C 97 % 1035,4 hPa 0,0 l/m 0,9 km/h (0 Bft) W 273 0 min 0,000 mm 0,0 UV-I 47 W/m -1,1 C -0,7 C 1,6 km/h (1 Bft) 98,00 %
18.12.2016 10:24 -0,7 C 97 % 1035,3 hPa 0,0 l/m 1,5 km/h (1 Bft) W 273 0 min 0,000 mm 0,0 UV-I 47 W/m -1,1 C -0,7 C 3,2 km/h (1 Bft) 94,74 %
18.12.2016 10:26 -0,8 C 97 % 1035,3 hPa 0,0 l/m 2,5 km/h (1 Bft) W 273 0 min 0,000 mm 0,0 UV-I 47 W/m -1,2 C -0,8 C 4,8 km/h (1 Bft) 92,86 %
18.12.2016 10:28 -0,7 C 97 % 1035,3 hPa 0,0 l/m 2,7 km/h (1 Bft) W 273 0 min 0,000 mm 0,0 UV-I 49 W/m -1,1 C -0,7 C 3,2 km/h (1 Bft) 97,56 %
18.12.2016 10:30 -0,7 C 97 % 1035,2 hPa 0,0 l/m 2,5 km/h (1 Bft) W 273 0 min 0,000 mm 0,0 UV-I 49 W/m -1,1 C -0,7 C 4,8 km/h (1 Bft) 97,87 %
18.12.2016 10:32 -0,7 C 97 % 1035,3 hPa 0,0 l/m 2,2 km/h (1 Bft) W 273 0 min 0,000 mm 0,0 UV-I 50 W/m -1,1 C -0,7 C 3,2 km/h (1 Bft) 94,74 %
18.12.2016 10:34 -0,7 C 97 % 1035,2 hPa 0,0 l/m 2,7 km/h (1 Bft) W 273 0 min 0,000 mm 0,0 UV-I 52 W/m -1,1 C -0,7 C 4,8 km/h (1 Bft) 98,11 %
18.12.2016 10:36 -0,7 C 97 % 1035,2 hPa 0,0 l/m 4,0 km/h (1 Bft) W 271 0 min 0,000 mm 0,0 UV-I 54 W/m -1,1 C -0,7 C 6,4 km/h (2 Bft) 94,00 %
18.12.2016 10:38 -0,6 C 97 % 1035,2 hPa 0,0 l/m 3,7 km/h (1 Bft) W 268 0 min 0,000 mm 0,0 UV-I 60 W/m -1,0 C -0,6 C 6,4 km/h (2 Bft) 97,87 %
18.12.2016 10:40 -0,6 C 97 % 1035,1 hPa 0,0 l/m 0,8 km/h (0 Bft) W 268 0 min 0,000 mm 0,0 UV-I 65 W/m -1,0 C -0,6 C 3,2 km/h (1 Bft) 96,00 %
18.12.2016 10:42 -0,5 C 97 % 1035,2 hPa 0,0 l/m 0,3 km/h (0 Bft) W 268 0 min 0,000 mm 0,0 UV-I 69 W/m -0,9 C -0,5 C 1,6 km/h (1 Bft) 97,37 %
18.12.2016 10:44 -0,5 C 97 % 1035,0 hPa 0,0 l/m 0,8 km/h (0 Bft) W 268 0 min 0,000 mm 0,0 UV-I 69 W/m -0,9 C -0,5 C 3,2 km/h (1 Bft) 98,08 %
18.12.2016 10:46 -0,5 C 96 % 1035,0 hPa 0,0 l/m 3,8 km/h (1 Bft) W 266 0 min 0,000 mm 0,0 UV-I 69 W/m -1,1 C -0,5 C 4,8 km/h (1 Bft) 98,00 %
18.12.2016 10:48 -0,4 C 96 % 1035,0 hPa 0,0 l/m 2,8 km/h (1 Bft) W 261 0 min 0,000 mm 0,0 UV-I 69 W/m -1,0 C -0,4 C 4,8 km/h (1 Bft) 97,62 %
18.12.2016 10:50 -0,4 C 96 % 1035,0 hPa 0,0 l/m 2,3 km/h (1 Bft) W 269 0 min 0,000 mm 0,0 UV-I 69 W/m -1,0 C -0,4 C 4,8 km/h (1 Bft) 97,87 %
18.12.2016 10:52 -0,3 C 96 % 1035,0 hPa 0,0 l/m 1,0 km/h (0 Bft) W 269 0 min 0,000 mm 0,0 UV-I 69 W/m -0,9 C -0,3 C 3,2 km/h (1 Bft) 98,00 %
18.12.2016 10:54 -0,3 C 96 % 1035,0 hPa 0,0 l/m 2,1 km/h (1 Bft) W 269 0 min 0,000 mm 0,0 UV-I 69 W/m -0,9 C -0,3 C 3,2 km/h (1 Bft) 100,00 %
18.12.2016 10:56 -0,3 C 96 % 1034,9 hPa 0,0 l/m 2,0 km/h (1 Bft) W 269 0 min 0,000 mm 0,0 UV-I 69 W/m -0,9 C -0,3 C 3,2 km/h (1 Bft) 100,00 %
18.12.2016 10:58 -0,3 C 96 % 1034,9 hPa 0,0 l/m 1,5 km/h (1 Bft) W 269 0 min 0,000 mm 0,0 UV-I 66 W/m -0,9 C -0,3 C 3,2 km/h (1 Bft) 100,00 %
18.12.2016 11:00 -0,3 C 96 % 1035,0 hPa 0,0 l/m 1,8 km/h (1 Bft) W 269 0 min 0,025 mm 0,0 UV-I 65 W/m -0,9 C -0,3 C 3,2 km/h (1 Bft) 98,11 %
18.12.2016 11:02 -0,3 C 96 % 1035,0 hPa 0,0 l/m 0,4 km/h (0 Bft) W 269 0 min 0,000 mm 0,0 UV-I 66 W/m -0,9 C -0,3 C 1,6 km/h (1 Bft) 100,00 %
18.12.2016 11:04 -0,3 C 96 % 1034,9 hPa 0,0 l/m 0,7 km/h (0 Bft) W 269 0 min 0,000 mm 0,0 UV-I 67 W/m -0,9 C -0,3 C 1,6 km/h (1 Bft) 97,37 %
18.12.2016 11:06 -0,2 C 96 % 1034,9 hPa 0,0 l/m 0,9 km/h (0 Bft) W 269 0 min 0,000 mm 0,0 UV-I 67 W/m -0,8 C -0,2 C 1,6 km/h (1 Bft) 100,00 %
18.12.2016 11:08 -0,2 C 96 % 1034,9 hPa 0,0 l/m 2,0 km/h (1 Bft) W 269 0 min 0,000 mm 0,0 UV-I 67 W/m -0,8 C -0,2 C 3,2 km/h (1 Bft) 100,00 %
18.12.2016 11:10 -0,3 C 96 % 1034,9 hPa 0,0 l/m 1,6 km/h (1 Bft) W 269 0 min 0,000 mm 0,0 UV-I 65 W/m -0,9 C -0,3 C 3,2 km/h (1 Bft) 100,00 %
18.12.2016 11:12 -0,2 C 96 % 1034,9 hPa 0,0 l/m 1,2 km/h (1 Bft) W 269 0 min 0,000 mm 0,0 UV-I 65 W/m -0,8 C -0,2 C 3,2 km/h (1 Bft) 100,00 %
18.12.2016 11:14 -0,2 C 96 % 1034,9 hPa 0,0 l/m 0,8 km/h (0 Bft) W 274 0 min 0,000 mm 0,0 UV-I 66 W/m -0,8 C -0,2 C 3,2 km/h (1 Bft) 100,00 %
18.12.2016 11:16 -0,2 C 96 % 1034,9 hPa 0,0 l/m 0,4 km/h (0 Bft) W 274 0 min 0,000 mm 0,0 UV-I 67 W/m -0,8 C -0,2 C 3,2 km/h (1 Bft) 100,00 %
18.12.2016 11:18 -0,2 C 95 % 1034,9 hPa 0,0 l/m 0,1 km/h (0 Bft) W 274 0 min 0,000 mm 0,0 UV-I 65 W/m -0,9 C -0,2 C 1,6 km/h (1 Bft) 98,11 %
18.12.2016 11:20 -0,2 C 96 % 1034,7 hPa 0,0 l/m 0,5 km/h (0 Bft) W 274 0 min 0,000 mm 0,0 UV-I 65 W/m -0,8 C -0,2 C 1,6 km/h (1 Bft) 100,00 %
18.12.2016 11:22 -0,2 C 95 % 1034,7 hPa 0,0 l/m 1,0 km/h (0 Bft) W 274 0 min 0,000 mm 0,0 UV-I 64 W/m -0,9 C -0,2 C 3,2 km/h (1 Bft) 100,00 %
18.12.2016 11:24 -0,2 C 95 % 1034,7 hPa 0,0 l/m 1,0 km/h (0 Bft) W 274 0 min 0,000 mm 0,0 UV-I 63 W/m -0,9 C -0,2 C 3,2 km/h (1 Bft) 100,00 %
18.12.2016 11:26 -0,2 C 95 % 1034,7 hPa 0,0 l/m 1,0 km/h (0 Bft) W 274 0 min 0,000 mm 0,0 UV-I 63 W/m -0,9 C -0,2 C 4,8 km/h (1 Bft) 98,00 %
18.12.2016 11:28 -0,2 C 95 % 1034,7 hPa 0,0 l/m 0,5 km/h (0 Bft) W 274 0 min 0,000 mm 0,0 UV-I 63 W/m -0,9 C -0,2 C 3,2 km/h (1 Bft) 100,00 %
18.12.2016 11:30 -0,1 C 95 % 1034,7 hPa 0,0 l/m 0,8 km/h (0 Bft) W 274 0 min 0,000 mm 0,0 UV-I 63 W/m -0,8 C -0,1 C 3,2 km/h (1 Bft) 100,00 %
18.12.2016 11:32 -0,2 C 95 % 1034,6 hPa 0,0 l/m 1,2 km/h (1 Bft) W 274 0 min 0,000 mm 0,0 UV-I 66 W/m -0,9 C -0,2 C 3,2 km/h (1 Bft) 100,00 %
18.12.2016 11:34 -0,2 C 95 % 1034,6 hPa 0,0 l/m 0,3 km/h (0 Bft) W 274 0 min 0,000 mm 0,0 UV-I 69 W/m -0,9 C -0,2 C 1,6 km/h (1 Bft) 100,00 %
18.12.2016 11:36 -0,2 C 95 % 1034,6 hPa 0,0 l/m 0,4 km/h (0 Bft) W 274 0 min 0,000 mm 0,0 UV-I 69 W/m -0,9 C -0,2 C 1,6 km/h (1 Bft) 98,11 %
18.12.2016 11:38 -0,2 C 95 % 1034,6 hPa 0,0 l/m 0,0 km/h (0 Bft) W 274 0 min 0,000 mm 0,0 UV-I 68 W/m -0,9 C -0,2 C 0,0 km/h (0 Bft) 100,00 %
18.12.2016 11:40 -0,2 C 95 % 1034,6 hPa 0,0 l/m 0,0 km/h (0 Bft) W 274 0 min 0,000 mm 0,0 UV-I 64 W/m -0,9 C -0,2 C 0,0 km/h (0 Bft) 100,00 %
18.12.2016 11:42 -0,2 C 95 % 1034,5 hPa 0,0 l/m 0,0 km/h (0 Bft) W 274 0 min 0,000 mm 0,0 UV-I 62 W/m -0,9 C -0,2 C 0,0 km/h (0 Bft) 97,14 %
18.12.2016 11:44 -0,2 C 95 % 1034,6 hPa 0,0 l/m 0,1 km/h (0 Bft) W 274 0 min 0,000 mm 0,0 UV-I 58 W/m -0,9 C -0,2 C 1,6 km/h (1 Bft) 100,00 %
18.12.2016 11:46 -0,2 C 95 % 1034,5 hPa 0,0 l/m 0,3 km/h (0 Bft) W 274 0 min 0,000 mm 0,0 UV-I 54 W/m -0,9 C -0,2 C 1,6 km/h (1 Bft) 98,00 %
18.12.2016 11:48 -0,2 C 95 % 1034,5 hPa 0,0 l/m 0,7 km/h (0 Bft) W 274 0 min 0,000 mm 0,0 UV-I 54 W/m -0,9 C -0,2 C 1,6 km/h (1 Bft) 100,00 %
18.12.2016 11:50 -0,2 C 95 % 1034,5 hPa 0,0 l/m 0,6 km/h (0 Bft) W 274 0 min 0,000 mm 0,0 UV-I 56 W/m -0,9 C -0,2 C 1,6 km/h (1 Bft) 100,00 %
18.12.2016 11:52 -0,2 C 95 % 1034,4 hPa 0,0 l/m 0,0 km/h (0 Bft) W 274 0 min 0,000 mm 0,0 UV-I 54 W/m -0,9 C -0,2 C 0,0 km/h (0 Bft) 100,00 %
18.12.2016 11:54 -0,2 C 95 % 1034,4 hPa 0,0 l/m 0,0 km/h (0 Bft) W 274 0 min 0,000 mm 0,0 UV-I 53 W/m -0,9 C -0,2 C 0,0 km/h (0 Bft) 100,00 %
18.12.2016 11:56 -0,2 C 95 % 1034,4 hPa 0,0 l/m 0,3 km/h (0 Bft) W 274 0 min 0,000 mm 0,0 UV-I 54 W/m -0,9 C -0,2 C 1,6 km/h (1 Bft) 100,00 %
18.12.2016 11:58 -0,2 C 95 % 1034,4 hPa 0,0 l/m 0,3 km/h (0 Bft) W 274 0 min 0,000 mm 0,0 UV-I 55 W/m -0,9 C -0,2 C 1,6 km/h (1 Bft) 98,00 %
18.12.2016 12:00 -0,1 C 95 % 1034,3 hPa 0,0 l/m 0,0 km/h (0 Bft) W 274 0 min 0,026 mm 0,0 UV-I 60 W/m -0,8 C -0,1 C 0,0 km/h (0 Bft) 97,37 %
18.12.2016 12:02 -0,1 C 95 % 1034,2 hPa 0,0 l/m 0,0 km/h (0 Bft) W 274 0 min 0,000 mm 0,0 UV-I 65 W/m -0,8 C -0,1 C 0,0 km/h (0 Bft) 100,00 %
18.12.2016 12:04 -0,1 C 95 % 1034,2 hPa 0,0 l/m 0,0 km/h (0 Bft) W 274 0 min 0,000 mm 0,0 UV-I 76 W/m -0,8 C -0,1 C 0,0 km/h (0 Bft) 100,00 %
18.12.2016 12:06 0,0 C 95 % 1034,3 hPa 0,0 l/m 0,9 km/h (0 Bft) W 274 0 min 0,000 mm 0,0 UV-I 84 W/m -0,7 C 0,0 C 3,2 km/h (1 Bft) 100,00 %
18.12.2016 12:08 0,0 C 95 % 1034,3 hPa 0,0 l/m 0,1 km/h (0 Bft) W 274 0 min 0,000 mm 0,0 UV-I 86 W/m -0,7 C 0,0 C 1,6 km/h (1 Bft) 100,00 %
18.12.2016 12:10 0,0 C 95 % 1034,3 hPa 0,0 l/m 0,1 km/h (0 Bft) W 274 0 min 0,000 mm 0,0 UV-I 86 W/m -0,7 C 0,0 C 1,6 km/h (1 Bft) 100,00 %
18.12.2016 12:12 0,1 C 95 % 1034,1 hPa 0,0 l/m 0,0 km/h (0 Bft) W 274 0 min 0,000 mm 0,0 UV-I 92 W/m -0,6 C 0,1 C 0,0 km/h (0 Bft) 100,00 %
18.12.2016 12:14 0,1 C 95 % 1034,2 hPa 0,0 l/m 0,1 km/h (0 Bft) W 274 0 min 0,000 mm 0,0 UV-I 100 W/m -0,6 C 0,1 C 1,6 km/h (1 Bft) 93,62 %
18.12.2016 12:16 0,1 C 95 % 1034,1 hPa 0,0 l/m 0,0 km/h (0 Bft) W 274 0 min 0,000 mm 0,0 UV-I 101 W/m -0,6 C 0,1 C 0,0 km/h (0 Bft) 100,00 %
18.12.2016 12:18 0,1 C 95 % 1034,1 hPa 0,0 l/m 0,0 km/h (0 Bft) W 274 0 min 0,000 mm 0,0 UV-I 94 W/m -0,6 C 0,1 C 0,0 km/h (0 Bft) 100,00 %
18.12.2016 12:20 0,1 C 95 % 1034,1 hPa 0,0 l/m 0,6 km/h (0 Bft) W 274 0 min 0,000 mm 0,0 UV-I 89 W/m -0,6 C 0,1 C 3,2 km/h (1 Bft) 100,00 %
18.12.2016 12:22 0,1 C 95 % 1034,1 hPa 0,0 l/m 0,2 km/h (0 Bft) W 274 0 min 0,000 mm 0,0 UV-I 82 W/m -0,6 C 0,1 C 1,6 km/h (1 Bft) 96,00 %
18.12.2016 12:24 0,1 C 95 % 1034,1 hPa 0,0 l/m 0,4 km/h (0 Bft) W 274 0 min 0,000 mm 0,0 UV-I 77 W/m -0,6 C 0,1 C 1,6 km/h (1 Bft) 96,00 %
18.12.2016 12:26 0,2 C 94 % 1034,2 hPa 0,0 l/m 0,1 km/h (0 Bft) W 274 0 min 0,000 mm 0,0 UV-I 71 W/m -0,6 C 0,2 C 1,6 km/h (1 Bft) 97,37 %
18.12.2016 12:28 0,1 C 94 % 1034,2 hPa 0,0 l/m 0,3 km/h (0 Bft) W 274 0 min 0,000 mm 0,0 UV-I 65 W/m -0,7 C 0,1 C 1,6 km/h (1 Bft) 96,00 %
18.12.2016 12:30 0,1 C 94 % 1034,1 hPa 0,0 l/m 0,3 km/h (0 Bft) W 274 0 min 0,000 mm 0,0 UV-I 59 W/m -0,7 C 0,1 C 1,6 km/h (1 Bft) 95,74 %
18.12.2016 12:32 0,1 C 94 % 1034,1 hPa 0,0 l/m 0,7 km/h (0 Bft) W 274 0 min 0,000 mm 0,0 UV-I 54 W/m -0,7 C 0,1 C 3,2 km/h (1 Bft) 98,00 %
18.12.2016 12:34 0,1 C 94 % 1034,1 hPa 0,0 l/m 0,3 km/h (0 Bft) W 274 0 min 0,000 mm 0,0 UV-I 48 W/m -0,7 C 0,1 C 1,6 km/h (1 Bft) 95,74 %
18.12.2016 12:36 0,1 C 94 % 1034,1 hPa 0,0 l/m 1,1 km/h (1 Bft) W 274 0 min 0,000 mm 0,0 UV-I 46 W/m -0,7 C 0,1 C 3,2 km/h (1 Bft) 97,87 %
18.12.2016 12:38 0,1 C 94 % 1034,1 hPa 0,0 l/m 0,2 km/h (0 Bft) W 274 0 min 0,000 mm 0,0 UV-I 46 W/m -0,7 C 0,1 C 1,6 km/h (1 Bft) 94,00 %
18.12.2016 12:40 0,1 C 94 % 1034,2 hPa 0,0 l/m 0,7 km/h (0 Bft) W 274 0 min 0,000 mm 0,0 UV-I 50 W/m -0,7 C 0,1 C 1,6 km/h (1 Bft) 96,00 %
18.12.2016 12:42 0,2 C 94 % 1034,1 hPa 0,0 l/m 0,1 km/h (0 Bft) W 274 0 min 0,000 mm 0,0 UV-I 56 W/m -0,6 C 0,2 C 1,6 km/h (1 Bft) 97,87 %
18.12.2016 12:44 0,1 C 94 % 1034,1 hPa 0,0 l/m 0,9 km/h (0 Bft) W 274 0 min 0,000 mm 0,0 UV-I 63 W/m -0,7 C 0,1 C 3,2 km/h (1 Bft) 97,50 %
18.12.2016 12:46 0,2 C 94 % 1034,0 hPa 0,0 l/m 1,4 km/h (1 Bft) W 274 0 min 0,000 mm 0,0 UV-I 69 W/m -0,6 C 0,2 C 3,2 km/h (1 Bft) 95,74 %
18.12.2016 12:48 0,2 C 94 % 1033,9 hPa 0,0 l/m 1,3 km/h (1 Bft) W 274 0 min 0,000 mm 0,0 UV-I 74 W/m -0,6 C 0,2 C 3,2 km/h (1 Bft) 96,00 %
18.12.2016 12:50 0,2 C 94 % 1033,8 hPa 0,0 l/m 3,6 km/h (1 Bft) W-SW 248 0 min 0,000 mm 0,0 UV-I 75 W/m -0,6 C 0,2 C 6,4 km/h (2 Bft) 98,00 %
18.12.2016 12:52 0,2 C 94 % 1033,7 hPa 0,0 l/m 2,2 km/h (1 Bft) W-SW 248 0 min 0,000 mm 0,0 UV-I 70 W/m -0,6 C 0,2 C 4,8 km/h (1 Bft) 97,44 %
18.12.2016 12:54 0,2 C 94 % 1033,7 hPa 0,0 l/m 0,8 km/h (0 Bft) W-SW 243 0 min 0,000 mm 0,0 UV-I 64 W/m -0,6 C 0,2 C 3,2 km/h (1 Bft) 96,00 %
18.12.2016 12:56 0,2 C 94 % 1033,7 hPa 0,0 l/m 3,9 km/h (1 Bft) S 190 0 min 0,000 mm 0,0 UV-I 60 W/m -0,6 C 0,2 C 6,4 km/h (2 Bft) 100,00 %
18.12.2016 12:58 0,2 C 94 % 1033,8 hPa 0,0 l/m 2,7 km/h (1 Bft) S 190 0 min 0,000 mm 0,0 UV-I 58 W/m -0,6 C 0,2 C 4,8 km/h (1 Bft) 100,00 %
18.12.2016 13:00 0,3 C 94 % 1033,8 hPa 0,0 l/m 3,0 km/h (1 Bft) W-SW 248 0 min 0,025 mm 0,0 UV-I 58 W/m -0,5 C 0,3 C 4,8 km/h (1 Bft) 100,00 %
18.12.2016 13:02 0,3 C 94 % 1033,9 hPa 0,0 l/m 1,7 km/h (1 Bft) W-SW 251 0 min 0,000 mm 0,0 UV-I 60 W/m -0,5 C 0,3 C 3,2 km/h (1 Bft) 100,00 %
18.12.2016 13:04 0,2 C 94 % 1033,8 hPa 0,0 l/m 2,9 km/h (1 Bft) W-SW 251 0 min 0,000 mm 0,0 UV-I 60 W/m -0,6 C 0,2 C 4,8 km/h (1 Bft) 98,00 %
18.12.2016 13:06 0,2 C 94 % 1033,8 hPa 0,0 l/m 3,5 km/h (1 Bft) W-SW 251 0 min 0,000 mm 0,0 UV-I 58 W/m -0,6 C 0,2 C 4,8 km/h (1 Bft) 100,00 %
18.12.2016 13:08 0,2 C 94 % 1033,8 hPa 0,0 l/m 3,4 km/h (1 Bft) W-SW 251 0 min 0,000 mm 0,0 UV-I 57 W/m -0,6 C 0,2 C 4,8 km/h (1 Bft) 100,00 %
18.12.2016 13:10 0,2 C 94 % 1033,9 hPa 0,0 l/m 2,5 km/h (1 Bft) W-SW 251 0 min 0,000 mm 0,0 UV-I 55 W/m -0,6 C 0,2 C 4,8 km/h (1 Bft) 100,00 %
18.12.2016 13:12 0,2 C 94 % 1033,9 hPa 0,0 l/m 1,4 km/h (1 Bft) W-SW 251 0 min 0,000 mm 0,0 UV-I 55 W/m -0,6 C 0,2 C 3,2 km/h (1 Bft) 98,00 %
18.12.2016 13:14 0,3 C 94 % 1033,9 hPa 0,0 l/m 2,7 km/h (1 Bft) W-SW 251 0 min 0,000 mm 0,0 UV-I 57 W/m -0,5 C 0,3 C 4,8 km/h (1 Bft) 97,87 %
18.12.2016 13:16 0,2 C 94 % 1033,9 hPa 0,0 l/m 3,4 km/h (1 Bft) W-SW 252 0 min 0,000 mm 0,0 UV-I 58 W/m -0,6 C 0,2 C 4,8 km/h (1 Bft) 100,00 %
18.12.2016 13:18 0,3 C 94 % 1033,9 hPa 0,0 l/m 3,4 km/h (1 Bft) W 275 0 min 0,000 mm 0,0 UV-I 56 W/m -0,5 C 0,3 C 4,8 km/h (1 Bft) 100,00 %
18.12.2016 13:20 0,3 C 94 % 1033,9 hPa 0,0 l/m 3,9 km/h (1 Bft) W 275 0 min 0,000 mm 0,0 UV-I 50 W/m -0,5 C 0,3 C 4,8 km/h (1 Bft) 100,00 %
18.12.2016 13:22 0,3 C 94 % 1033,8 hPa 0,0 l/m 2,6 km/h (1 Bft) W 273 0 min 0,000 mm 0,0 UV-I 46 W/m -0,5 C 0,3 C 4,8 km/h (1 Bft) 95,74 %
18.12.2016 13:24 0,3 C 94 % 1033,7 hPa 0,0 l/m 2,9 km/h (1 Bft) W 264 0 min 0,000 mm 0,0 UV-I 43 W/m -0,5 C 0,3 C 4,8 km/h (1 Bft) 100,00 %
18.12.2016 13:26 0,3 C 94 % 1033,7 hPa 0,0 l/m 3,2 km/h (1 Bft) W-SW 244 0 min 0,000 mm 0,0 UV-I 41 W/m -0,5 C 0,3 C 6,4 km/h (2 Bft) 98,00 %
18.12.2016 13:28 0,3 C 94 % 1033,7 hPa 0,0 l/m 3,4 km/h (1 Bft) W-SW 244 0 min 0,000 mm 0,0 UV-I 42 W/m -0,5 C 0,3 C 6,4 km/h (2 Bft) 100,00 %
18.12.2016 13:30 0,3 C 94 % 1033,7 hPa 0,0 l/m 5,1 km/h (1 Bft) W-SW 240 0 min 0,000 mm 0,0 UV-I 41 W/m -0,5 C 0,3 C 6,4 km/h (2 Bft) 100,00 %
18.12.2016 13:32 0,3 C 94 % 1033,7 hPa 0,0 l/m 4,4 km/h (1 Bft) W-SW 241 0 min 0,000 mm 0,0 UV-I 38 W/m -0,5 C 0,3 C 6,4 km/h (2 Bft) 100,00 %
18.12.2016 13:34 0,3 C 94 % 1033,6 hPa 0,0 l/m 4,4 km/h (1 Bft) W-SW 250 0 min 0,000 mm 0,0 UV-I 35 W/m -0,5 C 0,3 C 6,4 km/h (2 Bft) 97,44 %
18.12.2016 13:36 0,3 C 94 % 1033,6 hPa 0,0 l/m 4,6 km/h (1 Bft) W-SW 242 0 min 0,000 mm 0,0 UV-I 33 W/m -0,5 C 0,3 C 8,0 km/h (2 Bft) 98,11 %
18.12.2016 13:38 0,3 C 94 % 1033,6 hPa 0,0 l/m 5,0 km/h (1 Bft) W-SW 237 0 min 0,000 mm 0,0 UV-I 33 W/m -0,5 C 0,3 C 6,4 km/h (2 Bft) 100,00 %
18.12.2016 13:40 0,3 C 94 % 1033,6 hPa 0,0 l/m 5,3 km/h (1 Bft) SW 236 0 min 0,000 mm 0,0 UV-I 33 W/m -0,5 C 0,3 C 8,0 km/h (2 Bft) 100,00 %
18.12.2016 13:42 0,3 C 94 % 1033,5 hPa 0,0 l/m 2,6 km/h (1 Bft) SW 236 0 min 0,000 mm 0,0 UV-I 32 W/m -0,5 C 0,3 C 4,8 km/h (1 Bft) 100,00 %
18.12.2016 13:44 0,3 C 94 % 1033,5 hPa 0,0 l/m 3,4 km/h (1 Bft) SW 234 0 min 0,000 mm 0,0 UV-I 30 W/m -0,5 C 0,3 C 6,4 km/h (2 Bft) 100,00 %
18.12.2016 13:46 0,2 C 94 % 1033,5 hPa 0,0 l/m 3,7 km/h (1 Bft) SW 226 0 min 0,000 mm 0,0 UV-I 27 W/m -0,6 C 0,2 C 6,4 km/h (2 Bft) 100,00 %
18.12.2016 13:48 0,2 C 94 % 1033,5 hPa 0,0 l/m 6,4 km/h (2 Bft) S-SW 207 0 min 0,000 mm 0,0 UV-I 26 W/m -0,6 C 0,2 C 9,7 km/h (2 Bft) 100,00 %
18.12.2016 13:50 0,2 C 94 % 1033,4 hPa 0,0 l/m 5,7 km/h (1 Bft) S-SW 211 0 min 0,000 mm 0,0 UV-I 26 W/m -0,6 C 0,2 C 8,0 km/h (2 Bft) 100,00 %
18.12.2016 13:52 0,2 C 94 % 1033,4 hPa 0,0 l/m 5,9 km/h (2 Bft) S-SW 209 0 min 0,000 mm 0,0 UV-I 25 W/m -0,6 C 0,2 C 8,0 km/h (2 Bft) 100,00 %
18.12.2016 13:54 0,2 C 94 % 1033,4 hPa 0,0 l/m 3,3 km/h (1 Bft) S-SW 209 0 min 0,000 mm 0,0 UV-I 25 W/m -0,6 C 0,2 C 6,4 km/h (2 Bft) 100,00 %
18.12.2016 13:56 0,2 C 94 % 1033,4 hPa 0,0 l/m 4,2 km/h (1 Bft) S-SW 209 0 min 0,000 mm 0,0 UV-I 27 W/m -0,6 C 0,2 C 6,4 km/h (2 Bft) 98,00 %
18.12.2016 13:58 0,3 C 94 % 1033,4 hPa 0,0 l/m 4,6 km/h (1 Bft) SW 229 0 min 0,000 mm 0,0 UV-I 30 W/m -0,5 C 0,3 C 6,4 km/h (2 Bft) 100,00 %
18.12.2016 14:00 0,3 C 94 % 1033,4 hPa 0,0 l/m 4,0 km/h (1 Bft) SW 229 0 min 0,026 mm 0,0 UV-I 33 W/m -0,5 C 0,3 C 6,4 km/h (2 Bft) 100,00 %
18.12.2016 14:02 0,3 C 94 % 1033,3 hPa 0,0 l/m 3,6 km/h (1 Bft) SW 233 0 min 0,000 mm 0,0 UV-I 36 W/m -0,5 C 0,3 C 6,4 km/h (2 Bft) 97,37 %
18.12.2016 14:04 0,3 C 94 % 1033,3 hPa 0,0 l/m 4,2 km/h (1 Bft) SW 233 0 min 0,000 mm 0,0 UV-I 39 W/m -0,5 C 0,3 C 6,4 km/h (2 Bft) 98,00 %
18.12.2016 14:06 0,3 C 94 % 1033,3 hPa 0,0 l/m 3,3 km/h (1 Bft) SW 233 0 min 0,000 mm 0,0 UV-I 42 W/m -0,5 C 0,3 C 4,8 km/h (1 Bft) 100,00 %
18.12.2016 14:08 0,3 C 94 % 1033,4 hPa 0,0 l/m 4,2 km/h (1 Bft) SW 233 0 min 0,000 mm 0,0 UV-I 43 W/m -0,5 C 0,3 C 6,4 km/h (2 Bft) 98,36 %
18.12.2016 14:10 0,3 C 94 % 1033,4 hPa 0,0 l/m 5,4 km/h (1 Bft) SW 233 0 min 0,000 mm 0,0 UV-I 42 W/m -0,5 C 0,3 C 8,0 km/h (2 Bft) 97,44 %
18.12.2016 14:12 0,3 C 94 % 1033,4 hPa 0,0 l/m 4,6 km/h (1 Bft) S-SW 213 0 min 0,000 mm 0,0 UV-I 39 W/m -0,5 C 0,3 C 8,0 km/h (2 Bft) 100,00 %
18.12.2016 14:14 0,3 C 94 % 1033,4 hPa 0,0 l/m 5,1 km/h (1 Bft) SW 216 0 min 0,000 mm 0,0 UV-I 39 W/m -0,5 C 0,3 C 8,0 km/h (2 Bft) 100,00 %
18.12.2016 14:16 0,3 C 94 % 1033,4 hPa 0,0 l/m 4,9 km/h (1 Bft) SW 222 0 min 0,000 mm 0,0 UV-I 35 W/m -0,5 C 0,3 C 8,0 km/h (2 Bft) 100,00 %
18.12.2016 14:18 0,3 C 94 % 1033,4 hPa 0,0 l/m 6,5 km/h (2 Bft) SW 233 0 min 0,000 mm 0,0 UV-I 34 W/m -0,5 C 0,2 C 9,7 km/h (2 Bft) 100,00 %
18.12.2016 14:20 0,3 C 94 % 1033,4 hPa 0,0 l/m 5,0 km/h (1 Bft) SW 236 0 min 0,000 mm 0,0 UV-I 33 W/m -0,5 C 0,3 C 8,0 km/h (2 Bft) 100,00 %
18.12.2016 14:22 0,3 C 94 % 1033,4 hPa 0,0 l/m 5,5 km/h (1 Bft) SW 232 0 min 0,000 mm 0,0 UV-I 30 W/m -0,5 C 0,3 C 8,0 km/h (2 Bft) 100,00 %
18.12.2016 14:24 0,3 C 94 % 1033,4 hPa 0,0 l/m 4,8 km/h (1 Bft) SW 230 0 min 0,000 mm 0,0 UV-I 27 W/m -0,5 C 0,3 C 6,4 km/h (2 Bft) 97,56 %
18.12.2016 14:26 0,3 C 94 % 1033,4 hPa 0,0 l/m 6,0 km/h (2 Bft) SW 224 0 min 0,000 mm 0,0 UV-I 25 W/m -0,5 C 0,3 C 9,7 km/h (2 Bft) 98,11 %
18.12.2016 14:28 0,3 C 94 % 1033,3 hPa 0,0 l/m 6,0 km/h (2 Bft) SW 232 0 min 0,000 mm 0,0 UV-I 23 W/m -0,5 C 0,3 C 8,0 km/h (2 Bft) 95,12 %
18.12.2016 14:30 0,3 C 94 % 1033,3 hPa 0,0 l/m 4,9 km/h (1 Bft) SW 226 0 min 0,000 mm 0,0 UV-I 24 W/m -0,5 C 0,3 C 6,4 km/h (2 Bft) 95,74 %
18.12.2016 14:32 0,3 C 94 % 1033,3 hPa 0,0 l/m 5,8 km/h (2 Bft) SW 234 0 min 0,000 mm 0,0 UV-I 25 W/m -0,5 C 0,3 C 9,7 km/h (2 Bft) 98,21 %
18.12.2016 14:34 0,3 C 94 % 1033,4 hPa 0,0 l/m 4,8 km/h (1 Bft) W-SW 244 0 min 0,000 mm 0,0 UV-I 22 W/m -0,5 C 0,3 C 6,4 km/h (2 Bft) 97,56 %
18.12.2016 14:36 0,3 C 94 % 1033,3 hPa 0,0 l/m 7,0 km/h (2 Bft) SW 231 0 min 0,000 mm 0,0 UV-I 19 W/m -0,5 C -0,3 C 9,7 km/h (2 Bft) 96,23 %
18.12.2016 14:38 0,3 C 94 % 1033,3 hPa 0,0 l/m 8,6 km/h (2 Bft) SW 214 0 min 0,000 mm 0,0 UV-I 19 W/m -0,5 C -1,9 C 12,9 km/h (3 Bft) 100,00 %
18.12.2016 14:40 0,3 C 94 % 1033,2 hPa 0,0 l/m 7,6 km/h (2 Bft) S-SW 206 0 min 0,000 mm 0,0 UV-I 21 W/m -0,5 C -0,9 C 14,5 km/h (3 Bft) 96,23 %
18.12.2016 14:42 0,3 C 94 % 1033,2 hPa 0,0 l/m 4,9 km/h (1 Bft) S-SW 206 0 min 0,000 mm 0,0 UV-I 20 W/m -0,5 C 0,3 C 9,7 km/h (2 Bft) 97,87 %
18.12.2016 14:44 0,3 C 94 % 1033,2 hPa 0,0 l/m 6,8 km/h (2 Bft) SW 223 0 min 0,000 mm 0,0 UV-I 18 W/m -0,5 C -0,1 C 11,3 km/h (2 Bft) 94,59 %
18.12.2016 14:46 0,3 C 94 % 1033,1 hPa 0,0 l/m 3,0 km/h (1 Bft) S-SW 196 0 min 0,000 mm 0,0 UV-I 17 W/m -0,5 C 0,3 C 6,4 km/h (2 Bft) 97,92 %
18.12.2016 14:48 0,3 C 94 % 1033,1 hPa 0,0 l/m 2,4 km/h (1 Bft) S 180 0 min 0,000 mm 0,0 UV-I 18 W/m -0,5 C 0,3 C 4,8 km/h (1 Bft) 98,08 %
18.12.2016 14:50 0,3 C 94 % 1033,2 hPa 0,0 l/m 4,8 km/h (1 Bft) S-SW 202 0 min 0,000 mm 0,0 UV-I 18 W/m -0,5 C 0,3 C 8,0 km/h (2 Bft) 97,62 %
18.12.2016 14:52 0,3 C 94 % 1033,1 hPa 0,0 l/m 5,1 km/h (1 Bft) S 186 0 min 0,000 mm 0,0 UV-I 17 W/m -0,5 C 0,3 C 6,4 km/h (2 Bft) 94,00 %
18.12.2016 14:54 0,3 C 94 % 1033,1 hPa 0,0 l/m 4,4 km/h (1 Bft) S-SW 204 0 min 0,000 mm 0,0 UV-I 15 W/m -0,5 C 0,3 C 8,0 km/h (2 Bft) 96,00 %
18.12.2016 14:56 0,3 C 94 % 1033,1 hPa 0,0 l/m 5,9 km/h (2 Bft) S-SW 209 0 min 0,000 mm 0,0 UV-I 14 W/m -0,5 C 0,3 C 9,7 km/h (2 Bft) 97,56 %
18.12.2016 14:58 0,3 C 94 % 1033,1 hPa 0,0 l/m 5,1 km/h (1 Bft) S-SW 204 0 min 0,000 mm 0,0 UV-I 12 W/m -0,5 C 0,3 C 8,0 km/h (2 Bft) 98,00 %
18.12.2016 15:00 0,3 C 95 % 1033,1 hPa 0,0 l/m 4,6 km/h (1 Bft) S-SW 199 0 min 0,000 mm 0,0 UV-I 11 W/m -0,4 C 0,3 C 8,0 km/h (2 Bft) 97,37 %
18.12.2016 15:02 0,3 C 95 % 1033,1 hPa 0,0 l/m 6,8 km/h (2 Bft) SW 217 0 min 0,000 mm 0,0 UV-I 11 W/m -0,4 C -0,1 C 9,7 km/h (2 Bft) 100,00 %
18.12.2016 15:04 0,3 C 95 % 1033,1 hPa 0,0 l/m 4,4 km/h (1 Bft) SW 236 0 min 0,000 mm 0,0 UV-I 10 W/m -0,4 C 0,3 C 8,0 km/h (2 Bft) 100,00 %
18.12.2016 15:06 0,3 C 95 % 1033,2 hPa 0,0 l/m 4,5 km/h (1 Bft) W 260 0 min 0,000 mm 0,0 UV-I 9 W/m -0,4 C 0,3 C 6,4 km/h (2 Bft) 100,00 %
18.12.2016 15:08 0,3 C 95 % 1033,2 hPa 0,0 l/m 4,1 km/h (1 Bft) W-SW 256 0 min 0,000 mm 0,0 UV-I 7 W/m -0,4 C 0,3 C 6,4 km/h (2 Bft) 100,00 %
18.12.2016 15:10 0,3 C 95 % 1033,3 hPa 0,0 l/m 4,0 km/h (1 Bft) W 264 0 min 0,000 mm 0,0 UV-I 7 W/m -0,4 C 0,3 C 6,4 km/h (2 Bft) 98,00 %
18.12.2016 15:12 0,3 C 95 % 1033,3 hPa 0,0 l/m 3,0 km/h (1 Bft) W 264 0 min 0,000 mm 0,0 UV-I 7 W/m -0,4 C 0,3 C 6,4 km/h (2 Bft) 100,00 %
18.12.2016 15:14 0,3 C 95 % 1033,1 hPa 0,0 l/m 2,8 km/h (1 Bft) W-SW 257 0 min 0,000 mm 0,0 UV-I 7 W/m -0,4 C 0,3 C 4,8 km/h (1 Bft) 94,00 %
18.12.2016 15:16 0,3 C 95 % 1033,1 hPa 0,0 l/m 2,8 km/h (1 Bft) W-SW 244 0 min 0,000 mm 0,0 UV-I 7 W/m -0,4 C 0,3 C 4,8 km/h (1 Bft) 97,87 %
18.12.2016 15:18 0,3 C 95 % 1033,1 hPa 0,0 l/m 1,5 km/h (1 Bft) W-SW 244 0 min 0,000 mm 0,0 UV-I 7 W/m -0,4 C 0,3 C 3,2 km/h (1 Bft) 100,00 %
18.12.2016 15:20 0,3 C 95 % 1033,1 hPa 0,0 l/m 2,3 km/h (1 Bft) W-SW 244 0 min 0,000 mm 0,0 UV-I 6 W/m -0,4 C 0,3 C 3,2 km/h (1 Bft) 100,00 %
18.12.2016 15:22 0,3 C 95 % 1033,1 hPa 0,0 l/m 2,7 km/h (1 Bft) W-SW 244 0 min 0,000 mm 0,0 UV-I 6 W/m -0,4 C 0,3 C 4,8 km/h (1 Bft) 98,00 %
18.12.2016 15:24 0,3 C 95 % 1032,9 hPa 0,0 l/m 2,4 km/h (1 Bft) W-SW 244 0 min 0,000 mm 0,0 UV-I 7 W/m -0,4 C 0,3 C 4,8 km/h (1 Bft) 100,00 %
18.12.2016 15:26 0,2 C 95 % 1032,8 hPa 0,0 l/m 2,2 km/h (1 Bft) W-SW 244 0 min 0,000 mm 0,0 UV-I 8 W/m -0,5 C 0,2 C 4,8 km/h (1 Bft) 100,00 %
18.12.2016 15:28 0,3 C 96 % 1032,9 hPa 0,0 l/m 2,4 km/h (1 Bft) W-SW 244 0 min 0,000 mm 0,0 UV-I 9 W/m -0,3 C 0,3 C 3,2 km/h (1 Bft) 100,00 %
18.12.2016 15:30 0,3 C 96 % 1032,9 hPa 0,0 l/m 2,3 km/h (1 Bft) W-SW 244 0 min 0,000 mm 0,0 UV-I 9 W/m -0,3 C 0,3 C 4,8 km/h (1 Bft) 100,00 %
18.12.2016 15:32 0,3 C 95 % 1032,9 hPa 0,0 l/m 2,8 km/h (1 Bft) W-SW 244 0 min 0,000 mm 0,0 UV-I 8 W/m -0,4 C 0,3 C 4,8 km/h (1 Bft) 100,00 %
18.12.2016 15:34 0,3 C 96 % 1032,9 hPa 0,0 l/m 4,2 km/h (1 Bft) W-SW 237 0 min 0,000 mm 0,0 UV-I 7 W/m -0,3 C 0,3 C 6,4 km/h (2 Bft) 98,00 %
18.12.2016 15:36 0,3 C 96 % 1032,8 hPa 0,0 l/m 1,6 km/h (1 Bft) SW 235 0 min 0,000 mm 0,0 UV-I 7 W/m -0,3 C 0,3 C 4,8 km/h (1 Bft) 100,00 %
18.12.2016 15:38 0,2 C 96 % 1032,8 hPa 0,0 l/m 3,5 km/h (1 Bft) S 188 0 min 0,000 mm 0,0 UV-I 7 W/m -0,4 C 0,2 C 6,4 km/h (2 Bft) 100,00 %
18.12.2016 15:40 0,2 C 96 % 1032,8 hPa 0,0 l/m 4,5 km/h (1 Bft) S-SW 192 0 min 0,000 mm 0,0 UV-I 5 W/m -0,4 C 0,2 C 6,4 km/h (2 Bft) 100,00 %
18.12.2016 15:42 0,2 C 96 % 1032,9 hPa 0,0 l/m 4,0 km/h (1 Bft) S-SW 205 0 min 0,000 mm 0,0 UV-I 5 W/m -0,4 C 0,2 C 6,4 km/h (2 Bft) 100,00 %
18.12.2016 15:44 0,2 C 96 % 1032,9 hPa 0,0 l/m 3,8 km/h (1 Bft) SW 229 0 min 0,000 mm 0,0 UV-I 5 W/m -0,4 C 0,2 C 4,8 km/h (1 Bft) 100,00 %
18.12.2016 15:46 0,2 C 96 % 1032,9 hPa 0,0 l/m 2,5 km/h (1 Bft) W-SW 254 0 min 0,000 mm 0,0 UV-I 5 W/m -0,4 C 0,2 C 4,8 km/h (1 Bft) 100,00 %
18.12.2016 15:48 0,3 C 96 % 1032,9 hPa 0,0 l/m 3,0 km/h (1 Bft) W-SW 254 0 min 0,000 mm 0,0 UV-I 5 W/m -0,3 C 0,3 C 4,8 km/h (1 Bft) 100,00 %
18.12.2016 15:50 0,3 C 96 % 1033,0 hPa 0,0 l/m 1,9 km/h (1 Bft) W-SW 254 0 min 0,000 mm 0,0 UV-I 5 W/m -0,3 C 0,3 C 3,2 km/h (1 Bft) 100,00 %
18.12.2016 15:52 0,2 C 96 % 1032,9 hPa 0,0 l/m 1,9 km/h (1 Bft) W-SW 254 0 min 0,000 mm 0,0 UV-I 6 W/m -0,4 C 0,2 C 3,2 km/h (1 Bft) 96,23 %
18.12.2016 15:54 0,2 C 96 % 1032,9 hPa 0,0 l/m 2,1 km/h (1 Bft) W-SW 254 0 min 0,000 mm 0,0 UV-I 6 W/m -0,4 C 0,2 C 3,2 km/h (1 Bft) 100,00 %
18.12.2016 15:56 0,2 C 96 % 1032,9 hPa 0,0 l/m 3,1 km/h (1 Bft) W-SW 254 0 min 0,000 mm 0,0 UV-I 5 W/m -0,4 C 0,2 C 4,8 km/h (1 Bft) 100,00 %
18.12.2016 15:58 0,2 C 96 % 1032,9 hPa 0,0 l/m 3,0 km/h (1 Bft) W-SW 247 0 min 0,000 mm 0,0 UV-I 5 W/m -0,4 C 0,2 C 6,4 km/h (2 Bft) 97,87 %
18.12.2016 16:00 0,2 C 96 % 1032,8 hPa 0,0 l/m 2,5 km/h (1 Bft) W-SW 244 0 min 0,000 mm 0,0 UV-I 5 W/m -0,4 C 0,2 C 4,8 km/h (1 Bft) 100,00 %
18.12.2016 16:02 0,2 C 96 % 1032,8 hPa 0,0 l/m 2,2 km/h (1 Bft) W-SW 244 0 min 0,000 mm 0,0 UV-I 3 W/m -0,4 C 0,2 C 4,8 km/h (1 Bft) 100,00 %
18.12.2016 16:04 0,2 C 96 % 1032,8 hPa 0,0 l/m 3,0 km/h (1 Bft) W-SW 239 0 min 0,000 mm 0,0 UV-I 0 W/m -0,4 C 0,2 C 4,8 km/h (1 Bft) 100,00 %
18.12.2016 16:06 0,2 C 96 % 1032,7 hPa 0,0 l/m 2,6 km/h (1 Bft) W-SW 238 0 min 0,000 mm 0,0 UV-I 0 W/m -0,4 C 0,2 C 4,8 km/h (1 Bft) 98,00 %
18.12.2016 16:08 0,2 C 96 % 1032,8 hPa 0,0 l/m 3,4 km/h (1 Bft) W-SW 238 0 min 0,000 mm 0,0 UV-I 0 W/m -0,4 C 0,2 C 4,8 km/h (1 Bft) 100,00 %
18.12.2016 16:10 0,3 C 97 % 1032,7 hPa 0,0 l/m 3,1 km/h (1 Bft) W-SW 238 0 min 0,000 mm 0,0 UV-I 0 W/m -0,1 C 0,3 C 4,8 km/h (1 Bft) 100,00 %
18.12.2016 16:12 0,3 C 97 % 1032,7 hPa 0,0 l/m 3,1 km/h (1 Bft) W-SW 238 0 min 0,000 mm 0,0 UV-I 0 W/m -0,1 C 0,3 C 4,8 km/h (1 Bft) 97,92 %
18.12.2016 16:14 0,3 C 96 % 1032,7 hPa 0,0 l/m 2,8 km/h (1 Bft) S 187 0 min 0,000 mm 0,0 UV-I 0 W/m -0,3 C 0,3 C 6,4 km/h (2 Bft) 100,00 %
18.12.2016 16:16 0,3 C 97 % 1032,7 hPa 0,0 l/m 2,9 km/h (1 Bft) S 188 0 min 0,000 mm 0,0 UV-I 0 W/m -0,1 C 0,3 C 4,8 km/h (1 Bft) 100,00 %
18.12.2016 16:18 0,3 C 96 % 1032,7 hPa 0,0 l/m 2,3 km/h (1 Bft) S 188 0 min 0,000 mm 0,0 UV-I 0 W/m -0,3 C 0,3 C 3,2 km/h (1 Bft) 100,00 %
18.12.2016 16:20 0,3 C 96 % 1032,7 hPa 0,0 l/m 2,8 km/h (1 Bft) S 188 0 min 0,000 mm 0,0 UV-I 0 W/m -0,3 C 0,3 C 4,8 km/h (1 Bft) 100,00 %
18.12.2016 16:22 0,3 C 97 % 1032,7 hPa 0,0 l/m 2,1 km/h (1 Bft) S 188 0 min 0,000 mm 0,0 UV-I 0 W/m -0,1 C 0,3 C 3,2 km/h (1 Bft) 97,56 %
18.12.2016 16:24 0,3 C 97 % 1032,7 hPa 0,0 l/m 1,5 km/h (1 Bft) S 188 0 min 0,000 mm 0,0 UV-I 0 W/m -0,1 C 0,3 C 4,8 km/h (1 Bft) 100,00 %
18.12.2016 16:26 0,3 C 97 % 1032,7 hPa 0,0 l/m 1,0 km/h (0 Bft) S 188 0 min 0,000 mm 0,0 UV-I 0 W/m -0,1 C 0,3 C 1,6 km/h (1 Bft) 97,87 %
18.12.2016 16:28 0,3 C 97 % 1032,7 hPa 0,0 l/m 1,4 km/h (1 Bft) S 188 0 min 0,000 mm 0,0 UV-I 0 W/m -0,1 C 0,3 C 3,2 km/h (1 Bft) 96,00 %
18.12.2016 16:30 0,3 C 97 % 1032,6 hPa 0,0 l/m 0,9 km/h (0 Bft) S 188 0 min 0,000 mm 0,0 UV-I 0 W/m -0,1 C 0,3 C 3,2 km/h (1 Bft) 95,74 %
18.12.2016 16:32 0,3 C 97 % 1032,5 hPa 0,0 l/m 1,7 km/h (1 Bft) S 188 0 min 0,000 mm 0,0 UV-I 0 W/m -0,1 C 0,3 C 3,2 km/h (1 Bft) 97,37 %
18.12.2016 16:34 0,3 C 97 % 1032,5 hPa 0,0 l/m 1,3 km/h (1 Bft) S 188 0 min 0,000 mm 0,0 UV-I 0 W/m -0,1 C 0,3 C 3,2 km/h (1 Bft) 96,43 %
18.12.2016 16:36 0,3 C 97 % 1032,5 hPa 0,0 l/m 2,1 km/h (1 Bft) S 188 0 min 0,000 mm 0,0 UV-I 0 W/m -0,1 C 0,3 C 4,8 km/h (1 Bft) 97,37 %
18.12.2016 16:38 0,3 C 97 % 1032,5 hPa 0,0 l/m 0,7 km/h (0 Bft) S 188 0 min 0,000 mm 0,0 UV-I 0 W/m -0,1 C 0,3 C 1,6 km/h (1 Bft) 96,43 %
18.12.2016 16:40 0,3 C 97 % 1032,4 hPa 0,0 l/m 0,7 km/h (0 Bft) S 188 0 min 0,000 mm 0,0 UV-I 0 W/m -0,1 C 0,3 C 1,6 km/h (1 Bft) 95,74 %
18.12.2016 16:42 0,3 C 97 % 1032,4 hPa 0,0 l/m 1,0 km/h (0 Bft) S 188 0 min 0,000 mm 0,0 UV-I 0 W/m -0,1 C 0,3 C 3,2 km/h (1 Bft) 97,87 %
18.12.2016 16:44 0,3 C 97 % 1032,4 hPa 0,0 l/m 0,4 km/h (0 Bft) S 188 0 min 0,000 mm 0,0 UV-I 0 W/m -0,1 C 0,3 C 3,2 km/h (1 Bft) 97,87 %
18.12.2016 16:46 0,3 C 97 % 1032,4 hPa 0,0 l/m 0,0 km/h (0 Bft) S 188 0 min 0,000 mm 0,0 UV-I 0 W/m -0,1 C 0,3 C 0,0 km/h (0 Bft) 92,31 %
18.12.2016 16:48 0,3 C 97 % 1032,3 hPa 0,0 l/m 0,0 km/h (0 Bft) S 188 0 min 0,000 mm 0,0 UV-I 0 W/m -0,1 C 0,3 C 0,0 km/h (0 Bft) 97,87 %
18.12.2016 16:50 0,3 C 97 % 1032,4 hPa 0,0 l/m 0,0 km/h (0 Bft) S 188 0 min 0,000 mm 0,0 UV-I 0 W/m -0,1 C 0,3 C 0,0 km/h (0 Bft) 95,12 %
18.12.2016 16:52 0,3 C 97 % 1032,3 hPa 0,0 l/m 0,0 km/h (0 Bft) S 188 0 min 0,000 mm 0,0 UV-I 0 W/m -0,1 C 0,3 C 0,0 km/h (0 Bft) 98,00 %
18.12.2016 16:54 0,3 C 97 % 1032,3 hPa 0,0 l/m 0,0 km/h (0 Bft) S 188 0 min 0,000 mm 0,0 UV-I 0 W/m -0,1 C 0,3 C 0,0 km/h (0 Bft) 98,00 %
18.12.2016 16:56 0,3 C 97 % 1032,3 hPa 0,0 l/m 0,0 km/h (0 Bft) S 188 0 min 0,000 mm 0,0 UV-I 0 W/m -0,1 C 0,3 C 0,0 km/h (0 Bft) 95,74 %
18.12.2016 16:58 0,3 C 97 % 1032,3 hPa 0,0 l/m 0,1 km/h (0 Bft) S 188 0 min 0,000 mm 0,0 UV-I 0 W/m -0,1 C 0,3 C 1,6 km/h (1 Bft) 94,34 %
18.12.2016 17:00 0,3 C 97 % 1032,2 hPa 0,0 l/m 0,3 km/h (0 Bft) S 188 0 min 0,000 mm 0,0 UV-I 0 W/m -0,1 C 0,3 C 1,6 km/h (1 Bft) 95,74 %
18.12.2016 17:02 0,3 C 97 % 1032,2 hPa 0,0 l/m 0,6 km/h (0 Bft) S 188 0 min 0,000 mm 0,0 UV-I 0 W/m -0,1 C 0,3 C 1,6 km/h (1 Bft) 97,14 %
18.12.2016 17:04 0,3 C 97 % 1032,2 hPa 0,0 l/m 1,0 km/h (0 Bft) S 188 0 min 0,000 mm 0,0 UV-I 0 W/m -0,1 C 0,3 C 3,2 km/h (1 Bft) 98,28 %
18.12.2016 17:06 0,3 C 97 % 1032,1 hPa 0,0 l/m 1,1 km/h (1 Bft) S 188 0 min 0,000 mm 0,0 UV-I 0 W/m -0,1 C 0,3 C 3,2 km/h (1 Bft) 98,00 %
18.12.2016 17:08 0,3 C 97 % 1032,1 hPa 0,0 l/m 1,8 km/h (1 Bft) S 188 0 min 0,000 mm 0,0 UV-I 0 W/m -0,1 C 0,3 C 4,8 km/h (1 Bft) 100,00 %
18.12.2016 17:10 0,4 C 97 % 1032,2 hPa 0,0 l/m 2,4 km/h (1 Bft) S 188 0 min 0,000 mm 0,0 UV-I 0 W/m -0,0 C 0,4 C 4,8 km/h (1 Bft) 93,62 %
18.12.2016 17:12 0,4 C 97 % 1032,1 hPa 0,0 l/m 1,9 km/h (1 Bft) S 187 0 min 0,000 mm 0,0 UV-I 0 W/m -0,0 C 0,4 C 3,2 km/h (1 Bft) 100,00 %
18.12.2016 17:14 0,4 C 97 % 1032,0 hPa 0,0 l/m 3,7 km/h (1 Bft) S-SW 193 0 min 0,000 mm 0,0 UV-I 0 W/m -0,0 C 0,4 C 4,8 km/h (1 Bft) 100,00 %
18.12.2016 17:16 0,4 C 97 % 1032,1 hPa 0,0 l/m 3,8 km/h (1 Bft) S-SW 197 0 min 0,000 mm 0,0 UV-I 0 W/m -0,0 C 0,4 C 6,4 km/h (2 Bft) 100,00 %
18.12.2016 17:18 0,4 C 97 % 1032,1 hPa 0,0 l/m 3,1 km/h (1 Bft) S 187 0 min 0,000 mm 0,0 UV-I 0 W/m -0,0 C 0,4 C 4,8 km/h (1 Bft) 100,00 %
18.12.2016 17:20 0,4 C 97 % 1032,0 hPa 0,0 l/m 4,3 km/h (1 Bft) S-SW 202 0 min 0,000 mm 0,0 UV-I 0 W/m -0,0 C 0,4 C 6,4 km/h (2 Bft) 100,00 %
18.12.2016 17:22 0,5 C 97 % 1031,9 hPa 0,0 l/m 3,9 km/h (1 Bft) S-SW 202 0 min 0,000 mm 0,0 UV-I 0 W/m 0,1 C 0,5 C 6,4 km/h (2 Bft) 97,87 %
18.12.2016 17:24 0,5 C 97 % 1031,9 hPa 0,0 l/m 2,8 km/h (1 Bft) S-SW 197 0 min 0,000 mm 0,0 UV-I 0 W/m 0,1 C 0,5 C 6,4 km/h (2 Bft) 100,00 %
18.12.2016 17:26 0,5 C 97 % 1031,9 hPa 0,0 l/m 1,4 km/h (1 Bft) S-SW 197 0 min 0,000 mm 0,0 UV-I 0 W/m 0,1 C 0,5 C 3,2 km/h (1 Bft) 100,00 %
18.12.2016 17:28 0,5 C 97 % 1031,9 hPa 0,0 l/m 2,4 km/h (1 Bft) S-SW 197 0 min 0,000 mm 0,0 UV-I 0 W/m 0,1 C 0,5 C 4,8 km/h (1 Bft) 100,00 %
18.12.2016 17:30 0,5 C 97 % 1031,9 hPa 0,0 l/m 3,7 km/h (1 Bft) S-SW 198 0 min 0,000 mm 0,0 UV-I 0 W/m 0,1 C 0,5 C 6,4 km/h (2 Bft) 97,87 %
18.12.2016 17:32 0,5 C 97 % 1031,9 hPa 0,0 l/m 2,7 km/h (1 Bft) S-SW 198 0 min 0,000 mm 0,0 UV-I 0 W/m 0,1 C 0,5 C 3,2 km/h (1 Bft) 97,37 %
18.12.2016 17:34 0,5 C 97 % 1031,9 hPa 0,0 l/m 2,1 km/h (1 Bft) S-SW 198 0 min 0,000 mm 0,0 UV-I 0 W/m 0,1 C 0,5 C 3,2 km/h (1 Bft) 100,00 %
18.12.2016 17:36 0,5 C 97 % 1031,9 hPa 0,0 l/m 2,4 km/h (1 Bft) S-SW 212 0 min 0,000 mm 0,0 UV-I 0 W/m 0,1 C 0,5 C 4,8 km/h (1 Bft) 98,11 %
18.12.2016 17:38 0,5 C 97 % 1031,9 hPa 0,0 l/m 2,2 km/h (1 Bft) SW 222 0 min 0,000 mm 0,0 UV-I 0 W/m 0,1 C 0,5 C 4,8 km/h (1 Bft) 97,87 %
18.12.2016 17:40 0,4 C 97 % 1031,9 hPa 0,0 l/m 2,5 km/h (1 Bft) W 261 0 min 0,000 mm 0,0 UV-I 0 W/m -0,0 C 0,4 C 4,8 km/h (1 Bft) 100,00 %
18.12.2016 17:42 0,4 C 97 % 1031,9 hPa 0,0 l/m 0,3 km/h (0 Bft) W 261 0 min 0,000 mm 0,0 UV-I 0 W/m -0,0 C 0,4 C 3,2 km/h (1 Bft) 100,00 %
18.12.2016 17:44 0,4 C 97 % 1031,8 hPa 0,0 l/m 0,0 km/h (0 Bft) W 261 0 min 0,000 mm 0,0 UV-I 0 W/m -0,0 C 0,4 C 0,0 km/h (0 Bft) 97,87 %
18.12.2016 17:46 0,3 C 97 % 1031,8 hPa 0,0 l/m 0,4 km/h (0 Bft) W 261 0 min 0,000 mm 0,0 UV-I 0 W/m -0,1 C 0,3 C 1,6 km/h (1 Bft) 100,00 %
18.12.2016 17:48 0,3 C 97 % 1031,8 hPa 0,0 l/m 0,7 km/h (0 Bft) W 261 0 min 0,000 mm 0,0 UV-I 0 W/m -0,1 C 0,3 C 3,2 km/h (1 Bft) 100,00 %
18.12.2016 17:50 0,3 C 97 % 1031,8 hPa 0,0 l/m 0,1 km/h (0 Bft) W 261 0 min 0,000 mm 0,0 UV-I 0 W/m -0,1 C 0,3 C 1,6 km/h (1 Bft) 97,87 %
18.12.2016 17:52 0,3 C 97 % 1031,8 hPa 0,0 l/m 0,1 km/h (0 Bft) W 261 0 min 0,000 mm 0,0 UV-I 0 W/m -0,1 C 0,3 C 1,6 km/h (1 Bft) 98,00 %
18.12.2016 17:54 0,3 C 97 % 1031,8 hPa 0,0 l/m 0,0 km/h (0 Bft) W 261 0 min 0,000 mm 0,0 UV-I 0 W/m -0,1 C 0,3 C 0,0 km/h (0 Bft) 100,00 %
18.12.2016 17:56 0,3 C 97 % 1031,7 hPa 0,0 l/m 0,0 km/h (0 Bft) W 261 0 min 0,000 mm 0,0 UV-I 0 W/m -0,1 C 0,3 C 0,0 km/h (0 Bft) 100,00 %
18.12.2016 17:58 0,3 C 97 % 1031,7 hPa 0,0 l/m 0,0 km/h (0 Bft) W 261 0 min 0,000 mm 0,0 UV-I 0 W/m -0,1 C 0,3 C 0,0 km/h (0 Bft) 98,00 %
18.12.2016 18:00 0,3 C 97 % 1031,7 hPa 0,0 l/m 0,0 km/h (0 Bft) W 261 0 min 0,000 mm 0,0 UV-I 0 W/m -0,1 C 0,3 C 0,0 km/h (0 Bft) 100,00 %
18.12.2016 18:02 0,3 C 97 % 1031,8 hPa 0,0 l/m 0,0 km/h (0 Bft) W 261 0 min 0,000 mm 0,0 UV-I 0 W/m -0,1 C 0,3 C 0,0 km/h (0 Bft) 98,44 %
18.12.2016 18:04 0,2 C 97 % 1031,8 hPa 0,0 l/m 0,0 km/h (0 Bft) W 261 0 min 0,000 mm 0,0 UV-I 0 W/m -0,2 C 0,2 C 0,0 km/h (0 Bft) 97,22 %
18.12.2016 18:06 0,2 C 97 % 1031,8 hPa 0,0 l/m 0,0 km/h (0 Bft) W 261 0 min 0,000 mm 0,0 UV-I 0 W/m -0,2 C 0,2 C 0,0 km/h (0 Bft) 100,00 %
18.12.2016 18:08 0,2 C 97 % 1031,8 hPa 0,0 l/m 0,3 km/h (0 Bft) W 265 0 min 0,000 mm 0,0 UV-I 0 W/m -0,2 C 0,2 C 3,2 km/h (1 Bft) 100,00 %
18.12.2016 18:10 0,2 C 97 % 1031,7 hPa 0,0 l/m 0,3 km/h (0 Bft) W 265 0 min 0,000 mm 0,0 UV-I 0 W/m -0,2 C 0,2 C 1,6 km/h (1 Bft) 100,00 %
18.12.2016 18:12 0,2 C 97 % 1031,8 hPa 0,0 l/m 0,2 km/h (0 Bft) W 265 0 min 0,000 mm 0,0 UV-I 0 W/m -0,2 C 0,2 C 1,6 km/h (1 Bft) 97,92 %
18.12.2016 18:14 0,2 C 97 % 1031,8 hPa 0,0 l/m 0,4 km/h (0 Bft) W 265 0 min 0,000 mm 0,0 UV-I 0 W/m -0,2 C 0,2 C 1,6 km/h (1 Bft) 100,00 %
18.12.2016 18:16 0,2 C 97 % 1031,8 hPa 0,0 l/m 0,1 km/h (0 Bft) W 265 0 min 0,000 mm 0,0 UV-I 0 W/m -0,2 C 0,2 C 1,6 km/h (1 Bft) 100,00 %
18.12.2016 18:18 0,2 C 97 % 1031,8 hPa 0,0 l/m 0,7 km/h (0 Bft) W 265 0 min 0,000 mm 0,0 UV-I 0 W/m -0,2 C 0,2 C 1,6 km/h (1 Bft) 100,00 %
18.12.2016 18:20 0,2 C 97 % 1031,7 hPa 0,0 l/m 0,9 km/h (0 Bft) W 267 0 min 0,000 mm 0,0 UV-I 0 W/m -0,2 C 0,2 C 3,2 km/h (1 Bft) 97,87 %
18.12.2016 18:22 0,2 C 97 % 1031,8 hPa 0,0 l/m 0,3 km/h (0 Bft) W 267 0 min 0,000 mm 0,0 UV-I 0 W/m -0,2 C 0,2 C 1,6 km/h (1 Bft) 100,00 %
18.12.2016 18:24 0,2 C 97 % 1031,7 hPa 0,0 l/m 0,3 km/h (0 Bft) W 267 0 min 0,000 mm 0,0 UV-I 0 W/m -0,2 C 0,2 C 3,2 km/h (1 Bft) 100,00 %
18.12.2016 18:26 0,2 C 97 % 1031,7 hPa 0,0 l/m 0,5 km/h (0 Bft) W 267 0 min 0,000 mm 0,0 UV-I 0 W/m -0,2 C 0,2 C 1,6 km/h (1 Bft) 100,00 %
18.12.2016 18:28 0,2 C 97 % 1031,7 hPa 0,0 l/m 0,7 km/h (0 Bft) W 267 0 min 0,000 mm 0,0 UV-I 0 W/m -0,2 C 0,2 C 3,2 km/h (1 Bft) 98,00 %
18.12.2016 18:30 0,2 C 97 % 1031,7 hPa 0,0 l/m 0,5 km/h (0 Bft) W 267 0 min 0,000 mm 0,0 UV-I 0 W/m -0,2 C 0,2 C 3,2 km/h (1 Bft) 100,00 %
18.12.2016 18:32 0,2 C 97 % 1031,8 hPa 0,0 l/m 0,3 km/h (0 Bft) W 267 0 min 0,000 mm 0,0 UV-I 0 W/m -0,2 C 0,2 C 1,6 km/h (1 Bft) 97,87 %
18.12.2016 18:34 0,2 C 97 % 1031,8 hPa 0,0 l/m 0,6 km/h (0 Bft) W 274 0 min 0,000 mm 0,0 UV-I 0 W/m -0,2 C 0,2 C 3,2 km/h (1 Bft) 98,00 %
18.12.2016 18:36 0,2 C 97 % 1031,8 hPa 0,0 l/m 0,9 km/h (0 Bft) W 277 0 min 0,000 mm 0,0 UV-I 0 W/m -0,2 C 0,2 C 3,2 km/h (1 Bft) 97,56 %
18.12.2016 18:38 0,2 C 97 % 1031,8 hPa 0,0 l/m 0,4 km/h (0 Bft) W 277 0 min 0,000 mm 0,0 UV-I 0 W/m -0,2 C 0,2 C 1,6 km/h (1 Bft) 97,87 %
18.12.2016 18:40 0,2 C 98 % 1031,7 hPa 0,0 l/m 0,4 km/h (0 Bft) W 277 0 min 0,000 mm 0,0 UV-I 0 W/m -0,1 C 0,2 C 1,6 km/h (1 Bft) 93,62 %
18.12.2016 18:42 0,2 C 98 % 1031,8 hPa 0,0 l/m 1,0 km/h (0 Bft) W 277 0 min 0,000 mm 0,0 UV-I 0 W/m -0,1 C 0,2 C 3,2 km/h (1 Bft) 97,87 %
18.12.2016 18:44 0,2 C 98 % 1031,7 hPa 0,0 l/m 0,9 km/h (0 Bft) W 277 0 min 0,000 mm 0,0 UV-I 0 W/m -0,1 C 0,2 C 3,2 km/h (1 Bft) 95,45 %
18.12.2016 18:46 0,2 C 98 % 1031,8 hPa 0,0 l/m 0,3 km/h (0 Bft) W 277 0 min 0,000 mm 0,0 UV-I 0 W/m -0,1 C 0,2 C 1,6 km/h (1 Bft) 98,08 %
18.12.2016 18:48 0,2 C 98 % 1031,8 hPa 0,0 l/m 0,1 km/h (0 Bft) W 277 0 min 0,000 mm 0,0 UV-I 0 W/m -0,1 C 0,2 C 1,6 km/h (1 Bft) 95,83 %
18.12.2016 18:50 0,2 C 98 % 1031,8 hPa 0,0 l/m 1,8 km/h (1 Bft) W 279 0 min 0,000 mm 0,0 UV-I 0 W/m -0,1 C 0,2 C 3,2 km/h (1 Bft) 95,12 %
18.12.2016 18:52 0,2 C 98 % 1031,8 hPa 0,0 l/m 0,4 km/h (0 Bft) W 279 0 min 0,000 mm 0,0 UV-I 0 W/m -0,1 C 0,2 C 1,6 km/h (1 Bft) 98,11 %
18.12.2016 18:54 0,2 C 98 % 1031,8 hPa 0,0 l/m 0,7 km/h (0 Bft) W 279 0 min 0,000 mm 0,0 UV-I 0 W/m -0,1 C 0,2 C 3,2 km/h (1 Bft) 98,00 %
18.12.2016 18:56 0,2 C 98 % 1031,7 hPa 0,0 l/m 1,1 km/h (1 Bft) W 279 0 min 0,000 mm 0,0 UV-I 0 W/m -0,1 C 0,2 C 3,2 km/h (1 Bft) 97,87 %
18.12.2016 18:58 0,2 C 98 % 1031,7 hPa 0,0 l/m 0,8 km/h (0 Bft) W 279 0 min 0,000 mm 0,0 UV-I 0 W/m -0,1 C 0,2 C 3,2 km/h (1 Bft) 96,00 %
18.12.2016 19:00 0,2 C 98 % 1031,8 hPa 0,0 l/m 0,7 km/h (0 Bft) W 279 0 min 0,000 mm 0,0 UV-I 0 W/m -0,1 C 0,2 C 1,6 km/h (1 Bft) 97,37 %
18.12.2016 19:02 0,2 C 98 % 1031,8 hPa 0,0 l/m 0,5 km/h (0 Bft) W 279 0 min 0,000 mm 0,0 UV-I 0 W/m -0,1 C 0,2 C 1,6 km/h (1 Bft) 97,87 %
18.12.2016 19:04 0,2 C 98 % 1031,8 hPa 0,0 l/m 0,2 km/h (0 Bft) W 279 0 min 0,000 mm 0,0 UV-I 0 W/m -0,1 C 0,2 C 1,6 km/h (1 Bft) 98,00 %
18.12.2016 19:06 0,2 C 98 % 1031,8 hPa 0,0 l/m 0,4 km/h (0 Bft) W 279 0 min 0,000 mm 0,0 UV-I 0 W/m -0,1 C 0,2 C 1,6 km/h (1 Bft) 97,87 %
18.12.2016 19:08 0,2 C 98 % 1031,7 hPa 0,0 l/m 0,1 km/h (0 Bft) W 279 0 min 0,000 mm 0,0 UV-I 0 W/m -0,1 C 0,2 C 1,6 km/h (1 Bft) 98,00 %
18.12.2016 19:10 0,2 C 98 % 1031,8 hPa 0,0 l/m 0,0 km/h (0 Bft) W 279 0 min 0,000 mm 0,0 UV-I 0 W/m -0,1 C 0,2 C 0,0 km/h (0 Bft) 97,87 %
18.12.2016 19:12 0,2 C 98 % 1031,8 hPa 0,0 l/m 0,1 km/h (0 Bft) W 279 0 min 0,000 mm 0,0 UV-I 0 W/m -0,1 C 0,2 C 1,6 km/h (1 Bft) 94,74 %
18.12.2016 19:14 0,2 C 98 % 1031,8 hPa 0,0 l/m 0,0 km/h (0 Bft) W 279 0 min 0,000 mm 0,0 UV-I 0 W/m -0,1 C 0,2 C 0,0 km/h (0 Bft) 100,00 %
18.12.2016 19:16 0,2 C 98 % 1031,8 hPa 0,0 l/m 0,0 km/h (0 Bft) W 279 0 min 0,000 mm 0,0 UV-I 0 W/m -0,1 C 0,2 C 0,0 km/h (0 Bft) 95,74 %
18.12.2016 19:18 0,2 C 98 % 1031,9 hPa 0,0 l/m 0,0 km/h (0 Bft) W 279 0 min 0,000 mm 0,0 UV-I 0 W/m -0,1 C 0,2 C 0,0 km/h (0 Bft) 100,00 %
18.12.2016 19:20 0,2 C 98 % 1031,8 hPa 0,0 l/m 0,1 km/h (0 Bft) W 279 0 min 0,000 mm 0,0 UV-I 0 W/m -0,1 C 0,2 C 1,6 km/h (1 Bft) 98,00 %
18.12.2016 19:22 0,2 C 98 % 1031,8 hPa 0,0 l/m 0,1 km/h (0 Bft) W 279 0 min 0,000 mm 0,0 UV-I 0 W/m -0,1 C 0,2 C 1,6 km/h (1 Bft) 100,00 %
18.12.2016 19:24 0,2 C 98 % 1031,9 hPa 0,0 l/m 0,1 km/h (0 Bft) W 279 0 min 0,000 mm 0,0 UV-I 0 W/m -0,1 C 0,2 C 1,6 km/h (1 Bft) 100,00 %
18.12.2016 19:26 0,2 C 98 % 1031,9 hPa 0,0 l/m 0,3 km/h (0 Bft) W 279 0 min 0,000 mm 0,0 UV-I 0 W/m -0,1 C 0,2 C 3,2 km/h (1 Bft) 100,00 %
18.12.2016 19:28 0,2 C 98 % 1031,9 hPa 0,0 l/m 0,4 km/h (0 Bft) W 279 0 min 0,000 mm 0,0 UV-I 0 W/m -0,1 C 0,2 C 3,2 km/h (1 Bft) 100,00 %
18.12.2016 19:30 0,2 C 98 % 1031,9 hPa 0,0 l/m 0,9 km/h (0 Bft) W 279 0 min 0,000 mm 0,0 UV-I 0 W/m -0,1 C 0,2 C 3,2 km/h (1 Bft) 100,00 %
18.12.2016 19:32 0,2 C 98 % 1031,9 hPa 0,0 l/m 0,3 km/h (0 Bft) W 280 0 min 0,000 mm 0,0 UV-I 0 W/m -0,1 C 0,2 C 1,6 km/h (1 Bft) 100,00 %
18.12.2016 19:34 0,1 C 98 % 1031,9 hPa 0,0 l/m 0,4 km/h (0 Bft) W 280 0 min 0,000 mm 0,0 UV-I 0 W/m -0,2 C 0,1 C 1,6 km/h (1 Bft) 100,00 %
18.12.2016 19:36 0,1 C 98 % 1031,9 hPa 0,0 l/m 0,5 km/h (0 Bft) NW 307 0 min 0,000 mm 0,0 UV-I 0 W/m -0,2 C 0,1 C 4,8 km/h (1 Bft) 100,00 %
18.12.2016 19:38 0,1 C 98 % 1032,0 hPa 0,0 l/m 2,8 km/h (1 Bft) W-NW 291 0 min 0,000 mm 0,0 UV-I 0 W/m -0,2 C 0,1 C 6,4 km/h (2 Bft) 100,00 %
18.12.2016 19:40 0,2 C 98 % 1032,0 hPa 0,0 l/m 1,0 km/h (0 Bft) W-NW 292 0 min 0,000 mm 0,0 UV-I 0 W/m -0,1 C 0,2 C 3,2 km/h (1 Bft) 100,00 %
18.12.2016 19:42 0,1 C 98 % 1032,0 hPa 0,0 l/m 0,1 km/h (0 Bft) W-NW 292 0 min 0,000 mm 0,0 UV-I 0 W/m -0,2 C 0,1 C 1,6 km/h (1 Bft) 100,00 %
18.12.2016 19:44 0,1 C 98 % 1032,0 hPa 0,0 l/m 0,0 km/h (0 Bft) W-NW 292 0 min 0,000 mm 0,0 UV-I 0 W/m -0,2 C 0,1 C 1,6 km/h (1 Bft) 98,00 %
18.12.2016 19:46 0,1 C 98 % 1032,0 hPa 0,0 l/m 1,2 km/h (1 Bft) W-SW 258 0 min 0,000 mm 0,0 UV-I 0 W/m -0,2 C 0,1 C 3,2 km/h (1 Bft) 100,00 %
18.12.2016 19:48 0,1 C 98 % 1032,0 hPa 0,0 l/m 0,8 km/h (0 Bft) W-SW 258 0 min 0,000 mm 0,0 UV-I 0 W/m -0,2 C 0,1 C 4,8 km/h (1 Bft) 100,00 %
18.12.2016 19:50 0,1 C 98 % 1032,0 hPa 0,0 l/m 1,1 km/h (1 Bft) W 266 0 min 0,000 mm 0,0 UV-I 0 W/m -0,2 C 0,1 C 1,6 km/h (1 Bft) 98,00 %
18.12.2016 19:52 0,1 C 98 % 1032,0 hPa 0,0 l/m 1,8 km/h (1 Bft) W 269 0 min 0,000 mm 0,0 UV-I 0 W/m -0,2 C 0,1 C 3,2 km/h (1 Bft) 100,00 %
18.12.2016 19:54 0,1 C 98 % 1032,0 hPa 0,0 l/m 1,9 km/h (1 Bft) W 278 0 min 0,000 mm 0,0 UV-I 0 W/m -0,2 C 0,1 C 3,2 km/h (1 Bft) 100,00 %
18.12.2016 19:56 0,1 C 98 % 1032,0 hPa 0,0 l/m 0,6 km/h (0 Bft) W 278 0 min 0,000 mm 0,0 UV-I 0 W/m -0,2 C 0,1 C 3,2 km/h (1 Bft) 100,00 %
18.12.2016 19:58 0,1 C 98 % 1032,0 hPa 0,0 l/m 2,0 km/h (1 Bft) W 279 0 min 0,000 mm 0,0 UV-I 0 W/m -0,2 C 0,1 C 4,8 km/h (1 Bft) 100,00 %
18.12.2016 20:00 0,1 C 98 % 1032,0 hPa 0,0 l/m 1,2 km/h (1 Bft) W 279 0 min 0,000 mm 0,0 UV-I 0 W/m -0,2 C 0,1 C 3,2 km/h (1 Bft) 100,00 %
18.12.2016 20:02 0,1 C 98 % 1032,1 hPa 0,0 l/m 1,6 km/h (1 Bft) W-NW 282 0 min 0,000 mm 0,0 UV-I 0 W/m -0,2 C 0,1 C 3,2 km/h (1 Bft) 100,00 %
18.12.2016 20:04 0,1 C 98 % 1032,0 hPa 0,0 l/m 0,8 km/h (0 Bft) W-NW 284 0 min 0,000 mm 0,0 UV-I 0 W/m -0,2 C 0,1 C 3,2 km/h (1 Bft) 100,00 %
18.12.2016 20:06 0,1 C 98 % 1032,1 hPa 0,0 l/m 1,1 km/h (1 Bft) W-NW 284 0 min 0,000 mm 0,0 UV-I 0 W/m -0,2 C 0,1 C 3,2 km/h (1 Bft) 100,00 %
18.12.2016 20:08 0,1 C 98 % 1032,0 hPa 0,0 l/m 1,0 km/h (0 Bft) W-NW 284 0 min 0,000 mm 0,0 UV-I 0 W/m -0,2 C 0,1 C 3,2 km/h (1 Bft) 100,00 %
18.12.2016 20:10 0,1 C 98 % 1032,1 hPa 0,0 l/m 2,3 km/h (1 Bft) W 275 0 min 0,000 mm 0,0 UV-I 0 W/m -0,2 C 0,1 C 4,8 km/h (1 Bft) 98,00 %
18.12.2016 20:12 0,1 C 98 % 1032,1 hPa 0,0 l/m 1,3 km/h (1 Bft) W 280 0 min 0,000 mm 0,0 UV-I 0 W/m -0,2 C 0,1 C 3,2 km/h (1 Bft) 98,11 %
18.12.2016 20:14 0,1 C 98 % 1032,1 hPa 0,0 l/m 2,1 km/h (1 Bft) W 280 0 min 0,000 mm 0,0 UV-I 0 W/m -0,2 C 0,1 C 3,2 km/h (1 Bft) 100,00 %
18.12.2016 20:16 0,1 C 98 % 1032,1 hPa 0,0 l/m 2,6 km/h (1 Bft) W 267 0 min 0,000 mm 0,0 UV-I 0 W/m -0,2 C 0,1 C 4,8 km/h (1 Bft) 100,00 %
18.12.2016 20:18 0,1 C 98 % 1032,1 hPa 0,0 l/m 1,7 km/h (1 Bft) W 270 0 min 0,000 mm 0,0 UV-I 0 W/m -0,2 C 0,1 C 3,2 km/h (1 Bft) 98,53 %
18.12.2016 20:20 0,1 C 98 % 1032,0 hPa 0,0 l/m 0,4 km/h (0 Bft) W 270 0 min 0,000 mm 0,0 UV-I 0 W/m -0,2 C 0,1 C 1,6 km/h (1 Bft) 100,00 %
18.12.2016 20:22 0,1 C 98 % 1032,1 hPa 0,0 l/m 1,2 km/h (1 Bft) W 281 0 min 0,000 mm 0,0 UV-I 0 W/m -0,2 C 0,1 C 4,8 km/h (1 Bft) 100,00 %
18.12.2016 20:24 0,1 C 98 % 1032,1 hPa 0,0 l/m 1,1 km/h (1 Bft) W-NW 283 0 min 0,000 mm 0,0 UV-I 0 W/m -0,2 C 0,1 C 4,8 km/h (1 Bft) 94,74 %
18.12.2016 20:26 0,1 C 98 % 1032,1 hPa 0,0 l/m 0,2 km/h (0 Bft) W-NW 283 0 min 0,000 mm 0,0 UV-I 0 W/m -0,2 C 0,1 C 1,6 km/h (1 Bft) 100,00 %
18.12.2016 20:28 0,1 C 98 % 1032,1 hPa 0,0 l/m 0,4 km/h (0 Bft) W-NW 283 0 min 0,000 mm 0,0 UV-I 0 W/m -0,2 C 0,1 C 1,6 km/h (1 Bft) 100,00 %
18.12.2016 20:30 0,1 C 98 % 1032,1 hPa 0,0 l/m 0,8 km/h (0 Bft) W-NW 283 0 min 0,000 mm 0,0 UV-I 0 W/m -0,2 C 0,1 C 3,2 km/h (1 Bft) 100,00 %
18.12.2016 20:32 0,1 C 98 % 1032,1 hPa 0,0 l/m 0,0 km/h (0 Bft) W-NW 283 0 min 0,000 mm 0,0 UV-I 0 W/m -0,2 C 0,1 C 0,0 km/h (0 Bft) 100,00 %
18.12.2016 20:34 0,1 C 98 % 1032,1 hPa 0,0 l/m 0,6 km/h (0 Bft) W-NW 283 0 min 0,000 mm 0,0 UV-I 0 W/m -0,2 C 0,1 C 1,6 km/h (1 Bft) 100,00 %
18.12.2016 20:36 0,1 C 98 % 1032,1 hPa 0,0 l/m 0,9 km/h (0 Bft) W-NW 283 0 min 0,000 mm 0,0 UV-I 0 W/m -0,2 C 0,1 C 3,2 km/h (1 Bft) 100,00 %
18.12.2016 20:38 0,1 C 98 % 1032,1 hPa 0,0 l/m 0,3 km/h (0 Bft) W-NW 283 0 min 0,000 mm 0,0 UV-I 0 W/m -0,2 C 0,1 C 1,6 km/h (1 Bft) 100,00 %
18.12.2016 20:40 0,1 C 98 % 1032,1 hPa 0,0 l/m 0,6 km/h (0 Bft) W-NW 283 0 min 0,000 mm 0,0 UV-I 0 W/m -0,2 C 0,1 C 1,6 km/h (1 Bft) 97,87 %
18.12.2016 20:42 0,1 C 98 % 1032,1 hPa 0,0 l/m 1,2 km/h (1 Bft) W-NW 283 0 min 0,000 mm 0,0 UV-I 0 W/m -0,2 C 0,1 C 3,2 km/h (1 Bft) 98,00 %
18.12.2016 20:44 0,1 C 98 % 1032,1 hPa 0,0 l/m 1,5 km/h (1 Bft) W-NW 283 0 min 0,000 mm 0,0 UV-I 0 W/m -0,2 C 0,1 C 3,2 km/h (1 Bft) 95,83 %
18.12.2016 20:46 0,1 C 98 % 1032,1 hPa 0,0 l/m 1,9 km/h (1 Bft) W-NW 283 0 min 0,000 mm 0,0 UV-I 0 W/m -0,2 C 0,1 C 3,2 km/h (1 Bft) 97,01 %
18.12.2016 20:48 0,1 C 98 % 1032,1 hPa 0,0 l/m 2,0 km/h (1 Bft) W 262 0 min 0,000 mm 0,0 UV-I 0 W/m -0,2 C 0,1 C 4,8 km/h (1 Bft) 97,78 %
18.12.2016 20:50 0,1 C 98 % 1032,1 hPa 0,0 l/m 2,2 km/h (1 Bft) W 281 0 min 0,000 mm 0,0 UV-I 0 W/m -0,2 C 0,1 C 4,8 km/h (1 Bft) 95,74 %
18.12.2016 20:52 0,1 C 98 % 1032,1 hPa 0,0 l/m 1,8 km/h (1 Bft) W 281 0 min 0,000 mm 0,0 UV-I 0 W/m -0,2 C 0,1 C 3,2 km/h (1 Bft) 96,00 %
18.12.2016 20:54 0,1 C 98 % 1032,1 hPa 0,0 l/m 2,1 km/h (1 Bft) W 280 0 min 0,000 mm 0,0 UV-I 0 W/m -0,2 C 0,1 C 3,2 km/h (1 Bft) 97,87 %
18.12.2016 20:56 0,1 C 98 % 1032,0 hPa 0,0 l/m 2,6 km/h (1 Bft) W 281 0 min 0,000 mm 0,0 UV-I 0 W/m -0,2 C 0,1 C 3,2 km/h (1 Bft) 97,87 %
18.12.2016 20:58 0,1 C 98 % 1032,0 hPa 0,0 l/m 3,0 km/h (1 Bft) W 259 0 min 0,000 mm 0,0 UV-I 0 W/m -0,2 C 0,1 C 4,8 km/h (1 Bft) 97,37 %
18.12.2016 21:00 0,1 C 98 % 1032,0 hPa 0,0 l/m 2,5 km/h (1 Bft) W 262 0 min 0,000 mm 0,0 UV-I 0 W/m -0,2 C 0,1 C 3,2 km/h (1 Bft) 96,43 %
18.12.2016 21:02 0,1 C 98 % 1032,0 hPa 0,0 l/m 2,2 km/h (1 Bft) W 262 0 min 0,000 mm 0,0 UV-I 0 W/m -0,2 C 0,1 C 3,2 km/h (1 Bft) 97,87 %
18.12.2016 21:04 0,1 C 98 % 1032,0 hPa 0,0 l/m 1,4 km/h (1 Bft) W 262 0 min 0,000 mm 0,0 UV-I 0 W/m -0,2 C 0,1 C 3,2 km/h (1 Bft) 97,87 %
18.12.2016 21:06 0,0 C 98 % 1032,0 hPa 0,0 l/m 2,6 km/h (1 Bft) W 262 0 min 0,000 mm 0,0 UV-I 0 W/m -0,3 C 0,0 C 3,2 km/h (1 Bft) 97,56 %
18.12.2016 21:08 0,1 C 98 % 1032,0 hPa 0,0 l/m 1,6 km/h (1 Bft) W 262 0 min 0,000 mm 0,0 UV-I 0 W/m -0,2 C 0,1 C 3,2 km/h (1 Bft) 100,00 %
18.12.2016 21:10 0,0 C 98 % 1032,0 hPa 0,0 l/m 2,1 km/h (1 Bft) W 262 0 min 0,000 mm 0,0 UV-I 0 W/m -0,3 C 0,0 C 3,2 km/h (1 Bft) 98,00 %
18.12.2016 21:12 0,1 C 98 % 1032,1 hPa 0,0 l/m 2,0 km/h (1 Bft) W 262 0 min 0,000 mm 0,0 UV-I 0 W/m -0,2 C 0,1 C 4,8 km/h (1 Bft) 96,23 %
18.12.2016 21:14 0,1 C 98 % 1032,0 hPa 0,0 l/m 2,8 km/h (1 Bft) W-SW 238 0 min 0,000 mm 0,0 UV-I 0 W/m -0,2 C 0,1 C 4,8 km/h (1 Bft) 97,37 %
18.12.2016 21:16 0,0 C 98 % 1032,0 hPa 0,0 l/m 4,0 km/h (1 Bft) S-SW 213 0 min 0,000 mm 0,0 UV-I 0 W/m -0,3 C 0,0 C 6,4 km/h (2 Bft) 94,64 %
18.12.2016 21:18 0,1 C 98 % 1032,0 hPa 0,0 l/m 4,5 km/h (1 Bft) S-SW 212 0 min 0,000 mm 0,0 UV-I 0 W/m -0,2 C 0,1 C 6,4 km/h (2 Bft) 100,00 %
18.12.2016 21:20 0,1 C 98 % 1032,0 hPa 0,0 l/m 3,8 km/h (1 Bft) S-SW 207 0 min 0,000 mm 0,0 UV-I 0 W/m -0,2 C 0,1 C 6,4 km/h (2 Bft) 94,29 %
18.12.2016 21:22 0,1 C 98 % 1031,9 hPa 0,0 l/m 2,1 km/h (1 Bft) S-SW 207 0 min 0,000 mm 0,0 UV-I 0 W/m -0,2 C 0,1 C 3,2 km/h (1 Bft) 100,00 %
18.12.2016 21:24 0,1 C 98 % 1031,9 hPa 0,0 l/m 2,3 km/h (1 Bft) S-SW 207 0 min 0,000 mm 0,0 UV-I 0 W/m -0,2 C 0,1 C 4,8 km/h (1 Bft) 100,00 %
18.12.2016 21:26 0,1 C 98 % 1031,9 hPa 0,0 l/m 1,8 km/h (1 Bft) S-SW 207 0 min 0,000 mm 0,0 UV-I 0 W/m -0,2 C 0,1 C 3,2 km/h (1 Bft) 98,00 %
18.12.2016 21:28 0,1 C 98 % 1031,9 hPa 0,0 l/m 2,9 km/h (1 Bft) S-SW 207 0 min 0,000 mm 0,0 UV-I 0 W/m -0,2 C 0,1 C 4,8 km/h (1 Bft) 100,00 %
18.12.2016 21:30 0,1 C 98 % 1032,0 hPa 0,0 l/m 3,4 km/h (1 Bft) S-SW 207 0 min 0,000 mm 0,0 UV-I 0 W/m -0,2 C 0,1 C 6,4 km/h (2 Bft) 100,00 %
18.12.2016 21:32 0,1 C 98 % 1032,0 hPa 0,0 l/m 1,9 km/h (1 Bft) S-SW 207 0 min 0,000 mm 0,0 UV-I 0 W/m -0,2 C 0,1 C 3,2 km/h (1 Bft) 97,37 %
18.12.2016 21:34 0,1 C 98 % 1032,0 hPa 0,0 l/m 2,9 km/h (1 Bft) S-SW 207 0 min 0,000 mm 0,0 UV-I 0 W/m -0,2 C 0,1 C 4,8 km/h (1 Bft) 97,87 %
18.12.2016 21:36 0,1 C 98 % 1032,0 hPa 0,0 l/m 3,0 km/h (1 Bft) S-SW 207 0 min 0,000 mm 0,0 UV-I 0 W/m -0,2 C 0,1 C 6,4 km/h (2 Bft) 100,00 %
18.12.2016 21:38 0,1 C 98 % 1032,0 hPa 0,0 l/m 3,6 km/h (1 Bft) S-SW 196 0 min 0,000 mm 0,0 UV-I 0 W/m -0,2 C 0,1 C 6,4 km/h (2 Bft) 100,00 %
18.12.2016 21:40 0,1 C 98 % 1032,0 hPa 0,0 l/m 2,3 km/h (1 Bft) S-SW 196 0 min 0,000 mm 0,0 UV-I 0 W/m -0,2 C 0,1 C 4,8 km/h (1 Bft) 100,00 %
18.12.2016 21:42 0,1 C 98 % 1031,9 hPa 0,0 l/m 1,7 km/h (1 Bft) S 186 0 min 0,000 mm 0,0 UV-I 0 W/m -0,2 C 0,1 C 4,8 km/h (1 Bft) 97,14 %
18.12.2016 21:44 0,1 C 98 % 1032,0 hPa 0,0 l/m 2,2 km/h (1 Bft) S 186 0 min 0,000 mm 0,0 UV-I 0 W/m -0,2 C 0,1 C 4,8 km/h (1 Bft) 100,00 %
18.12.2016 21:46 0,1 C 98 % 1032,0 hPa 0,0 l/m 3,6 km/h (1 Bft) S-SW 208 0 min 0,000 mm 0,0 UV-I 0 W/m -0,2 C 0,1 C 6,4 km/h (2 Bft) 100,00 %
18.12.2016 21:48 0,1 C 98 % 1032,0 hPa 0,0 l/m 3,1 km/h (1 Bft) S-SW 212 0 min 0,000 mm 0,0 UV-I 0 W/m -0,2 C 0,1 C 6,4 km/h (2 Bft) 100,00 %
18.12.2016 21:50 0,1 C 98 % 1032,0 hPa 0,0 l/m 3,5 km/h (1 Bft) S-SW 212 0 min 0,000 mm 0,0 UV-I 0 W/m -0,2 C 0,1 C 4,8 km/h (1 Bft) 97,87 %
18.12.2016 21:52 0,1 C 98 % 1032,1 hPa 0,0 l/m 3,9 km/h (1 Bft) SW 216 0 min 0,000 mm 0,0 UV-I 0 W/m -0,2 C 0,1 C 6,4 km/h (2 Bft) 98,00 %
18.12.2016 21:54 0,1 C 98 % 1032,0 hPa 0,0 l/m 3,2 km/h (1 Bft) SW 216 0 min 0,000 mm 0,0 UV-I 0 W/m -0,2 C 0,1 C 4,8 km/h (1 Bft) 100,00 %
18.12.2016 21:56 0,1 C 98 % 1032,0 hPa 0,0 l/m 3,0 km/h (1 Bft) SW 215 0 min 0,000 mm 0,0 UV-I 0 W/m -0,2 C 0,1 C 4,8 km/h (1 Bft) 100,00 %
18.12.2016 21:58 0,1 C 98 % 1032,0 hPa 0,0 l/m 2,5 km/h (1 Bft) SW 215 0 min 0,000 mm 0,0 UV-I 0 W/m -0,2 C 0,1 C 3,2 km/h (1 Bft) 100,00 %
18.12.2016 22:00 0,1 C 98 % 1032,0 hPa 0,0 l/m 2,1 km/h (1 Bft) SW 215 0 min 0,000 mm 0,0 UV-I 0 W/m -0,2 C 0,1 C 3,2 km/h (1 Bft) 100,00 %
18.12.2016 22:02 0,1 C 98 % 1032,0 hPa 0,0 l/m 2,9 km/h (1 Bft) SW 216 0 min 0,000 mm 0,0 UV-I 0 W/m -0,2 C 0,1 C 3,2 km/h (1 Bft) 100,00 %
18.12.2016 22:04 0,1 C 98 % 1032,0 hPa 0,0 l/m 2,0 km/h (1 Bft) SW 216 0 min 0,000 mm 0,0 UV-I 0 W/m -0,2 C 0,1 C 4,8 km/h (1 Bft) 100,00 %
18.12.2016 22:06 0,1 C 98 % 1032,0 hPa 0,0 l/m 1,0 km/h (0 Bft) SW 215 0 min 0,000 mm 0,0 UV-I 0 W/m -0,2 C 0,1 C 1,6 km/h (1 Bft) 98,44 %
18.12.2016 22:08 0,1 C 98 % 1032,0 hPa 0,0 l/m 1,3 km/h (1 Bft) SW 216 0 min 0,000 mm 0,0 UV-I 0 W/m -0,2 C 0,1 C 3,2 km/h (1 Bft) 100,00 %
18.12.2016 22:10 0,1 C 98 % 1032,0 hPa 0,0 l/m 1,5 km/h (1 Bft) SW 216 0 min 0,000 mm 0,0 UV-I 0 W/m -0,2 C 0,1 C 3,2 km/h (1 Bft) 100,00 %
18.12.2016 22:12 0,2 C 98 % 1032,0 hPa 0,0 l/m 0,2 km/h (0 Bft) SW 216 0 min 0,000 mm 0,0 UV-I 0 W/m -0,1 C 0,2 C 1,6 km/h (1 Bft) 98,11 %
18.12.2016 22:14 0,1 C 98 % 1032,0 hPa 0,0 l/m 2,1 km/h (1 Bft) W 259 0 min 0,000 mm 0,0 UV-I 0 W/m -0,2 C 0,1 C 3,2 km/h (1 Bft) 100,00 %
18.12.2016 22:16 0,1 C 98 % 1032,0 hPa 0,0 l/m 2,1 km/h (1 Bft) W 260 0 min 0,000 mm 0,0 UV-I 0 W/m -0,2 C 0,1 C 3,2 km/h (1 Bft) 100,00 %
18.12.2016 22:18 0,2 C 98 % 1032,0 hPa 0,0 l/m 1,8 km/h (1 Bft) W 260 0 min 0,000 mm 0,0 UV-I 0 W/m -0,1 C 0,2 C 3,2 km/h (1 Bft) 100,00 %
18.12.2016 22:20 0,2 C 98 % 1032,0 hPa 0,0 l/m 1,1 km/h (1 Bft) W 260 0 min 0,000 mm 0,0 UV-I 0 W/m -0,1 C 0,2 C 3,2 km/h (1 Bft) 100,00 %
18.12.2016 22:22 0,1 C 98 % 1032,0 hPa 0,0 l/m 1,8 km/h (1 Bft) W 259 0 min 0,000 mm 0,0 UV-I 0 W/m -0,2 C 0,1 C 3,2 km/h (1 Bft) 97,87 %
18.12.2016 22:24 0,1 C 98 % 1032,0 hPa 0,0 l/m 1,4 km/h (1 Bft) W 259 0 min 0,000 mm 0,0 UV-I 0 W/m -0,2 C 0,1 C 3,2 km/h (1 Bft) 100,00 %
18.12.2016 22:26 0,1 C 98 % 1032,0 hPa 0,0 l/m 0,9 km/h (0 Bft) W 259 0 min 0,000 mm 0,0 UV-I 0 W/m -0,2 C 0,1 C 1,6 km/h (1 Bft) 100,00 %
18.12.2016 22:28 0,1 C 98 % 1031,9 hPa 0,0 l/m 0,3 km/h (0 Bft) W 259 0 min 0,000 mm 0,0 UV-I 0 W/m -0,2 C 0,1 C 1,6 km/h (1 Bft) 97,37 %
18.12.2016 22:30 0,1 C 98 % 1032,0 hPa 0,0 l/m 0,0 km/h (0 Bft) W 259 0 min 0,000 mm 0,0 UV-I 0 W/m -0,2 C 0,1 C 0,0 km/h (0 Bft) 100,00 %
18.12.2016 22:32 0,1 C 98 % 1032,0 hPa 0,0 l/m 0,0 km/h (0 Bft) W 260 0 min 0,000 mm 0,0 UV-I 0 W/m -0,2 C 0,1 C 0,0 km/h (0 Bft) 100,00 %
18.12.2016 22:34 0,1 C 98 % 1032,0 hPa 0,0 l/m 0,1 km/h (0 Bft) W 260 0 min 0,000 mm 0,0 UV-I 0 W/m -0,2 C 0,1 C 1,6 km/h (1 Bft) 98,00 %
18.12.2016 22:36 0,1 C 98 % 1032,0 hPa 0,0 l/m 0,7 km/h (0 Bft) W 260 0 min 0,000 mm 0,0 UV-I 0 W/m -0,2 C 0,1 C 1,6 km/h (1 Bft) 100,00 %
18.12.2016 22:38 0,1 C 98 % 1032,0 hPa 0,0 l/m 0,0 km/h (0 Bft) W 260 0 min 0,000 mm 0,0 UV-I 0 W/m -0,2 C 0,1 C 0,0 km/h (0 Bft) 100,00 %
18.12.2016 22:40 0,1 C 98 % 1032,0 hPa 0,0 l/m 0,0 km/h (0 Bft) W 260 0 min 0,000 mm 0,0 UV-I 0 W/m -0,2 C 0,1 C 0,0 km/h (0 Bft) 100,00 %
18.12.2016 22:42 0,1 C 98 % 1032,0 hPa 0,0 l/m 0,0 km/h (0 Bft) W 259 0 min 0,000 mm 0,0 UV-I 0 W/m -0,2 C 0,1 C 0,0 km/h (0 Bft) 100,00 %
18.12.2016 22:44 0,1 C 98 % 1032,1 hPa 0,0 l/m 0,0 km/h (0 Bft) W 260 0 min 0,000 mm 0,0 UV-I 0 W/m -0,2 C 0,1 C 0,0 km/h (0 Bft) 100,00 %
18.12.2016 22:46 0,1 C 98 % 1032,0 hPa 0,0 l/m 0,0 km/h (0 Bft) W 259 0 min 0,000 mm 0,0 UV-I 0 W/m -0,2 C 0,1 C 0,0 km/h (0 Bft) 96,15 %
18.12.2016 22:48 0,1 C 98 % 1032,0 hPa 0,0 l/m 0,0 km/h (0 Bft) W 260 0 min 0,000 mm 0,0 UV-I 0 W/m -0,2 C 0,1 C 0,0 km/h (0 Bft) 95,74 %
18.12.2016 22:50 0,1 C 98 % 1032,0 hPa 0,0 l/m 0,0 km/h (0 Bft) W 260 0 min 0,000 mm 0,0 UV-I 0 W/m -0,2 C 0,1 C 0,0 km/h (0 Bft) 97,92 %
18.12.2016 22:52 0,1 C 98 % 1032,1 hPa 0,0 l/m 0,0 km/h (0 Bft) W 259 0 min 0,000 mm 0,0 UV-I 0 W/m -0,2 C 0,1 C 0,0 km/h (0 Bft) 97,37 %
18.12.2016 22:54 0,1 C 98 % 1032,1 hPa 0,0 l/m 0,0 km/h (0 Bft) W 259 0 min 0,000 mm 0,0 UV-I 0 W/m -0,2 C 0,1 C 0,0 km/h (0 Bft) 98,11 %
18.12.2016 22:56 0,1 C 98 % 1032,0 hPa 0,0 l/m 0,4 km/h (0 Bft) W 259 0 min 0,000 mm 0,0 UV-I 0 W/m -0,2 C 0,1 C 1,6 km/h (1 Bft) 96,00 %
18.12.2016 22:58 0,1 C 98 % 1032,0 hPa 0,0 l/m 0,7 km/h (0 Bft) W 259 0 min 0,000 mm 0,0 UV-I 0 W/m -0,2 C 0,1 C 3,2 km/h (1 Bft) 97,56 %
18.12.2016 23:00 0,1 C 98 % 1032,0 hPa 0,0 l/m 1,2 km/h (1 Bft) W-SW 257 0 min 0,000 mm 0,0 UV-I 0 W/m -0,2 C 0,1 C 3,2 km/h (1 Bft) 95,45 %
18.12.2016 23:02 0,1 C 98 % 1032,0 hPa 0,0 l/m 0,4 km/h (0 Bft) W-SW 257 0 min 0,000 mm 0,0 UV-I 0 W/m -0,2 C 0,1 C 1,6 km/h (1 Bft) 96,00 %
18.12.2016 23:04 0,1 C 98 % 1032,0 hPa 0,0 l/m 0,0 km/h (0 Bft) W-SW 257 0 min 0,000 mm 0,0 UV-I 0 W/m -0,2 C 0,1 C 0,0 km/h (0 Bft) 98,00 %
18.12.2016 23:06 0,1 C 98 % 1032,0 hPa 0,0 l/m 0,0 km/h (0 Bft) W-SW 257 0 min 0,000 mm 0,0 UV-I 0 W/m -0,2 C 0,1 C 0,0 km/h (0 Bft) 97,56 %
18.12.2016 23:08 0,1 C 98 % 1032,0 hPa 0,0 l/m 0,0 km/h (0 Bft) W-SW 257 0 min 0,000 mm 0,0 UV-I 0 W/m -0,2 C 0,1 C 0,0 km/h (0 Bft) 98,00 %
18.12.2016 23:10 0,1 C 98 % 1032,0 hPa 0,0 l/m 0,5 km/h (0 Bft) W-SW 257 0 min 0,000 mm 0,0 UV-I 0 W/m -0,2 C 0,1 C 1,6 km/h (1 Bft) 95,74 %
18.12.2016 23:12 0,1 C 98 % 1031,9 hPa 0,0 l/m 0,5 km/h (0 Bft) W-SW 257 0 min 0,000 mm 0,0 UV-I 0 W/m -0,2 C 0,1 C 1,6 km/h (1 Bft) 95,74 %
18.12.2016 23:14 0,1 C 98 % 1031,8 hPa 0,0 l/m 0,7 km/h (0 Bft) W-SW 257 0 min 0,000 mm 0,0 UV-I 0 W/m -0,2 C 0,1 C 3,2 km/h (1 Bft) 97,37 %
18.12.2016 23:16 0,1 C 98 % 1031,9 hPa 0,0 l/m 0,9 km/h (0 Bft) W-SW 257 0 min 0,000 mm 0,0 UV-I 0 W/m -0,2 C 0,1 C 1,6 km/h (1 Bft) 94,64 %
18.12.2016 23:18 0,1 C 98 % 1031,9 hPa 0,0 l/m 1,6 km/h (1 Bft) W-SW 257 0 min 0,000 mm 0,0 UV-I 0 W/m -0,2 C 0,1 C 3,2 km/h (1 Bft) 92,00 %
18.12.2016 23:20 0,1 C 98 % 1031,9 hPa 0,0 l/m 1,5 km/h (1 Bft) W-SW 257 0 min 0,000 mm 0,0 UV-I 0 W/m -0,2 C 0,1 C 3,2 km/h (1 Bft) 100,00 %
18.12.2016 23:22 0,1 C 98 % 1031,9 hPa 0,0 l/m 0,3 km/h (0 Bft) W-SW 257 0 min 0,000 mm 0,0 UV-I 0 W/m -0,2 C 0,1 C 1,6 km/h (1 Bft) 97,87 %
18.12.2016 23:24 0,1 C 98 % 1031,8 hPa 0,0 l/m 0,0 km/h (0 Bft) W-SW 257 0 min 0,000 mm 0,0 UV-I 0 W/m -0,2 C 0,1 C 0,0 km/h (0 Bft) 100,00 %
18.12.2016 23:26 0,1 C 98 % 1031,8 hPa 0,0 l/m 0,0 km/h (0 Bft) W-SW 257 0 min 0,000 mm 0,0 UV-I 0 W/m -0,2 C 0,1 C 0,0 km/h (0 Bft) 100,00 %
18.12.2016 23:28 0,1 C 98 % 1031,9 hPa 0,0 l/m 0,0 km/h (0 Bft) W-SW 257 0 min 0,000 mm 0,0 UV-I 0 W/m -0,2 C 0,1 C 0,0 km/h (0 Bft) 100,00 %
18.12.2016 23:30 0,1 C 98 % 1031,9 hPa 0,0 l/m 0,0 km/h (0 Bft) W-SW 257 0 min 0,000 mm 0,0 UV-I 0 W/m -0,2 C 0,1 C 0,0 km/h (0 Bft) 100,00 %
18.12.2016 23:32 0,1 C 98 % 1031,9 hPa 0,0 l/m 0,1 km/h (0 Bft) W-SW 257 0 min 0,000 mm 0,0 UV-I 0 W/m -0,2 C 0,1 C 1,6 km/h (1 Bft) 97,87 %
18.12.2016 23:34 0,1 C 98 % 1031,8 hPa 0,0 l/m 0,0 km/h (0 Bft) W-SW 257 0 min 0,000 mm 0,0 UV-I 0 W/m -0,2 C 0,1 C 0,0 km/h (0 Bft) 100,00 %
18.12.2016 23:36 0,1 C 98 % 1031,8 hPa 0,0 l/m 0,0 km/h (0 Bft) W-SW 257 0 min 0,000 mm 0,0 UV-I 0 W/m -0,2 C 0,1 C 0,0 km/h (0 Bft) 100,00 %
18.12.2016 23:38 0,1 C 98 % 1031,9 hPa 0,0 l/m 0,0 km/h (0 Bft) W-SW 257 0 min 0,000 mm 0,0 UV-I 0 W/m -0,2 C 0,1 C 0,0 km/h (0 Bft) 100,00 %
18.12.2016 23:40 0,1 C 98 % 1031,9 hPa 0,0 l/m 0,0 km/h (0 Bft) W-SW 257 0 min 0,000 mm 0,0 UV-I 0 W/m -0,2 C 0,1 C 0,0 km/h (0 Bft) 100,00 %
18.12.2016 23:42 0,1 C 98 % 1031,8 hPa 0,0 l/m 0,1 km/h (0 Bft) W-SW 257 0 min 0,000 mm 0,0 UV-I 0 W/m -0,2 C 0,1 C 1,6 km/h (1 Bft) 100,00 %
18.12.2016 23:44 0,1 C 98 % 1031,8 hPa 0,0 l/m 0,5 km/h (0 Bft) W-SW 257 0 min 0,000 mm 0,0 UV-I 0 W/m -0,2 C 0,1 C 1,6 km/h (1 Bft) 100,00 %
18.12.2016 23:46 0,1 C 98 % 1031,8 hPa 0,0 l/m 0,5 km/h (0 Bft) W-SW 257 0 min 0,000 mm 0,0 UV-I 0 W/m -0,2 C 0,1 C 1,6 km/h (1 Bft) 98,11 %
18.12.2016 23:48 0,1 C 98 % 1031,8 hPa 0,0 l/m 0,4 km/h (0 Bft) W-SW 256 0 min 0,000 mm 0,0 UV-I 0 W/m -0,2 C 0,1 C 1,6 km/h (1 Bft) 100,00 %
18.12.2016 23:50 0,1 C 98 % 1031,8 hPa 0,0 l/m 1,6 km/h (1 Bft) S 188 0 min 0,000 mm 0,0 UV-I 0 W/m -0,2 C 0,1 C 3,2 km/h (1 Bft) 100,00 %
18.12.2016 23:52 0,1 C 98 % 1031,8 hPa 0,0 l/m 0,0 km/h (0 Bft) S 188 0 min 0,000 mm 0,0 UV-I 0 W/m -0,2 C 0,1 C 1,6 km/h (1 Bft) 100,00 %
18.12.2016 23:54 0,1 C 98 % 1031,8 hPa 0,0 l/m 0,0 km/h (0 Bft) S 188 0 min 0,000 mm 0,0 UV-I 0 W/m -0,2 C 0,1 C 1,6 km/h (1 Bft) 100,00 %
18.12.2016 23:56 0,1 C 98 % 1031,9 hPa 0,0 l/m 0,0 km/h (0 Bft) S 188 0 min 0,000 mm 0,0 UV-I 0 W/m -0,2 C 0,1 C 0,0 km/h (0 Bft) 100,00 %
18.12.2016 23:58 0,1 C 98 % 1031,8 hPa 0,0 l/m 0,0 km/h (0 Bft) S 188 0 min 0,000 mm 0,0 UV-I 0 W/m -0,2 C 0,1 C 0,0 km/h (0 Bft) 100,00 %
_ Min-Zeit 05:18 12:26 17:56 - 00:02 - - - - - - 05:30 05:30 00:02 23:18
Minimum _ -2,1 C 94 % 1031,7 hPa - 0,0 km/h (0 Bft) - - - - - - -2,5 C -2,1 C 0,0 km/h (0 Bft) 92,00 %
_ Max-Zeit 17:20 06:36 00:00 00:00 14:38 - - 00:00 12:00 00:00 12:16 17:22 17:22 14:40 00:34
Maximum _ 0,5 C 98 % 1039,8 hPa 0,0 l/m 8,6 km/h
SW (2 Bft)
- - 0 min 0,026 mm 0,0 UV-I 101 W/m 0,1 C 0,5 C 14,5 km/h
S-SW (3 Bft)
100,00 %
Durchschnitt _ -0,6 C 97 % 1034,7 hPa #0,0 l/m 1,8 km/h (1 Bft) W - #0 min. #0,102 mm 0,0 UV-I 36 W/m -1,1 C -0,6 C 3,6 km/h (1 Bft) 98,62 %